<?xml version="1.0" encoding="UTF-8"?>
<gpx xmlns="http://www.topografix.com/GPX/1/1" version="1.1" xmlns:xsi="http://www.w3.org/2001/XMLSchema-instance" xsi:schemaLocation="http://www.topografix.com/GPX/1/1 http://www.topografix.com/GPX/1/1/gpx.xsd" creator="MotionXGPSFull 24.4 Build 5112 R64">
<trk>
<name><![CDATA[Wong Long Stream]]></name>
<desc><![CDATA[Dec 26, 2018 10:26 am]]></desc>
<trkseg>
<trkpt lat="22.2887474" lon="113.9406392">
<ele>26.445</ele>
<time>2018-12-26T02:27:02.995Z</time>
</trkpt>
<trkpt lat="22.2886727" lon="113.9407102">
<ele>26.433</ele>
<time>2018-12-26T02:27:09.745Z</time>
</trkpt>
<trkpt lat="22.2886218" lon="113.9407980">
<ele>26.428</ele>
<time>2018-12-26T02:27:15.867Z</time>
</trkpt>
<trkpt lat="22.2885795" lon="113.9409036">
<ele>26.296</ele>
<time>2018-12-26T02:27:22.914Z</time>
</trkpt>
<trkpt lat="22.2884916" lon="113.9409668">
<ele>25.892</ele>
<time>2018-12-26T02:27:32.123Z</time>
</trkpt>
<trkpt lat="22.2883924" lon="113.9409968">
<ele>25.296</ele>
<time>2018-12-26T02:27:40.521Z</time>
</trkpt>
<trkpt lat="22.2883083" lon="113.9410494">
<ele>24.663</ele>
<time>2018-12-26T02:27:48.196Z</time>
</trkpt>
<trkpt lat="22.2882657" lon="113.9409554">
<ele>23.854</ele>
<time>2018-12-26T02:27:58.395Z</time>
</trkpt>
<trkpt lat="22.2881657" lon="113.9409381">
<ele>22.753</ele>
<time>2018-12-26T02:28:08.154Z</time>
</trkpt>
<trkpt lat="22.2880596" lon="113.9409620">
<ele>21.711</ele>
<time>2018-12-26T02:28:16.360Z</time>
</trkpt>
<trkpt lat="22.2879748" lon="113.9409180">
<ele>21.027</ele>
<time>2018-12-26T02:28:23.643Z</time>
</trkpt>
<trkpt lat="22.2879308" lon="113.9408251">
<ele>20.551</ele>
<time>2018-12-26T02:28:29.998Z</time>
</trkpt>
<trkpt lat="22.2878396" lon="113.9408499">
<ele>19.975</ele>
<time>2018-12-26T02:28:35.514Z</time>
</trkpt>
<trkpt lat="22.2877478" lon="113.9408945">
<ele>19.105</ele>
<time>2018-12-26T02:28:42.271Z</time>
</trkpt>
<trkpt lat="22.2876617" lon="113.9408476">
<ele>18.172</ele>
<time>2018-12-26T02:28:50.294Z</time>
</trkpt>
<trkpt lat="22.2875696" lon="113.9408256">
<ele>17.573</ele>
<time>2018-12-26T02:28:59.558Z</time>
</trkpt>
<trkpt lat="22.2874779" lon="113.9407898">
<ele>17.274</ele>
<time>2018-12-26T02:29:09.692Z</time>
</trkpt>
<trkpt lat="22.2873867" lon="113.9407426">
<ele>16.981</ele>
<time>2018-12-26T02:29:18.424Z</time>
</trkpt>
<trkpt lat="22.2873607" lon="113.9406445">
<ele>16.596</ele>
<time>2018-12-26T02:29:27.432Z</time>
</trkpt>
<trkpt lat="22.2873607" lon="113.9406445">
<ele>16.596</ele>
<time>2018-12-26T02:29:27.432Z</time>
</trkpt>
<trkpt lat="22.2870628" lon="113.9410572">
<ele>15.752</ele>
<time>2018-12-26T02:30:10.975Z</time>
</trkpt>
<trkpt lat="22.2870023" lon="113.9409542">
<ele>15.744</ele>
<time>2018-12-26T02:30:18.802Z</time>
</trkpt>
<trkpt lat="22.2869525" lon="113.9408633">
<ele>15.788</ele>
<time>2018-12-26T02:30:27.138Z</time>
</trkpt>
<trkpt lat="22.2868948" lon="113.9409409">
<ele>15.927</ele>
<time>2018-12-26T02:30:33.065Z</time>
</trkpt>
<trkpt lat="22.2868452" lon="113.9410362">
<ele>16.159</ele>
<time>2018-12-26T02:30:38.162Z</time>
</trkpt>
<trkpt lat="22.2867683" lon="113.9411173">
<ele>16.524</ele>
<time>2018-12-26T02:30:43.878Z</time>
</trkpt>
<trkpt lat="22.2866991" lon="113.9411925">
<ele>17.134</ele>
<time>2018-12-26T02:30:49.722Z</time>
</trkpt>
<trkpt lat="22.2866133" lon="113.9412513">
<ele>17.880</ele>
<time>2018-12-26T02:30:56.534Z</time>
</trkpt>
<trkpt lat="22.2865177" lon="113.9412693">
<ele>18.437</ele>
<time>2018-12-26T02:31:03.353Z</time>
</trkpt>
<trkpt lat="22.2864929" lon="113.9413696">
<ele>18.884</ele>
<time>2018-12-26T02:31:11.403Z</time>
</trkpt>
<trkpt lat="22.2865040" lon="113.9414690">
<ele>19.472</ele>
<time>2018-12-26T02:31:20.795Z</time>
</trkpt>
<trkpt lat="22.2864279" lon="113.9415438">
<ele>20.003</ele>
<time>2018-12-26T02:31:29.199Z</time>
</trkpt>
<trkpt lat="22.2863525" lon="113.9415991">
<ele>20.300</ele>
<time>2018-12-26T02:31:34.830Z</time>
</trkpt>
<trkpt lat="22.2862781" lon="113.9416611">
<ele>20.492</ele>
<time>2018-12-26T02:31:42.474Z</time>
</trkpt>
<trkpt lat="22.2862139" lon="113.9417836">
<ele>20.570</ele>
<time>2018-12-26T02:31:53.860Z</time>
</trkpt>
<trkpt lat="22.2861367" lon="113.9418577">
<ele>20.416</ele>
<time>2018-12-26T02:32:00.199Z</time>
</trkpt>
<trkpt lat="22.2860599" lon="113.9419264">
<ele>20.092</ele>
<time>2018-12-26T02:32:06.136Z</time>
</trkpt>
<trkpt lat="22.2859778" lon="113.9419727">
<ele>19.760</ele>
<time>2018-12-26T02:32:12.455Z</time>
</trkpt>
<trkpt lat="22.2859098" lon="113.9420365">
<ele>19.511</ele>
<time>2018-12-26T02:32:19.868Z</time>
</trkpt>
<trkpt lat="22.2858755" lon="113.9421266">
<ele>19.374</ele>
<time>2018-12-26T02:32:27.832Z</time>
</trkpt>
<trkpt lat="22.2857968" lon="113.9421856">
<ele>19.344</ele>
<time>2018-12-26T02:32:35.814Z</time>
</trkpt>
<trkpt lat="22.2857167" lon="113.9422297">
<ele>19.326</ele>
<time>2018-12-26T02:32:43.183Z</time>
</trkpt>
<trkpt lat="22.2856609" lon="113.9423160">
<ele>19.239</ele>
<time>2018-12-26T02:32:51.354Z</time>
</trkpt>
<trkpt lat="22.2856029" lon="113.9424001">
<ele>19.128</ele>
<time>2018-12-26T02:32:58.463Z</time>
</trkpt>
<trkpt lat="22.2855226" lon="113.9424484">
<ele>19.134</ele>
<time>2018-12-26T02:33:05.198Z</time>
</trkpt>
<trkpt lat="22.2855226" lon="113.9424484">
<ele>19.134</ele>
<time>2018-12-26T02:33:05.198Z</time>
</trkpt>
<trkpt lat="22.2847755" lon="113.9424953">
<ele>23.188</ele>
<time>2018-12-26T02:34:00.034Z</time>
</trkpt>
<trkpt lat="22.2846840" lon="113.9425271">
<ele>23.178</ele>
<time>2018-12-26T02:34:07.842Z</time>
</trkpt>
<trkpt lat="22.2845887" lon="113.9425021">
<ele>23.091</ele>
<time>2018-12-26T02:34:16.804Z</time>
</trkpt>
<trkpt lat="22.2845079" lon="113.9424318">
<ele>22.877</ele>
<time>2018-12-26T02:34:28.326Z</time>
</trkpt>
<trkpt lat="22.2844611" lon="113.9423457">
<ele>22.529</ele>
<time>2018-12-26T02:34:36.609Z</time>
</trkpt>
<trkpt lat="22.2844058" lon="113.9422577">
<ele>22.092</ele>
<time>2018-12-26T02:34:44.867Z</time>
</trkpt>
<trkpt lat="22.2843181" lon="113.9421991">
<ele>21.873</ele>
<time>2018-12-26T02:34:52.923Z</time>
</trkpt>
<trkpt lat="22.2842456" lon="113.9421413">
<ele>22.203</ele>
<time>2018-12-26T02:34:59.785Z</time>
</trkpt>
<trkpt lat="22.2841666" lon="113.9420788">
<ele>23.009</ele>
<time>2018-12-26T02:35:07.163Z</time>
</trkpt>
<trkpt lat="22.2840905" lon="113.9420069">
<ele>23.985</ele>
<time>2018-12-26T02:35:14.668Z</time>
</trkpt>
<trkpt lat="22.2840027" lon="113.9419594">
<ele>24.787</ele>
<time>2018-12-26T02:35:22.166Z</time>
</trkpt>
<trkpt lat="22.2839257" lon="113.9418965">
<ele>25.147</ele>
<time>2018-12-26T02:35:29.857Z</time>
</trkpt>
<trkpt lat="22.2838555" lon="113.9418230">
<ele>24.970</ele>
<time>2018-12-26T02:35:37.568Z</time>
</trkpt>
<trkpt lat="22.2837688" lon="113.9417960">
<ele>24.309</ele>
<time>2018-12-26T02:35:44.525Z</time>
</trkpt>
<trkpt lat="22.2836853" lon="113.9417587">
<ele>23.468</ele>
<time>2018-12-26T02:35:51.224Z</time>
</trkpt>
<trkpt lat="22.2836138" lon="113.9416983">
<ele>22.834</ele>
<time>2018-12-26T02:35:57.762Z</time>
</trkpt>
<trkpt lat="22.2835448" lon="113.9416317">
<ele>22.524</ele>
<time>2018-12-26T02:36:04.308Z</time>
</trkpt>
<trkpt lat="22.2834708" lon="113.9415555">
<ele>22.411</ele>
<time>2018-12-26T02:36:11.646Z</time>
</trkpt>
<trkpt lat="22.2833852" lon="113.9414926">
<ele>22.374</ele>
<time>2018-12-26T02:36:19.426Z</time>
</trkpt>
<trkpt lat="22.2833071" lon="113.9414265">
<ele>22.324</ele>
<time>2018-12-26T02:36:27.137Z</time>
</trkpt>
<trkpt lat="22.2832295" lon="113.9413725">
<ele>22.206</ele>
<time>2018-12-26T02:36:34.369Z</time>
</trkpt>
<trkpt lat="22.2831531" lon="113.9413101">
<ele>21.920</ele>
<time>2018-12-26T02:36:41.919Z</time>
</trkpt>
<trkpt lat="22.2830673" lon="113.9412741">
<ele>21.399</ele>
<time>2018-12-26T02:36:49.277Z</time>
</trkpt>
<trkpt lat="22.2829939" lon="113.9412154">
<ele>20.765</ele>
<time>2018-12-26T02:36:56.379Z</time>
</trkpt>
<trkpt lat="22.2829218" lon="113.9411524">
<ele>20.252</ele>
<time>2018-12-26T02:37:03.228Z</time>
</trkpt>
<trkpt lat="22.2828366" lon="113.9411008">
<ele>19.943</ele>
<time>2018-12-26T02:37:10.854Z</time>
</trkpt>
<trkpt lat="22.2827627" lon="113.9410380">
<ele>19.733</ele>
<time>2018-12-26T02:37:18.805Z</time>
</trkpt>
<trkpt lat="22.2826974" lon="113.9409714">
<ele>19.506</ele>
<time>2018-12-26T02:37:25.719Z</time>
</trkpt>
<trkpt lat="22.2826199" lon="113.9409114">
<ele>19.199</ele>
<time>2018-12-26T02:37:32.121Z</time>
</trkpt>
<trkpt lat="22.2825461" lon="113.9408538">
<ele>18.840</ele>
<time>2018-12-26T02:37:38.073Z</time>
</trkpt>
<trkpt lat="22.2824728" lon="113.9407782">
<ele>18.574</ele>
<time>2018-12-26T02:37:45.268Z</time>
</trkpt>
<trkpt lat="22.2823971" lon="113.9407238">
<ele>18.446</ele>
<time>2018-12-26T02:37:52.410Z</time>
</trkpt>
<trkpt lat="22.2823090" lon="113.9406680">
<ele>18.355</ele>
<time>2018-12-26T02:38:00.615Z</time>
</trkpt>
<trkpt lat="22.2822226" lon="113.9406183">
<ele>18.240</ele>
<time>2018-12-26T02:38:07.975Z</time>
</trkpt>
<trkpt lat="22.2821606" lon="113.9405433">
<ele>18.110</ele>
<time>2018-12-26T02:38:14.952Z</time>
</trkpt>
<trkpt lat="22.2820931" lon="113.9404720">
<ele>17.981</ele>
<time>2018-12-26T02:38:22.226Z</time>
</trkpt>
<trkpt lat="22.2820087" lon="113.9404270">
<ele>17.845</ele>
<time>2018-12-26T02:38:29.459Z</time>
</trkpt>
<trkpt lat="22.2819271" lon="113.9403812">
<ele>17.725</ele>
<time>2018-12-26T02:38:36.507Z</time>
</trkpt>
<trkpt lat="22.2818611" lon="113.9403147">
<ele>17.666</ele>
<time>2018-12-26T02:38:43.900Z</time>
</trkpt>
<trkpt lat="22.2818195" lon="113.9402114">
<ele>17.714</ele>
<time>2018-12-26T02:38:54.246Z</time>
</trkpt>
<trkpt lat="22.2817623" lon="113.9401361">
<ele>17.856</ele>
<time>2018-12-26T02:39:05.233Z</time>
</trkpt>
<trkpt lat="22.2816954" lon="113.9400431">
<ele>17.927</ele>
<time>2018-12-26T02:39:14.277Z</time>
</trkpt>
<trkpt lat="22.2816014" lon="113.9400087">
<ele>17.801</ele>
<time>2018-12-26T02:39:21.235Z</time>
</trkpt>
<trkpt lat="22.2815260" lon="113.9399403">
<ele>17.458</ele>
<time>2018-12-26T02:39:27.036Z</time>
</trkpt>
<trkpt lat="22.2814728" lon="113.9398561">
<ele>16.546</ele>
<time>2018-12-26T02:39:32.611Z</time>
</trkpt>
<trkpt lat="22.2814061" lon="113.9397730">
<ele>16.283</ele>
<time>2018-12-26T02:39:39.304Z</time>
</trkpt>
<trkpt lat="22.2813249" lon="113.9397039">
<ele>16.028</ele>
<time>2018-12-26T02:39:46.592Z</time>
</trkpt>
<trkpt lat="22.2812573" lon="113.9396373">
<ele>15.941</ele>
<time>2018-12-26T02:39:53.494Z</time>
</trkpt>
<trkpt lat="22.2811692" lon="113.9396735">
<ele>15.874</ele>
<time>2018-12-26T02:40:01.240Z</time>
</trkpt>
<trkpt lat="22.2811283" lon="113.9397731">
<ele>15.880</ele>
<time>2018-12-26T02:40:13.510Z</time>
</trkpt>
<trkpt lat="22.2810696" lon="113.9398567">
<ele>15.975</ele>
<time>2018-12-26T02:40:27.025Z</time>
</trkpt>
<trkpt lat="22.2809902" lon="113.9399134">
<ele>16.097</ele>
<time>2018-12-26T02:40:35.675Z</time>
</trkpt>
<trkpt lat="22.2808994" lon="113.9399736">
<ele>16.185</ele>
<time>2018-12-26T02:40:44.442Z</time>
</trkpt>
<trkpt lat="22.2808134" lon="113.9400283">
<ele>16.303</ele>
<time>2018-12-26T02:40:52.497Z</time>
</trkpt>
<trkpt lat="22.2807130" lon="113.9400324">
<ele>16.522</ele>
<time>2018-12-26T02:40:59.213Z</time>
</trkpt>
<trkpt lat="22.2806281" lon="113.9400924">
<ele>16.755</ele>
<time>2018-12-26T02:41:05.343Z</time>
</trkpt>
<trkpt lat="22.2805394" lon="113.9401266">
<ele>16.921</ele>
<time>2018-12-26T02:41:11.777Z</time>
</trkpt>
<trkpt lat="22.2804628" lon="113.9401911">
<ele>17.054</ele>
<time>2018-12-26T02:41:19.152Z</time>
</trkpt>
<trkpt lat="22.2803820" lon="113.9402554">
<ele>17.163</ele>
<time>2018-12-26T02:41:29.071Z</time>
</trkpt>
<trkpt lat="22.2803163" lon="113.9403247">
<ele>17.273</ele>
<time>2018-12-26T02:41:36.218Z</time>
</trkpt>
<trkpt lat="22.2802145" lon="113.9403338">
<ele>17.448</ele>
<time>2018-12-26T02:41:44.039Z</time>
</trkpt>
<trkpt lat="22.2801460" lon="113.9405627">
<ele>17.639</ele>
<time>2018-12-26T02:41:58.190Z</time>
</trkpt>
<trkpt lat="22.2800605" lon="113.9405986">
<ele>17.733</ele>
<time>2018-12-26T02:42:01.860Z</time>
</trkpt>
<trkpt lat="22.2799769" lon="113.9406539">
<ele>17.661</ele>
<time>2018-12-26T02:42:06.048Z</time>
</trkpt>
<trkpt lat="22.2799122" lon="113.9407356">
<ele>17.458</ele>
<time>2018-12-26T02:42:10.912Z</time>
</trkpt>
<trkpt lat="22.2798348" lon="113.9408047">
<ele>17.186</ele>
<time>2018-12-26T02:42:16.771Z</time>
</trkpt>
<trkpt lat="22.2797538" lon="113.9407490">
<ele>16.856</ele>
<time>2018-12-26T02:42:24.361Z</time>
</trkpt>
<trkpt lat="22.2796826" lon="113.9406719">
<ele>16.485</ele>
<time>2018-12-26T02:42:33.552Z</time>
</trkpt>
<trkpt lat="22.2796009" lon="113.9406195">
<ele>16.112</ele>
<time>2018-12-26T02:42:41.834Z</time>
</trkpt>
<trkpt lat="22.2795575" lon="113.9405322">
<ele>15.713</ele>
<time>2018-12-26T02:42:49.642Z</time>
</trkpt>
<trkpt lat="22.2794955" lon="113.9404589">
<ele>15.327</ele>
<time>2018-12-26T02:42:57.366Z</time>
</trkpt>
<trkpt lat="22.2794400" lon="113.9403788">
<ele>15.113</ele>
<time>2018-12-26T02:43:04.667Z</time>
</trkpt>
<trkpt lat="22.2793741" lon="113.9403016">
<ele>15.254</ele>
<time>2018-12-26T02:43:11.851Z</time>
</trkpt>
<trkpt lat="22.2792839" lon="113.9403170">
<ele>15.673</ele>
<time>2018-12-26T02:43:18.828Z</time>
</trkpt>
<trkpt lat="22.2791961" lon="113.9403732">
<ele>15.993</ele>
<time>2018-12-26T02:43:26.888Z</time>
</trkpt>
<trkpt lat="22.2791008" lon="113.9404062">
<ele>15.992</ele>
<time>2018-12-26T02:43:34.990Z</time>
</trkpt>
<trkpt lat="22.2790274" lon="113.9404638">
<ele>15.845</ele>
<time>2018-12-26T02:43:42.488Z</time>
</trkpt>
<trkpt lat="22.2789514" lon="113.9405264">
<ele>15.773</ele>
<time>2018-12-26T02:43:50.545Z</time>
</trkpt>
<trkpt lat="22.2788740" lon="113.9405875">
<ele>15.847</ele>
<time>2018-12-26T02:43:58.897Z</time>
</trkpt>
<trkpt lat="22.2787897" lon="113.9406312">
<ele>16.078</ele>
<time>2018-12-26T02:44:06.586Z</time>
</trkpt>
<trkpt lat="22.2787136" lon="113.9406936">
<ele>16.465</ele>
<time>2018-12-26T02:44:14.088Z</time>
</trkpt>
<trkpt lat="22.2786410" lon="113.9407655">
<ele>17.028</ele>
<time>2018-12-26T02:44:22.014Z</time>
</trkpt>
<trkpt lat="22.2785876" lon="113.9408440">
<ele>17.670</ele>
<time>2018-12-26T02:44:29.554Z</time>
</trkpt>
<trkpt lat="22.2785316" lon="113.9409310">
<ele>18.152</ele>
<time>2018-12-26T02:44:39.059Z</time>
</trkpt>
<trkpt lat="22.2784840" lon="113.9410207">
<ele>18.396</ele>
<time>2018-12-26T02:44:48.699Z</time>
</trkpt>
<trkpt lat="22.2784221" lon="113.9410947">
<ele>18.724</ele>
<time>2018-12-26T02:44:57.062Z</time>
</trkpt>
<trkpt lat="22.2783588" lon="113.9411785">
<ele>19.350</ele>
<time>2018-12-26T02:45:05.702Z</time>
</trkpt>
<trkpt lat="22.2782815" lon="113.9412517">
<ele>19.990</ele>
<time>2018-12-26T02:45:14.790Z</time>
</trkpt>
<trkpt lat="22.2782168" lon="113.9413433">
<ele>20.319</ele>
<time>2018-12-26T02:45:23.015Z</time>
</trkpt>
<trkpt lat="22.2781369" lon="113.9414089">
<ele>20.378</ele>
<time>2018-12-26T02:45:30.536Z</time>
</trkpt>
<trkpt lat="22.2780454" lon="113.9414485">
<ele>20.425</ele>
<time>2018-12-26T02:45:38.260Z</time>
</trkpt>
<trkpt lat="22.2779633" lon="113.9414929">
<ele>20.628</ele>
<time>2018-12-26T02:45:44.214Z</time>
</trkpt>
<trkpt lat="22.2778706" lon="113.9415263">
<ele>20.834</ele>
<time>2018-12-26T02:45:50.155Z</time>
</trkpt>
<trkpt lat="22.2777819" lon="113.9415722">
<ele>20.789</ele>
<time>2018-12-26T02:45:56.700Z</time>
</trkpt>
<trkpt lat="22.2776798" lon="113.9415777">
<ele>20.520</ele>
<time>2018-12-26T02:46:04.990Z</time>
</trkpt>
<trkpt lat="22.2775826" lon="113.9416153">
<ele>20.348</ele>
<time>2018-12-26T02:46:13.881Z</time>
</trkpt>
<trkpt lat="22.2774928" lon="113.9416247">
<ele>20.472</ele>
<time>2018-12-26T02:46:21.113Z</time>
</trkpt>
<trkpt lat="22.2774023" lon="113.9416113">
<ele>20.758</ele>
<time>2018-12-26T02:46:28.094Z</time>
</trkpt>
<trkpt lat="22.2773073" lon="113.9416482">
<ele>21.023</ele>
<time>2018-12-26T02:46:34.816Z</time>
</trkpt>
<trkpt lat="22.2772146" lon="113.9416744">
<ele>21.186</ele>
<time>2018-12-26T02:46:40.994Z</time>
</trkpt>
<trkpt lat="22.2771366" lon="113.9417281">
<ele>21.284</ele>
<time>2018-12-26T02:46:46.848Z</time>
</trkpt>
<trkpt lat="22.2770731" lon="113.9418054">
<ele>21.428</ele>
<time>2018-12-26T02:46:52.842Z</time>
</trkpt>
<trkpt lat="22.2769914" lon="113.9418525">
<ele>21.629</ele>
<time>2018-12-26T02:47:00.034Z</time>
</trkpt>
<trkpt lat="22.2769609" lon="113.9419487">
<ele>21.860</ele>
<time>2018-12-26T02:47:09.507Z</time>
</trkpt>
<trkpt lat="22.2768977" lon="113.9420288">
<ele>22.225</ele>
<time>2018-12-26T02:47:21.271Z</time>
</trkpt>
<trkpt lat="22.2768543" lon="113.9421268">
<ele>22.949</ele>
<time>2018-12-26T02:47:32.133Z</time>
</trkpt>
<trkpt lat="22.2767808" lon="113.9421960">
<ele>24.116</ele>
<time>2018-12-26T02:47:40.184Z</time>
</trkpt>
<trkpt lat="22.2767055" lon="113.9422666">
<ele>25.383</ele>
<time>2018-12-26T02:47:47.313Z</time>
</trkpt>
<trkpt lat="22.2766527" lon="113.9423572">
<ele>26.231</ele>
<time>2018-12-26T02:47:54.272Z</time>
</trkpt>
<trkpt lat="22.2766106" lon="113.9424501">
<ele>26.496</ele>
<time>2018-12-26T02:48:00.976Z</time>
</trkpt>
<trkpt lat="22.2765988" lon="113.9425552">
<ele>26.402</ele>
<time>2018-12-26T02:48:08.128Z</time>
</trkpt>
<trkpt lat="22.2765321" lon="113.9426227">
<ele>26.440</ele>
<time>2018-12-26T02:48:16.536Z</time>
</trkpt>
<trkpt lat="22.2764632" lon="113.9426974">
<ele>27.148</ele>
<time>2018-12-26T02:48:25.631Z</time>
</trkpt>
<trkpt lat="22.2764105" lon="113.9427861">
<ele>28.423</ele>
<time>2018-12-26T02:48:33.266Z</time>
</trkpt>
<trkpt lat="22.2763445" lon="113.9428577">
<ele>29.547</ele>
<time>2018-12-26T02:48:40.613Z</time>
</trkpt>
<trkpt lat="22.2762977" lon="113.9429422">
<ele>30.087</ele>
<time>2018-12-26T02:48:47.645Z</time>
</trkpt>
<trkpt lat="22.2762403" lon="113.9430303">
<ele>30.177</ele>
<time>2018-12-26T02:48:54.872Z</time>
</trkpt>
<trkpt lat="22.2762139" lon="113.9431329">
<ele>30.095</ele>
<time>2018-12-26T02:49:01.551Z</time>
</trkpt>
<trkpt lat="22.2761350" lon="113.9431955">
<ele>29.913</ele>
<time>2018-12-26T02:49:08.490Z</time>
</trkpt>
<trkpt lat="22.2760435" lon="113.9432258">
<ele>29.577</ele>
<time>2018-12-26T02:49:15.487Z</time>
</trkpt>
<trkpt lat="22.2759705" lon="113.9432885">
<ele>29.157</ele>
<time>2018-12-26T02:49:22.104Z</time>
</trkpt>
<trkpt lat="22.2759063" lon="113.9433617">
<ele>28.792</ele>
<time>2018-12-26T02:49:28.854Z</time>
</trkpt>
<trkpt lat="22.2758665" lon="113.9434520">
<ele>28.531</ele>
<time>2018-12-26T02:49:35.973Z</time>
</trkpt>
<trkpt lat="22.2758068" lon="113.9435252">
<ele>28.353</ele>
<time>2018-12-26T02:49:43.164Z</time>
</trkpt>
<trkpt lat="22.2757432" lon="113.9436026">
<ele>28.250</ele>
<time>2018-12-26T02:49:51.154Z</time>
</trkpt>
<trkpt lat="22.2756689" lon="113.9436773">
<ele>28.320</ele>
<time>2018-12-26T02:49:59.864Z</time>
</trkpt>
<trkpt lat="22.2756026" lon="113.9437468">
<ele>28.818</ele>
<time>2018-12-26T02:50:06.995Z</time>
</trkpt>
<trkpt lat="22.2755559" lon="113.9438314">
<ele>29.804</ele>
<time>2018-12-26T02:50:14.119Z</time>
</trkpt>
<trkpt lat="22.2755386" lon="113.9439312">
<ele>30.860</ele>
<time>2018-12-26T02:50:22.214Z</time>
</trkpt>
<trkpt lat="22.2754803" lon="113.9440112">
<ele>31.558</ele>
<time>2018-12-26T02:50:31.659Z</time>
</trkpt>
<trkpt lat="22.2754521" lon="113.9441126">
<ele>31.875</ele>
<time>2018-12-26T02:50:41.785Z</time>
</trkpt>
<trkpt lat="22.2753717" lon="113.9441804">
<ele>32.032</ele>
<time>2018-12-26T02:50:50.198Z</time>
</trkpt>
<trkpt lat="22.2752970" lon="113.9442543">
<ele>32.344</ele>
<time>2018-12-26T02:50:57.977Z</time>
</trkpt>
<trkpt lat="22.2752941" lon="113.9443573">
<ele>33.117</ele>
<time>2018-12-26T02:51:06.319Z</time>
</trkpt>
<trkpt lat="22.2752206" lon="113.9444247">
<ele>34.264</ele>
<time>2018-12-26T02:51:15.561Z</time>
</trkpt>
<trkpt lat="22.2751407" lon="113.9444783">
<ele>35.242</ele>
<time>2018-12-26T02:51:23.562Z</time>
</trkpt>
<trkpt lat="22.2750645" lon="113.9445423">
<ele>35.711</ele>
<time>2018-12-26T02:51:30.758Z</time>
</trkpt>
<trkpt lat="22.2749853" lon="113.9445956">
<ele>35.826</ele>
<time>2018-12-26T02:51:37.571Z</time>
</trkpt>
<trkpt lat="22.2749122" lon="113.9446631">
<ele>35.878</ele>
<time>2018-12-26T02:51:44.627Z</time>
</trkpt>
<trkpt lat="22.2748469" lon="113.9447608">
<ele>36.132</ele>
<time>2018-12-26T02:51:53.902Z</time>
</trkpt>
<trkpt lat="22.2747625" lon="113.9448219">
<ele>36.677</ele>
<time>2018-12-26T02:52:02.375Z</time>
</trkpt>
<trkpt lat="22.2747118" lon="113.9449046">
<ele>37.375</ele>
<time>2018-12-26T02:52:09.043Z</time>
</trkpt>
<trkpt lat="22.2746430" lon="113.9449777">
<ele>37.999</ele>
<time>2018-12-26T02:52:15.929Z</time>
</trkpt>
<trkpt lat="22.2745536" lon="113.9449896">
<ele>38.391</ele>
<time>2018-12-26T02:52:22.990Z</time>
</trkpt>
<trkpt lat="22.2744792" lon="113.9450647">
<ele>38.686</ele>
<time>2018-12-26T02:52:32.195Z</time>
</trkpt>
<trkpt lat="22.2744418" lon="113.9451629">
<ele>39.156</ele>
<time>2018-12-26T02:52:41.513Z</time>
</trkpt>
<trkpt lat="22.2743854" lon="113.9452399">
<ele>39.770</ele>
<time>2018-12-26T02:52:49.513Z</time>
</trkpt>
<trkpt lat="22.2743318" lon="113.9453207">
<ele>40.557</ele>
<time>2018-12-26T02:52:57.567Z</time>
</trkpt>
<trkpt lat="22.2743637" lon="113.9454156">
<ele>41.636</ele>
<time>2018-12-26T02:53:05.829Z</time>
</trkpt>
<trkpt lat="22.2743328" lon="113.9455086">
<ele>42.700</ele>
<time>2018-12-26T02:53:12.982Z</time>
</trkpt>
<trkpt lat="22.2742791" lon="113.9456014">
<ele>43.339</ele>
<time>2018-12-26T02:53:19.962Z</time>
</trkpt>
<trkpt lat="22.2742228" lon="113.9456875">
<ele>43.666</ele>
<time>2018-12-26T02:53:26.667Z</time>
</trkpt>
<trkpt lat="22.2741533" lon="113.9457703">
<ele>43.945</ele>
<time>2018-12-26T02:53:34.152Z</time>
</trkpt>
<trkpt lat="22.2741525" lon="113.9458697">
<ele>44.227</ele>
<time>2018-12-26T02:53:41.535Z</time>
</trkpt>
<trkpt lat="22.2740838" lon="113.9459509">
<ele>44.452</ele>
<time>2018-12-26T02:53:49.757Z</time>
</trkpt>
<trkpt lat="22.2740181" lon="113.9460350">
<ele>44.633</ele>
<time>2018-12-26T02:53:56.974Z</time>
</trkpt>
<trkpt lat="22.2739841" lon="113.9461251">
<ele>44.801</ele>
<time>2018-12-26T02:54:03.134Z</time>
</trkpt>
<trkpt lat="22.2739360" lon="113.9462086">
<ele>44.993</ele>
<time>2018-12-26T02:54:10.144Z</time>
</trkpt>
<trkpt lat="22.2738745" lon="113.9462945">
<ele>45.256</ele>
<time>2018-12-26T02:54:18.115Z</time>
</trkpt>
<trkpt lat="22.2738402" lon="113.9463991">
<ele>45.579</ele>
<time>2018-12-26T02:54:25.226Z</time>
</trkpt>
<trkpt lat="22.2738376" lon="113.9465071">
<ele>45.857</ele>
<time>2018-12-26T02:54:32.254Z</time>
</trkpt>
<trkpt lat="22.2737944" lon="113.9466077">
<ele>46.140</ele>
<time>2018-12-26T02:54:40.249Z</time>
</trkpt>
<trkpt lat="22.2737352" lon="113.9466853">
<ele>46.502</ele>
<time>2018-12-26T02:54:47.497Z</time>
</trkpt>
<trkpt lat="22.2736828" lon="113.9467709">
<ele>46.839</ele>
<time>2018-12-26T02:54:54.587Z</time>
</trkpt>
<trkpt lat="22.2736199" lon="113.9468420">
<ele>47.095</ele>
<time>2018-12-26T02:55:01.385Z</time>
</trkpt>
<trkpt lat="22.2735596" lon="113.9469244">
<ele>47.344</ele>
<time>2018-12-26T02:55:08.959Z</time>
</trkpt>
<trkpt lat="22.2734753" lon="113.9469811">
<ele>47.585</ele>
<time>2018-12-26T02:55:16.997Z</time>
</trkpt>
<trkpt lat="22.2734753" lon="113.9469811">
<ele>47.714</ele>
<time>2018-12-26T02:55:23.997Z</time>
</trkpt>
<trkpt lat="22.2734753" lon="113.9469811">
<ele>47.690</ele>
<time>2018-12-26T02:55:28.996Z</time>
</trkpt>
<trkpt lat="22.2733521" lon="113.9469917">
<ele>47.606</ele>
<time>2018-12-26T02:55:46.531Z</time>
</trkpt>
<trkpt lat="22.2732541" lon="113.9470199">
<ele>47.813</ele>
<time>2018-12-26T02:55:54.984Z</time>
</trkpt>
<trkpt lat="22.2731504" lon="113.9470143">
<ele>48.394</ele>
<time>2018-12-26T02:56:02.050Z</time>
</trkpt>
<trkpt lat="22.2730740" lon="113.9470671">
<ele>49.148</ele>
<time>2018-12-26T02:56:08.023Z</time>
</trkpt>
<trkpt lat="22.2730045" lon="113.9471444">
<ele>49.707</ele>
<time>2018-12-26T02:56:14.795Z</time>
</trkpt>
<trkpt lat="22.2729538" lon="113.9472267">
<ele>50.018</ele>
<time>2018-12-26T02:56:21.400Z</time>
</trkpt>
<trkpt lat="22.2729172" lon="113.9473272">
<ele>50.217</ele>
<time>2018-12-26T02:56:29.082Z</time>
</trkpt>
<trkpt lat="22.2728655" lon="113.9474119">
<ele>50.368</ele>
<time>2018-12-26T02:56:36.607Z</time>
</trkpt>
<trkpt lat="22.2727757" lon="113.9474591">
<ele>50.532</ele>
<time>2018-12-26T02:56:44.948Z</time>
</trkpt>
<trkpt lat="22.2726832" lon="113.9475007">
<ele>50.785</ele>
<time>2018-12-26T02:56:53.541Z</time>
</trkpt>
<trkpt lat="22.2725925" lon="113.9475107">
<ele>51.208</ele>
<time>2018-12-26T02:57:01.117Z</time>
</trkpt>
<trkpt lat="22.2724964" lon="113.9475507">
<ele>51.784</ele>
<time>2018-12-26T02:57:08.941Z</time>
</trkpt>
<trkpt lat="22.2723921" lon="113.9475631">
<ele>52.567</ele>
<time>2018-12-26T02:57:16.216Z</time>
</trkpt>
<trkpt lat="22.2723024" lon="113.9475966">
<ele>53.616</ele>
<time>2018-12-26T02:57:22.780Z</time>
</trkpt>
<trkpt lat="22.2722106" lon="113.9475950">
<ele>54.653</ele>
<time>2018-12-26T02:57:29.359Z</time>
</trkpt>
<trkpt lat="22.2721156" lon="113.9476128">
<ele>55.354</ele>
<time>2018-12-26T02:57:36.381Z</time>
</trkpt>
<trkpt lat="22.2720166" lon="113.9476049">
<ele>55.820</ele>
<time>2018-12-26T02:57:43.718Z</time>
</trkpt>
<trkpt lat="22.2719384" lon="113.9476737">
<ele>56.257</ele>
<time>2018-12-26T02:57:51.221Z</time>
</trkpt>
<trkpt lat="22.2718742" lon="113.9477425">
<ele>56.695</ele>
<time>2018-12-26T02:57:57.445Z</time>
</trkpt>
<trkpt lat="22.2717884" lon="113.9477980">
<ele>56.989</ele>
<time>2018-12-26T02:58:04.172Z</time>
</trkpt>
<trkpt lat="22.2717027" lon="113.9478290">
<ele>57.134</ele>
<time>2018-12-26T02:58:10.459Z</time>
</trkpt>
<trkpt lat="22.2716183" lon="113.9478796">
<ele>57.262</ele>
<time>2018-12-26T02:58:17.453Z</time>
</trkpt>
<trkpt lat="22.2715337" lon="113.9479273">
<ele>57.411</ele>
<time>2018-12-26T02:58:24.662Z</time>
</trkpt>
<trkpt lat="22.2714811" lon="113.9480068">
<ele>57.589</ele>
<time>2018-12-26T02:58:32.225Z</time>
</trkpt>
<trkpt lat="22.2713971" lon="113.9480652">
<ele>57.844</ele>
<time>2018-12-26T02:58:42.097Z</time>
</trkpt>
<trkpt lat="22.2713409" lon="113.9481443">
<ele>58.181</ele>
<time>2018-12-26T02:58:50.581Z</time>
</trkpt>
<trkpt lat="22.2712828" lon="113.9482358">
<ele>58.576</ele>
<time>2018-12-26T02:58:58.234Z</time>
</trkpt>
<trkpt lat="22.2712276" lon="113.9483250">
<ele>59.026</ele>
<time>2018-12-26T02:59:05.064Z</time>
</trkpt>
<trkpt lat="22.2711735" lon="113.9484178">
<ele>59.482</ele>
<time>2018-12-26T02:59:12.009Z</time>
</trkpt>
<trkpt lat="22.2711274" lon="113.9485027">
<ele>59.843</ele>
<time>2018-12-26T02:59:18.873Z</time>
</trkpt>
<trkpt lat="22.2710725" lon="113.9485856">
<ele>60.060</ele>
<time>2018-12-26T02:59:26.995Z</time>
</trkpt>
<trkpt lat="22.2710657" lon="113.9486852">
<ele>60.255</ele>
<time>2018-12-26T02:59:35.033Z</time>
</trkpt>
<trkpt lat="22.2710732" lon="113.9487923">
<ele>60.538</ele>
<time>2018-12-26T02:59:43.097Z</time>
</trkpt>
<trkpt lat="22.2710459" lon="113.9488904">
<ele>60.858</ele>
<time>2018-12-26T02:59:50.259Z</time>
</trkpt>
<trkpt lat="22.2710908" lon="113.9489820">
<ele>61.235</ele>
<time>2018-12-26T02:59:57.583Z</time>
</trkpt>
<trkpt lat="22.2711897" lon="113.9489967">
<ele>61.823</ele>
<time>2018-12-26T03:00:05.420Z</time>
</trkpt>
<trkpt lat="22.2711754" lon="113.9490943">
<ele>62.509</ele>
<time>2018-12-26T03:00:12.897Z</time>
</trkpt>
<trkpt lat="22.2711398" lon="113.9491998">
<ele>63.102</ele>
<time>2018-12-26T03:00:20.058Z</time>
</trkpt>
<trkpt lat="22.2711157" lon="113.9492937">
<ele>63.647</ele>
<time>2018-12-26T03:00:25.352Z</time>
</trkpt>
<trkpt lat="22.2711525" lon="113.9493850">
<ele>64.289</ele>
<time>2018-12-26T03:00:30.947Z</time>
</trkpt>
<trkpt lat="22.2711769" lon="113.9494811">
<ele>64.965</ele>
<time>2018-12-26T03:00:37.289Z</time>
</trkpt>
<trkpt lat="22.2711994" lon="113.9495880">
<ele>65.606</ele>
<time>2018-12-26T03:00:44.780Z</time>
</trkpt>
<trkpt lat="22.2712853" lon="113.9496351">
<ele>66.202</ele>
<time>2018-12-26T03:00:52.634Z</time>
</trkpt>
<trkpt lat="22.2713494" lon="113.9497174">
<ele>66.655</ele>
<time>2018-12-26T03:01:01.248Z</time>
</trkpt>
<trkpt lat="22.2714091" lon="113.9497940">
<ele>66.875</ele>
<time>2018-12-26T03:01:09.056Z</time>
</trkpt>
<trkpt lat="22.2713844" lon="113.9498891">
<ele>67.012</ele>
<time>2018-12-26T03:01:16.148Z</time>
</trkpt>
<trkpt lat="22.2714188" lon="113.9499863">
<ele>67.271</ele>
<time>2018-12-26T03:01:22.879Z</time>
</trkpt>
<trkpt lat="22.2714747" lon="113.9500641">
<ele>67.681</ele>
<time>2018-12-26T03:01:29.241Z</time>
</trkpt>
<trkpt lat="22.2715423" lon="113.9501371">
<ele>68.104</ele>
<time>2018-12-26T03:01:36.131Z</time>
</trkpt>
<trkpt lat="22.2715291" lon="113.9502435">
<ele>68.620</ele>
<time>2018-12-26T03:01:43.509Z</time>
</trkpt>
<trkpt lat="22.2716124" lon="113.9502868">
<ele>69.503</ele>
<time>2018-12-26T03:01:51.306Z</time>
</trkpt>
<trkpt lat="22.2716823" lon="113.9503608">
<ele>70.685</ele>
<time>2018-12-26T03:01:59.366Z</time>
</trkpt>
<trkpt lat="22.2717725" lon="113.9504109">
<ele>71.760</ele>
<time>2018-12-26T03:02:07.058Z</time>
</trkpt>
<trkpt lat="22.2718130" lon="113.9505115">
<ele>72.571</ele>
<time>2018-12-26T03:02:14.376Z</time>
</trkpt>
<trkpt lat="22.2718584" lon="113.9506100">
<ele>73.180</ele>
<time>2018-12-26T03:02:21.623Z</time>
</trkpt>
<trkpt lat="22.2719108" lon="113.9507019">
<ele>73.540</ele>
<time>2018-12-26T03:02:28.969Z</time>
</trkpt>
<trkpt lat="22.2719236" lon="113.9508046">
<ele>73.649</ele>
<time>2018-12-26T03:02:37.149Z</time>
</trkpt>
<trkpt lat="22.2719497" lon="113.9508996">
<ele>73.814</ele>
<time>2018-12-26T03:02:44.997Z</time>
</trkpt>
<trkpt lat="22.2719497" lon="113.9508996">
<ele>74.243</ele>
<time>2018-12-26T03:02:52.997Z</time>
</trkpt>
<trkpt lat="22.2719497" lon="113.9508996">
<ele>74.600</ele>
<time>2018-12-26T03:03:42.889Z</time>
</trkpt>
<trkpt lat="22.2720466" lon="113.9510675">
<ele>74.565</ele>
<time>2018-12-26T03:04:13.147Z</time>
</trkpt>
<trkpt lat="22.2720727" lon="113.9511635">
<ele>75.276</ele>
<time>2018-12-26T03:04:21.965Z</time>
</trkpt>
<trkpt lat="22.2721223" lon="113.9512490">
<ele>77.558</ele>
<time>2018-12-26T03:04:31.050Z</time>
</trkpt>
<trkpt lat="22.2721374" lon="113.9513499">
<ele>79.907</ele>
<time>2018-12-26T03:04:39.821Z</time>
</trkpt>
<trkpt lat="22.2721971" lon="113.9514305">
<ele>80.812</ele>
<time>2018-12-26T03:04:48.223Z</time>
</trkpt>
<trkpt lat="22.2721984" lon="113.9515288">
<ele>80.702</ele>
<time>2018-12-26T03:04:54.835Z</time>
</trkpt>
<trkpt lat="22.2722122" lon="113.9516340">
<ele>80.309</ele>
<time>2018-12-26T03:05:01.273Z</time>
</trkpt>
<trkpt lat="22.2722417" lon="113.9517439">
<ele>79.919</ele>
<time>2018-12-26T03:05:08.483Z</time>
</trkpt>
<trkpt lat="22.2722428" lon="113.9518517">
<ele>79.621</ele>
<time>2018-12-26T03:05:15.509Z</time>
</trkpt>
<trkpt lat="22.2722789" lon="113.9519525">
<ele>79.477</ele>
<time>2018-12-26T03:05:22.938Z</time>
</trkpt>
<trkpt lat="22.2722900" lon="113.9520530">
<ele>79.387</ele>
<time>2018-12-26T03:05:30.317Z</time>
</trkpt>
<trkpt lat="22.2722624" lon="113.9521485">
<ele>79.178</ele>
<time>2018-12-26T03:05:36.656Z</time>
</trkpt>
<trkpt lat="22.2723047" lon="113.9522449">
<ele>78.808</ele>
<time>2018-12-26T03:05:42.900Z</time>
</trkpt>
<trkpt lat="22.2723461" lon="113.9523368">
<ele>78.414</ele>
<time>2018-12-26T03:05:49.009Z</time>
</trkpt>
<trkpt lat="22.2724045" lon="113.9524303">
<ele>78.101</ele>
<time>2018-12-26T03:05:55.992Z</time>
</trkpt>
<trkpt lat="22.2724045" lon="113.9524303">
<ele>77.869</ele>
<time>2018-12-26T03:06:05.992Z</time>
</trkpt>
<trkpt lat="22.2724045" lon="113.9524303">
<ele>77.732</ele>
<time>2018-12-26T03:08:36.890Z</time>
</trkpt>
<trkpt lat="22.2725038" lon="113.9526268">
<ele>77.710</ele>
<time>2018-12-26T03:09:01.998Z</time>
</trkpt>
<trkpt lat="22.2725038" lon="113.9526268">
<ele>77.719</ele>
<time>2018-12-26T03:09:02.998Z</time>
</trkpt>
<trkpt lat="22.2725038" lon="113.9526268">
<ele>77.691</ele>
<time>2018-12-26T03:09:22.160Z</time>
</trkpt>
<trkpt lat="22.2726014" lon="113.9525940">
<ele>77.646</ele>
<time>2018-12-26T03:09:35.997Z</time>
</trkpt>
<trkpt lat="22.2726014" lon="113.9525940">
<ele>77.611</ele>
<time>2018-12-26T03:09:36.997Z</time>
</trkpt>
<trkpt lat="22.2726014" lon="113.9525940">
<ele>77.576</ele>
<time>2018-12-26T03:09:40.295Z</time>
</trkpt>
<trkpt lat="22.2726164" lon="113.9526912">
<ele>77.521</ele>
<time>2018-12-26T03:10:01.802Z</time>
</trkpt>
<trkpt lat="22.2726353" lon="113.9527965">
<ele>77.162</ele>
<time>2018-12-26T03:10:10.860Z</time>
</trkpt>
<trkpt lat="22.2725673" lon="113.9528733">
<ele>76.199</ele>
<time>2018-12-26T03:10:18.330Z</time>
</trkpt>
<trkpt lat="22.2724800" lon="113.9529039">
<ele>75.115</ele>
<time>2018-12-26T03:10:24.996Z</time>
</trkpt>
<trkpt lat="22.2724800" lon="113.9529039">
<ele>74.478</ele>
<time>2018-12-26T03:10:35.996Z</time>
</trkpt>
<trkpt lat="22.2724800" lon="113.9529039">
<ele>74.271</ele>
<time>2018-12-26T03:11:26.230Z</time>
</trkpt>
<trkpt lat="22.2724766" lon="113.9530430">
<ele>74.284</ele>
<time>2018-12-26T03:11:35.994Z</time>
</trkpt>
<trkpt lat="22.2724766" lon="113.9530430">
<ele>74.318</ele>
<time>2018-12-26T03:11:38.994Z</time>
</trkpt>
<trkpt lat="22.2724766" lon="113.9530430">
<ele>74.291</ele>
<time>2018-12-26T03:11:39.094Z</time>
</trkpt>
<trkpt lat="22.2724766" lon="113.9530430">
<ele>74.216</ele>
<time>2018-12-26T03:12:38.993Z</time>
</trkpt>
<trkpt lat="22.2724766" lon="113.9530430">
<ele>74.207</ele>
<time>2018-12-26T03:13:59.868Z</time>
</trkpt>
<trkpt lat="22.2725733" lon="113.9530601">
<ele>74.184</ele>
<time>2018-12-26T03:14:08.991Z</time>
</trkpt>
<trkpt lat="22.2725733" lon="113.9530601">
<ele>74.147</ele>
<time>2018-12-26T03:14:10.991Z</time>
</trkpt>
<trkpt lat="22.2725733" lon="113.9530601">
<ele>74.110</ele>
<time>2018-12-26T03:14:24.990Z</time>
</trkpt>
<trkpt lat="22.2725733" lon="113.9530601">
<ele>74.079</ele>
<time>2018-12-26T03:14:48.002Z</time>
</trkpt>
<trkpt lat="22.2725478" lon="113.9531991">
<ele>74.061</ele>
<time>2018-12-26T03:15:46.999Z</time>
</trkpt>
<trkpt lat="22.2725478" lon="113.9531991">
<ele>74.051</ele>
<time>2018-12-26T03:15:52.999Z</time>
</trkpt>
<trkpt lat="22.2725478" lon="113.9531991">
<ele>74.033</ele>
<time>2018-12-26T03:16:18.031Z</time>
</trkpt>
<trkpt lat="22.2724902" lon="113.9532738">
<ele>73.976</ele>
<time>2018-12-26T03:17:13.997Z</time>
</trkpt>
<trkpt lat="22.2724902" lon="113.9532738">
<ele>73.963</ele>
<time>2018-12-26T03:17:29.996Z</time>
</trkpt>
<trkpt lat="22.2724902" lon="113.9532738">
<ele>73.951</ele>
<time>2018-12-26T03:17:30.096Z</time>
</trkpt>
<trkpt lat="22.2723485" lon="113.9532762">
<ele>73.926</ele>
<time>2018-12-26T03:17:40.996Z</time>
</trkpt>
<trkpt lat="22.2723485" lon="113.9532762">
<ele>73.898</ele>
<time>2018-12-26T03:17:56.996Z</time>
</trkpt>
<trkpt lat="22.2723485" lon="113.9532762">
<ele>73.876</ele>
<time>2018-12-26T03:18:10.751Z</time>
</trkpt>
<trkpt lat="22.2723344" lon="113.9533998">
<ele>73.856</ele>
<time>2018-12-26T03:18:48.995Z</time>
</trkpt>
<trkpt lat="22.2723344" lon="113.9533998">
<ele>73.838</ele>
<time>2018-12-26T03:18:51.994Z</time>
</trkpt>
<trkpt lat="22.2723344" lon="113.9533998">
<ele>73.818</ele>
<time>2018-12-26T03:19:06.994Z</time>
</trkpt>
<trkpt lat="22.2723344" lon="113.9533998">
<ele>73.790</ele>
<time>2018-12-26T03:19:36.621Z</time>
</trkpt>
<trkpt lat="22.2723070" lon="113.9536202">
<ele>73.765</ele>
<time>2018-12-26T03:20:03.005Z</time>
</trkpt>
<trkpt lat="22.2723628" lon="113.9537012">
<ele>74.608</ele>
<time>2018-12-26T03:20:10.992Z</time>
</trkpt>
<trkpt lat="22.2723628" lon="113.9537012">
<ele>76.835</ele>
<time>2018-12-26T03:20:10.992Z</time>
</trkpt>
<trkpt lat="22.2723628" lon="113.9537012">
<ele>78.684</ele>
<time>2018-12-26T03:20:22.992Z</time>
</trkpt>
<trkpt lat="22.2723628" lon="113.9537012">
<ele>78.620</ele>
<time>2018-12-26T03:20:33.087Z</time>
</trkpt>
<trkpt lat="22.2723997" lon="113.9538018">
<ele>77.778</ele>
<time>2018-12-26T03:20:49.992Z</time>
</trkpt>
<trkpt lat="22.2723997" lon="113.9538018">
<ele>78.189</ele>
<time>2018-12-26T03:21:00.991Z</time>
</trkpt>
<trkpt lat="22.2723997" lon="113.9538018">
<ele>78.454</ele>
<time>2018-12-26T03:21:56.025Z</time>
</trkpt>
<trkpt lat="22.2724477" lon="113.9539545">
<ele>78.408</ele>
<time>2018-12-26T03:22:47.055Z</time>
</trkpt>
<trkpt lat="22.2724916" lon="113.9540499">
<ele>79.412</ele>
<time>2018-12-26T03:22:57.999Z</time>
</trkpt>
<trkpt lat="22.2724916" lon="113.9540499">
<ele>82.367</ele>
<time>2018-12-26T03:23:14.998Z</time>
</trkpt>
<trkpt lat="22.2724916" lon="113.9540499">
<ele>84.880</ele>
<time>2018-12-26T03:23:41.166Z</time>
</trkpt>
<trkpt lat="22.2724002" lon="113.9541701">
<ele>84.810</ele>
<time>2018-12-26T03:23:59.997Z</time>
</trkpt>
<trkpt lat="22.2723255" lon="113.9542294">
<ele>83.460</ele>
<time>2018-12-26T03:24:07.997Z</time>
</trkpt>
<trkpt lat="22.2723255" lon="113.9542294">
<ele>82.553</ele>
<time>2018-12-26T03:24:12.997Z</time>
</trkpt>
<trkpt lat="22.2723255" lon="113.9542294">
<ele>82.360</ele>
<time>2018-12-26T03:24:41.482Z</time>
</trkpt>
<trkpt lat="22.2723178" lon="113.9543433">
<ele>82.541</ele>
<time>2018-12-26T03:24:58.908Z</time>
</trkpt>
<trkpt lat="22.2722967" lon="113.9544446">
<ele>82.615</ele>
<time>2018-12-26T03:25:06.850Z</time>
</trkpt>
<trkpt lat="22.2722721" lon="113.9545436">
<ele>82.838</ele>
<time>2018-12-26T03:25:13.996Z</time>
</trkpt>
<trkpt lat="22.2722721" lon="113.9545436">
<ele>83.023</ele>
<time>2018-12-26T03:25:17.996Z</time>
</trkpt>
<trkpt lat="22.2722721" lon="113.9545436">
<ele>82.987</ele>
<time>2018-12-26T03:25:22.479Z</time>
</trkpt>
<trkpt lat="22.2722721" lon="113.9545436">
<ele>82.843</ele>
<time>2018-12-26T03:25:56.995Z</time>
</trkpt>
<trkpt lat="22.2722721" lon="113.9545436">
<ele>82.859</ele>
<time>2018-12-26T03:25:57.095Z</time>
</trkpt>
<trkpt lat="22.2721396" lon="113.9545956">
<ele>82.840</ele>
<time>2018-12-26T03:26:20.696Z</time>
</trkpt>
<trkpt lat="22.2720628" lon="113.9546469">
<ele>83.078</ele>
<time>2018-12-26T03:26:32.996Z</time>
</trkpt>
<trkpt lat="22.2719684" lon="113.9546615">
<ele>83.853</ele>
<time>2018-12-26T03:26:45.993Z</time>
</trkpt>
<trkpt lat="22.2719684" lon="113.9546615">
<ele>84.788</ele>
<time>2018-12-26T03:26:58.993Z</time>
</trkpt>
<trkpt lat="22.2719684" lon="113.9546615">
<ele>85.258</ele>
<time>2018-12-26T03:26:59.093Z</time>
</trkpt>
<trkpt lat="22.2718424" lon="113.9546608">
<ele>85.179</ele>
<time>2018-12-26T03:27:35.661Z</time>
</trkpt>
<trkpt lat="22.2717591" lon="113.9547055">
<ele>85.538</ele>
<time>2018-12-26T03:27:46.236Z</time>
</trkpt>
<trkpt lat="22.2716732" lon="113.9547390">
<ele>87.066</ele>
<time>2018-12-26T03:27:56.437Z</time>
</trkpt>
<trkpt lat="22.2715896" lon="113.9547759">
<ele>88.911</ele>
<time>2018-12-26T03:28:05.991Z</time>
</trkpt>
<trkpt lat="22.2715896" lon="113.9547759">
<ele>90.041</ele>
<time>2018-12-26T03:28:07.991Z</time>
</trkpt>
<trkpt lat="22.2715896" lon="113.9547759">
<ele>90.403</ele>
<time>2018-12-26T03:28:10.906Z</time>
</trkpt>
<trkpt lat="22.2715114" lon="113.9548266">
<ele>90.071</ele>
<time>2018-12-26T03:28:21.991Z</time>
</trkpt>
<trkpt lat="22.2715114" lon="113.9548266">
<ele>89.941</ele>
<time>2018-12-26T03:28:21.991Z</time>
</trkpt>
<trkpt lat="22.2715114" lon="113.9548266">
<ele>89.914</ele>
<time>2018-12-26T03:29:44.425Z</time>
</trkpt>
<trkpt lat="22.2713369" lon="113.9547592">
<ele>89.934</ele>
<time>2018-12-26T03:29:59.444Z</time>
</trkpt>
<trkpt lat="22.2712033" lon="113.9547489">
<ele>90.871</ele>
<time>2018-12-26T03:30:06.606Z</time>
</trkpt>
<trkpt lat="22.2712570" lon="113.9548278">
<ele>93.262</ele>
<time>2018-12-26T03:30:13.225Z</time>
</trkpt>
<trkpt lat="22.2711925" lon="113.9549032">
<ele>95.578</ele>
<time>2018-12-26T03:30:24.477Z</time>
</trkpt>
<trkpt lat="22.2711466" lon="113.9549885">
<ele>96.398</ele>
<time>2018-12-26T03:30:35.998Z</time>
</trkpt>
<trkpt lat="22.2711466" lon="113.9549885">
<ele>96.223</ele>
<time>2018-12-26T03:30:35.998Z</time>
</trkpt>
<trkpt lat="22.2711466" lon="113.9549885">
<ele>95.924</ele>
<time>2018-12-26T03:31:41.470Z</time>
</trkpt>
<trkpt lat="22.2711243" lon="113.9550877">
<ele>95.986</ele>
<time>2018-12-26T03:31:52.997Z</time>
</trkpt>
<trkpt lat="22.2711243" lon="113.9550877">
<ele>96.086</ele>
<time>2018-12-26T03:31:57.996Z</time>
</trkpt>
<trkpt lat="22.2711243" lon="113.9550877">
<ele>96.110</ele>
<time>2018-12-26T03:33:14.743Z</time>
</trkpt>
<trkpt lat="22.2710184" lon="113.9552895">
<ele>96.050</ele>
<time>2018-12-26T03:33:52.994Z</time>
</trkpt>
<trkpt lat="22.2710184" lon="113.9552895">
<ele>95.963</ele>
<time>2018-12-26T03:34:03.993Z</time>
</trkpt>
<trkpt lat="22.2710184" lon="113.9552895">
<ele>95.904</ele>
<time>2018-12-26T03:34:10.694Z</time>
</trkpt>
<trkpt lat="22.2709488" lon="113.9553869">
<ele>95.884</ele>
<time>2018-12-26T03:34:25.996Z</time>
</trkpt>
<trkpt lat="22.2708864" lon="113.9554622">
<ele>96.596</ele>
<time>2018-12-26T03:34:32.993Z</time>
</trkpt>
<trkpt lat="22.2708864" lon="113.9554622">
<ele>98.447</ele>
<time>2018-12-26T03:34:36.993Z</time>
</trkpt>
<trkpt lat="22.2708864" lon="113.9554622">
<ele>99.967</ele>
<time>2018-12-26T03:36:48.999Z</time>
</trkpt>
<trkpt lat="22.2708864" lon="113.9554622">
<ele>99.899</ele>
<time>2018-12-26T03:37:14.288Z</time>
</trkpt>
<trkpt lat="22.2708864" lon="113.9554622">
<ele>99.180</ele>
<time>2018-12-26T03:37:23.999Z</time>
</trkpt>
<trkpt lat="22.2708864" lon="113.9554622">
<ele>99.418</ele>
<time>2018-12-26T03:37:24.099Z</time>
</trkpt>
<trkpt lat="22.2708864" lon="113.9554622">
<ele>99.247</ele>
<time>2018-12-26T03:37:25.999Z</time>
</trkpt>
<trkpt lat="22.2708864" lon="113.9554622">
<ele>99.109</ele>
<time>2018-12-26T03:37:26.099Z</time>
</trkpt>
<trkpt lat="22.2708365" lon="113.9556024">
<ele>99.098</ele>
<time>2018-12-26T03:37:33.998Z</time>
</trkpt>
<trkpt lat="22.2708365" lon="113.9556024">
<ele>99.159</ele>
<time>2018-12-26T03:37:43.998Z</time>
</trkpt>
<trkpt lat="22.2708365" lon="113.9556024">
<ele>99.175</ele>
<time>2018-12-26T03:38:48.014Z</time>
</trkpt>
<trkpt lat="22.2708365" lon="113.9556024">
<ele>99.066</ele>
<time>2018-12-26T03:39:00.996Z</time>
</trkpt>
<trkpt lat="22.2708365" lon="113.9556024">
<ele>99.034</ele>
<time>2018-12-26T03:39:41.806Z</time>
</trkpt>
<trkpt lat="22.2707735" lon="113.9557610">
<ele>99.016</ele>
<time>2018-12-26T03:40:02.449Z</time>
</trkpt>
<trkpt lat="22.2707010" lon="113.9558373">
<ele>99.540</ele>
<time>2018-12-26T03:40:10.995Z</time>
</trkpt>
<trkpt lat="22.2707010" lon="113.9558373">
<ele>100.925</ele>
<time>2018-12-26T03:40:20.994Z</time>
</trkpt>
<trkpt lat="22.2707010" lon="113.9558373">
<ele>102.066</ele>
<time>2018-12-26T03:40:39.462Z</time>
</trkpt>
<trkpt lat="22.2706542" lon="113.9559475">
<ele>102.005</ele>
<time>2018-12-26T03:40:55.045Z</time>
</trkpt>
<trkpt lat="22.2706157" lon="113.9560366">
<ele>101.552</ele>
<time>2018-12-26T03:41:01.993Z</time>
</trkpt>
<trkpt lat="22.2706157" lon="113.9560366">
<ele>101.603</ele>
<time>2018-12-26T03:41:06.993Z</time>
</trkpt>
<trkpt lat="22.2706157" lon="113.9560366">
<ele>101.864</ele>
<time>2018-12-26T03:44:23.138Z</time>
</trkpt>
<trkpt lat="22.2706169" lon="113.9561564">
<ele>101.648</ele>
<time>2018-12-26T03:44:44.406Z</time>
</trkpt>
<trkpt lat="22.2706036" lon="113.9562567">
<ele>102.093</ele>
<time>2018-12-26T03:44:56.998Z</time>
</trkpt>
<trkpt lat="22.2706036" lon="113.9562567">
<ele>103.571</ele>
<time>2018-12-26T03:44:58.998Z</time>
</trkpt>
<trkpt lat="22.2706036" lon="113.9562567">
<ele>104.827</ele>
<time>2018-12-26T03:45:31.107Z</time>
</trkpt>
<trkpt lat="22.2705158" lon="113.9562916">
<ele>104.049</ele>
<time>2018-12-26T03:46:43.996Z</time>
</trkpt>
<trkpt lat="22.2705158" lon="113.9562916">
<ele>103.592</ele>
<time>2018-12-26T03:46:48.996Z</time>
</trkpt>
<trkpt lat="22.2705158" lon="113.9562916">
<ele>103.575</ele>
<time>2018-12-26T03:46:56.092Z</time>
</trkpt>
<trkpt lat="22.2705158" lon="113.9562916">
<ele>103.675</ele>
<time>2018-12-26T03:47:07.995Z</time>
</trkpt>
<trkpt lat="22.2705158" lon="113.9562916">
<ele>103.572</ele>
<time>2018-12-26T03:47:08.095Z</time>
</trkpt>
<trkpt lat="22.2704632" lon="113.9563777">
<ele>103.526</ele>
<time>2018-12-26T03:47:08.995Z</time>
</trkpt>
<trkpt lat="22.2704632" lon="113.9563777">
<ele>103.534</ele>
<time>2018-12-26T03:47:09.995Z</time>
</trkpt>
<trkpt lat="22.2704632" lon="113.9563777">
<ele>103.531</ele>
<time>2018-12-26T03:47:58.131Z</time>
</trkpt>
<trkpt lat="22.2705496" lon="113.9564062">
<ele>103.436</ele>
<time>2018-12-26T03:48:14.247Z</time>
</trkpt>
<trkpt lat="22.2705316" lon="113.9565024">
<ele>104.495</ele>
<time>2018-12-26T03:48:22.994Z</time>
</trkpt>
<trkpt lat="22.2705316" lon="113.9565024">
<ele>107.317</ele>
<time>2018-12-26T03:48:31.993Z</time>
</trkpt>
<trkpt lat="22.2705316" lon="113.9565024">
<ele>109.659</ele>
<time>2018-12-26T03:48:37.031Z</time>
</trkpt>
<trkpt lat="22.2705327" lon="113.9566414">
<ele>109.575</ele>
<time>2018-12-26T03:49:02.993Z</time>
</trkpt>
<trkpt lat="22.2705327" lon="113.9566414">
<ele>108.593</ele>
<time>2018-12-26T03:49:08.993Z</time>
</trkpt>
<trkpt lat="22.2705327" lon="113.9566414">
<ele>108.458</ele>
<time>2018-12-26T03:49:14.573Z</time>
</trkpt>
<trkpt lat="22.2705155" lon="113.9567416">
<ele>108.947</ele>
<time>2018-12-26T03:49:26.992Z</time>
</trkpt>
<trkpt lat="22.2705155" lon="113.9567416">
<ele>109.267</ele>
<time>2018-12-26T03:49:28.992Z</time>
</trkpt>
<trkpt lat="22.2705155" lon="113.9567416">
<ele>109.252</ele>
<time>2018-12-26T03:49:29.092Z</time>
</trkpt>
<trkpt lat="22.2704273" lon="113.9567840">
<ele>109.144</ele>
<time>2018-12-26T03:49:41.992Z</time>
</trkpt>
<trkpt lat="22.2704273" lon="113.9567840">
<ele>109.112</ele>
<time>2018-12-26T03:49:51.992Z</time>
</trkpt>
<trkpt lat="22.2704273" lon="113.9567840">
<ele>109.102</ele>
<time>2018-12-26T03:55:35.944Z</time>
</trkpt>
<trkpt lat="22.2704117" lon="113.9568841">
<ele>109.071</ele>
<time>2018-12-26T03:55:46.705Z</time>
</trkpt>
<trkpt lat="22.2703460" lon="113.9569508">
<ele>109.639</ele>
<time>2018-12-26T03:55:51.994Z</time>
</trkpt>
<trkpt lat="22.2703460" lon="113.9569508">
<ele>111.195</ele>
<time>2018-12-26T03:55:56.994Z</time>
</trkpt>
<trkpt lat="22.2703460" lon="113.9569508">
<ele>112.486</ele>
<time>2018-12-26T03:55:58.851Z</time>
</trkpt>
<trkpt lat="22.2703506" lon="113.9570567">
<ele>111.679</ele>
<time>2018-12-26T03:56:16.994Z</time>
</trkpt>
<trkpt lat="22.2703506" lon="113.9570567">
<ele>111.209</ele>
<time>2018-12-26T03:56:19.994Z</time>
</trkpt>
<trkpt lat="22.2703506" lon="113.9570567">
<ele>111.190</ele>
<time>2018-12-26T03:56:42.422Z</time>
</trkpt>
<trkpt lat="22.2700817" lon="113.9574488">
<ele>111.288</ele>
<time>2018-12-26T03:59:22.998Z</time>
</trkpt>
<trkpt lat="22.2700817" lon="113.9574488">
<ele>112.275</ele>
<time>2018-12-26T03:59:22.999Z</time>
</trkpt>
<trkpt lat="22.2700817" lon="113.9574488">
<ele>115.068</ele>
<time>2018-12-26T03:59:23.050Z</time>
</trkpt>
<trkpt lat="22.2700383" lon="113.9576156">
<ele>115.946</ele>
<time>2018-12-26T03:59:29.998Z</time>
</trkpt>
<trkpt lat="22.2700383" lon="113.9576156">
<ele>114.117</ele>
<time>2018-12-26T03:59:45.998Z</time>
</trkpt>
<trkpt lat="22.2700383" lon="113.9576156">
<ele>113.992</ele>
<time>2018-12-26T04:00:49.971Z</time>
</trkpt>
<trkpt lat="22.2700383" lon="113.9576156">
<ele>114.754</ele>
<time>2018-12-26T04:01:15.996Z</time>
</trkpt>
<trkpt lat="22.2700383" lon="113.9576156">
<ele>114.445</ele>
<time>2018-12-26T04:03:47.302Z</time>
</trkpt>
<trkpt lat="22.2700330" lon="113.9577241">
<ele>114.451</ele>
<time>2018-12-26T04:03:59.992Z</time>
</trkpt>
<trkpt lat="22.2700330" lon="113.9577241">
<ele>114.573</ele>
<time>2018-12-26T04:03:59.992Z</time>
</trkpt>
<trkpt lat="22.2700330" lon="113.9577241">
<ele>114.609</ele>
<time>2018-12-26T04:04:14.503Z</time>
</trkpt>
<trkpt lat="22.2699410" lon="113.9577318">
<ele>114.555</ele>
<time>2018-12-26T04:04:26.991Z</time>
</trkpt>
<trkpt lat="22.2699410" lon="113.9577318">
<ele>114.479</ele>
<time>2018-12-26T04:04:28.991Z</time>
</trkpt>
<trkpt lat="22.2699410" lon="113.9577318">
<ele>114.435</ele>
<time>2018-12-26T04:04:48.948Z</time>
</trkpt>
<trkpt lat="22.2698041" lon="113.9577389">
<ele>114.419</ele>
<time>2018-12-26T04:05:08.655Z</time>
</trkpt>
<trkpt lat="22.2697622" lon="113.9578277">
<ele>114.800</ele>
<time>2018-12-26T04:05:18.446Z</time>
</trkpt>
<trkpt lat="22.2696790" lon="113.9578766">
<ele>115.802</ele>
<time>2018-12-26T04:05:29.997Z</time>
</trkpt>
<trkpt lat="22.2696790" lon="113.9578766">
<ele>116.620</ele>
<time>2018-12-26T04:05:32.997Z</time>
</trkpt>
<trkpt lat="22.2696790" lon="113.9578766">
<ele>116.557</ele>
<time>2018-12-26T04:05:53.590Z</time>
</trkpt>
<trkpt lat="22.2696790" lon="113.9578766">
<ele>116.122</ele>
<time>2018-12-26T04:06:05.999Z</time>
</trkpt>
<trkpt lat="22.2696790" lon="113.9578766">
<ele>116.239</ele>
<time>2018-12-26T04:06:06.747Z</time>
</trkpt>
<trkpt lat="22.2695652" lon="113.9579148">
<ele>116.230</ele>
<time>2018-12-26T04:06:25.718Z</time>
</trkpt>
<trkpt lat="22.2694958" lon="113.9579834">
<ele>116.141</ele>
<time>2018-12-26T04:06:37.998Z</time>
</trkpt>
<trkpt lat="22.2694958" lon="113.9579834">
<ele>116.097</ele>
<time>2018-12-26T04:06:44.998Z</time>
</trkpt>
<trkpt lat="22.2694958" lon="113.9579834">
<ele>116.085</ele>
<time>2018-12-26T04:08:51.354Z</time>
</trkpt>
<trkpt lat="22.2693102" lon="113.9578784">
<ele>116.056</ele>
<time>2018-12-26T04:09:22.341Z</time>
</trkpt>
<trkpt lat="22.2692042" lon="113.9578829">
<ele>117.491</ele>
<time>2018-12-26T04:09:34.187Z</time>
</trkpt>
<trkpt lat="22.2691362" lon="113.9579492">
<ele>121.872</ele>
<time>2018-12-26T04:09:46.111Z</time>
</trkpt>
<trkpt lat="22.2690634" lon="113.9580228">
<ele>127.295</ele>
<time>2018-12-26T04:09:57.882Z</time>
</trkpt>
<trkpt lat="22.2689709" lon="113.9580065">
<ele>130.862</ele>
<time>2018-12-26T04:10:09.348Z</time>
</trkpt>
<trkpt lat="22.2688879" lon="113.9580448">
<ele>132.342</ele>
<time>2018-12-26T04:10:17.995Z</time>
</trkpt>
<trkpt lat="22.2688879" lon="113.9580448">
<ele>132.688</ele>
<time>2018-12-26T04:10:18.995Z</time>
</trkpt>
<trkpt lat="22.2688879" lon="113.9580448">
<ele>132.597</ele>
<time>2018-12-26T04:10:59.062Z</time>
</trkpt>
<trkpt lat="22.2688463" lon="113.9581364">
<ele>132.430</ele>
<time>2018-12-26T04:11:41.993Z</time>
</trkpt>
<trkpt lat="22.2688463" lon="113.9581364">
<ele>132.300</ele>
<time>2018-12-26T04:11:44.993Z</time>
</trkpt>
<trkpt lat="22.2688463" lon="113.9581364">
<ele>132.221</ele>
<time>2018-12-26T04:11:45.093Z</time>
</trkpt>
<trkpt lat="22.2687915" lon="113.9582193">
<ele>132.177</ele>
<time>2018-12-26T04:12:23.992Z</time>
</trkpt>
<trkpt lat="22.2687915" lon="113.9582193">
<ele>132.132</ele>
<time>2018-12-26T04:12:26.992Z</time>
</trkpt>
<trkpt lat="22.2687915" lon="113.9582193">
<ele>132.077</ele>
<time>2018-12-26T04:12:27.092Z</time>
</trkpt>
<trkpt lat="22.2687082" lon="113.9582631">
<ele>131.988</ele>
<time>2018-12-26T04:12:55.999Z</time>
</trkpt>
<trkpt lat="22.2687082" lon="113.9582631">
<ele>131.954</ele>
<time>2018-12-26T04:13:11.999Z</time>
</trkpt>
<trkpt lat="22.2687082" lon="113.9582631">
<ele>131.897</ele>
<time>2018-12-26T04:13:12.099Z</time>
</trkpt>
<trkpt lat="22.2686074" lon="113.9582544">
<ele>131.839</ele>
<time>2018-12-26T04:13:26.608Z</time>
</trkpt>
<trkpt lat="22.2685177" lon="113.9582878">
<ele>132.086</ele>
<time>2018-12-26T04:13:31.999Z</time>
</trkpt>
<trkpt lat="22.2685177" lon="113.9582878">
<ele>132.794</ele>
<time>2018-12-26T04:13:45.998Z</time>
</trkpt>
<trkpt lat="22.2685177" lon="113.9582878">
<ele>133.366</ele>
<time>2018-12-26T04:14:55.903Z</time>
</trkpt>
<trkpt lat="22.2683613" lon="113.9583642">
<ele>133.204</ele>
<time>2018-12-26T04:15:13.996Z</time>
</trkpt>
<trkpt lat="22.2683613" lon="113.9583642">
<ele>132.676</ele>
<time>2018-12-26T04:15:19.996Z</time>
</trkpt>
<trkpt lat="22.2683613" lon="113.9583642">
<ele>132.393</ele>
<time>2018-12-26T04:15:44.796Z</time>
</trkpt>
<trkpt lat="22.2682688" lon="113.9583923">
<ele>132.467</ele>
<time>2018-12-26T04:15:55.996Z</time>
</trkpt>
<trkpt lat="22.2682688" lon="113.9583923">
<ele>132.487</ele>
<time>2018-12-26T04:16:01.996Z</time>
</trkpt>
<trkpt lat="22.2682688" lon="113.9583923">
<ele>132.430</ele>
<time>2018-12-26T04:16:02.096Z</time>
</trkpt>
<trkpt lat="22.2682688" lon="113.9583923">
<ele>132.320</ele>
<time>2018-12-26T04:16:18.996Z</time>
</trkpt>
<trkpt lat="22.2682688" lon="113.9583923">
<ele>132.300</ele>
<time>2018-12-26T04:16:19.096Z</time>
</trkpt>
<trkpt lat="22.2681689" lon="113.9583979">
<ele>132.201</ele>
<time>2018-12-26T04:16:22.996Z</time>
</trkpt>
<trkpt lat="22.2681689" lon="113.9583979">
<ele>131.721</ele>
<time>2018-12-26T04:16:22.997Z</time>
</trkpt>
<trkpt lat="22.2681689" lon="113.9583979">
<ele>130.548</ele>
<time>2018-12-26T04:16:23.097Z</time>
</trkpt>
<trkpt lat="22.2680815" lon="113.9584537">
<ele>130.106</ele>
<time>2018-12-26T04:16:42.866Z</time>
</trkpt>
<trkpt lat="22.2679939" lon="113.9584869">
<ele>130.996</ele>
<time>2018-12-26T04:16:51.390Z</time>
</trkpt>
<trkpt lat="22.2679036" lon="113.9584477">
<ele>131.689</ele>
<time>2018-12-26T04:16:57.995Z</time>
</trkpt>
<trkpt lat="22.2679036" lon="113.9584477">
<ele>132.204</ele>
<time>2018-12-26T04:17:05.995Z</time>
</trkpt>
<trkpt lat="22.2679036" lon="113.9584477">
<ele>132.460</ele>
<time>2018-12-26T04:29:32.997Z</time>
</trkpt>
<trkpt lat="22.2679036" lon="113.9584477">
<ele>132.382</ele>
<time>2018-12-26T04:31:14.996Z</time>
</trkpt>
<trkpt lat="22.2679036" lon="113.9584477">
<ele>132.208</ele>
<time>2018-12-26T04:32:50.994Z</time>
</trkpt>
<trkpt lat="22.2679036" lon="113.9584477">
<ele>132.146</ele>
<time>2018-12-26T04:33:22.890Z</time>
</trkpt>
<trkpt lat="22.2679036" lon="113.9584477">
<ele>132.124</ele>
<time>2018-12-26T04:33:52.993Z</time>
</trkpt>
<trkpt lat="22.2679036" lon="113.9584477">
<ele>132.073</ele>
<time>2018-12-26T04:33:53.093Z</time>
</trkpt>
<trkpt lat="22.2679036" lon="113.9584477">
<ele>131.985</ele>
<time>2018-12-26T04:33:54.993Z</time>
</trkpt>
<trkpt lat="22.2679036" lon="113.9584477">
<ele>131.953</ele>
<time>2018-12-26T04:35:50.191Z</time>
</trkpt>
<trkpt lat="22.2677677" lon="113.9586049">
<ele>131.914</ele>
<time>2018-12-26T04:36:08.818Z</time>
</trkpt>
<trkpt lat="22.2677110" lon="113.9586805">
<ele>137.745</ele>
<time>2018-12-26T04:36:12.997Z</time>
</trkpt>
<trkpt lat="22.2677110" lon="113.9586805">
<ele>153.006</ele>
<time>2018-12-26T04:36:23.997Z</time>
</trkpt>
<trkpt lat="22.2677110" lon="113.9586805">
<ele>165.720</ele>
<time>2018-12-26T04:37:13.480Z</time>
</trkpt>
<trkpt lat="22.2676044" lon="113.9586861">
<ele>165.439</ele>
<time>2018-12-26T04:37:23.996Z</time>
</trkpt>
<trkpt lat="22.2676044" lon="113.9586861">
<ele>160.356</ele>
<time>2018-12-26T04:37:27.996Z</time>
</trkpt>
<trkpt lat="22.2676044" lon="113.9586861">
<ele>159.798</ele>
<time>2018-12-26T04:37:59.074Z</time>
</trkpt>
<trkpt lat="22.2675260" lon="113.9588107">
<ele>162.543</ele>
<time>2018-12-26T04:38:16.995Z</time>
</trkpt>
<trkpt lat="22.2675260" lon="113.9588107">
<ele>164.367</ele>
<time>2018-12-26T04:38:22.994Z</time>
</trkpt>
<trkpt lat="22.2675260" lon="113.9588107">
<ele>164.467</ele>
<time>2018-12-26T04:38:23.951Z</time>
</trkpt>
<trkpt lat="22.2676052" lon="113.9589101">
<ele>164.090</ele>
<time>2018-12-26T04:38:54.875Z</time>
</trkpt>
<trkpt lat="22.2672645" lon="113.9592277">
<ele>165.759</ele>
<time>2018-12-26T04:40:30.992Z</time>
</trkpt>
<trkpt lat="22.2672645" lon="113.9592277">
<ele>168.693</ele>
<time>2018-12-26T04:40:38.991Z</time>
</trkpt>
<trkpt lat="22.2672645" lon="113.9592277">
<ele>169.744</ele>
<time>2018-12-26T04:40:39.091Z</time>
</trkpt>
<trkpt lat="22.2676714" lon="113.9594567">
<ele>168.647</ele>
<time>2018-12-26T04:41:06.991Z</time>
</trkpt>
<trkpt lat="22.2676108" lon="113.9599379">
<ele>171.292</ele>
<time>2018-12-26T04:50:13.998Z</time>
</trkpt>
<trkpt lat="22.2678581" lon="113.9603512">
<ele>184.073</ele>
<time>2018-12-26T04:53:52.992Z</time>
</trkpt>
<trkpt lat="22.2677031" lon="113.9608080">
<ele>206.636</ele>
<time>2018-12-26T04:57:39.997Z</time>
</trkpt>
<trkpt lat="22.2677031" lon="113.9608080">
<ele>222.851</ele>
<time>2018-12-26T04:57:41.997Z</time>
</trkpt>
<trkpt lat="22.2677031" lon="113.9608080">
<ele>222.666</ele>
<time>2018-12-26T04:57:46.389Z</time>
</trkpt>
<trkpt lat="22.2676974" lon="113.9609124">
<ele>214.897</ele>
<time>2018-12-26T04:57:55.479Z</time>
</trkpt>
<trkpt lat="22.2676144" lon="113.9609593">
<ele>209.481</ele>
<time>2018-12-26T04:58:00.997Z</time>
</trkpt>
<trkpt lat="22.2676144" lon="113.9609593">
<ele>207.819</ele>
<time>2018-12-26T04:58:10.996Z</time>
</trkpt>
<trkpt lat="22.2676144" lon="113.9609593">
<ele>207.993</ele>
<time>2018-12-26T05:01:36.309Z</time>
</trkpt>
<trkpt lat="22.2675260" lon="113.9609914">
<ele>208.094</ele>
<time>2018-12-26T05:02:02.991Z</time>
</trkpt>
<trkpt lat="22.2675260" lon="113.9609914">
<ele>207.809</ele>
<time>2018-12-26T05:02:03.991Z</time>
</trkpt>
<trkpt lat="22.2675260" lon="113.9609914">
<ele>207.714</ele>
<time>2018-12-26T05:02:04.091Z</time>
</trkpt>
<trkpt lat="22.2671781" lon="113.9606688">
<ele>207.683</ele>
<time>2018-12-26T05:02:40.990Z</time>
</trkpt>
<trkpt lat="22.2675243" lon="113.9609923">
<ele>210.220</ele>
<time>2018-12-26T05:02:54.990Z</time>
</trkpt>
<trkpt lat="22.2675243" lon="113.9609923">
<ele>216.970</ele>
<time>2018-12-26T05:03:59.998Z</time>
</trkpt>
<trkpt lat="22.2673268" lon="113.9612659">
<ele>244.379</ele>
<time>2018-12-26T05:05:45.893Z</time>
</trkpt>
<trkpt lat="22.2673268" lon="113.9612659">
<ele>244.379</ele>
<time>2018-12-26T05:05:45.893Z</time>
</trkpt>
<trkpt lat="22.2674169" lon="113.9614608">
<ele>259.895</ele>
<time>2018-12-26T05:06:36.288Z</time>
</trkpt>
<trkpt lat="22.2674169" lon="113.9614608">
<ele>259.895</ele>
<time>2018-12-26T05:06:36.288Z</time>
</trkpt>
<trkpt lat="22.2674858" lon="113.9616004">
<ele>273.041</ele>
<time>2018-12-26T05:07:17.588Z</time>
</trkpt>
<trkpt lat="22.2674858" lon="113.9616004">
<ele>273.041</ele>
<time>2018-12-26T05:07:17.588Z</time>
</trkpt>
<trkpt lat="22.2674893" lon="113.9614258">
<ele>257.018</ele>
<time>2018-12-26T05:08:03.199Z</time>
</trkpt>
<trkpt lat="22.2670809" lon="113.9616626">
<ele>256.899</ele>
<time>2018-12-26T05:10:13.997Z</time>
</trkpt>
<trkpt lat="22.2670809" lon="113.9616626">
<ele>256.855</ele>
<time>2018-12-26T05:12:38.997Z</time>
</trkpt>
<trkpt lat="22.2667918" lon="113.9616597">
<ele>305.085</ele>
<time>2018-12-26T05:19:16.417Z</time>
</trkpt>
<trkpt lat="22.2667918" lon="113.9616597">
<ele>305.085</ele>
<time>2018-12-26T05:19:16.417Z</time>
</trkpt>
<trkpt lat="22.2670227" lon="113.9616747">
<ele>291.703</ele>
<time>2018-12-26T05:24:28.398Z</time>
</trkpt>
<trkpt lat="22.2670227" lon="113.9616747">
<ele>291.703</ele>
<time>2018-12-26T05:24:28.398Z</time>
</trkpt>
<trkpt lat="22.2668179" lon="113.9614153">
<ele>290.920</ele>
<time>2018-12-26T05:31:34.069Z</time>
</trkpt>
<trkpt lat="22.2668179" lon="113.9614153">
<ele>290.920</ele>
<time>2018-12-26T05:31:34.069Z</time>
</trkpt>
<trkpt lat="22.2669272" lon="113.9612545">
<ele>294.274</ele>
<time>2018-12-26T05:35:43.145Z</time>
</trkpt>
<trkpt lat="22.2669272" lon="113.9612545">
<ele>294.274</ele>
<time>2018-12-26T05:35:43.145Z</time>
</trkpt>
<trkpt lat="22.2671759" lon="113.9611494">
<ele>299.686</ele>
<time>2018-12-26T05:41:43.487Z</time>
</trkpt>
<trkpt lat="22.2672847" lon="113.9616280">
<ele>299.547</ele>
<time>2018-12-26T06:00:16.989Z</time>
</trkpt>
<trkpt lat="22.2672847" lon="113.9616280">
<ele>299.938</ele>
<time>2018-12-26T06:00:16.990Z</time>
</trkpt>
<trkpt lat="22.2672847" lon="113.9616280">
<ele>301.089</ele>
<time>2018-12-26T06:00:17.090Z</time>
</trkpt>
<trkpt lat="22.2673204" lon="113.9617292">
<ele>301.854</ele>
<time>2018-12-26T06:01:55.998Z</time>
</trkpt>
<trkpt lat="22.2673204" lon="113.9617292">
<ele>301.299</ele>
<time>2018-12-26T06:02:07.997Z</time>
</trkpt>
<trkpt lat="22.2673204" lon="113.9617292">
<ele>300.420</ele>
<time>2018-12-26T06:05:47.159Z</time>
</trkpt>
<trkpt lat="22.2674472" lon="113.9618854">
<ele>300.265</ele>
<time>2018-12-26T06:06:47.123Z</time>
</trkpt>
<trkpt lat="22.2675199" lon="113.9618227">
<ele>300.257</ele>
<time>2018-12-26T06:06:51.990Z</time>
</trkpt>
<trkpt lat="22.2675199" lon="113.9618227">
<ele>299.683</ele>
<time>2018-12-26T06:07:01.990Z</time>
</trkpt>
<trkpt lat="22.2675199" lon="113.9618227">
<ele>299.031</ele>
<time>2018-12-26T06:07:58.337Z</time>
</trkpt>
<trkpt lat="22.2676194" lon="113.9617246">
<ele>298.981</ele>
<time>2018-12-26T06:08:40.998Z</time>
</trkpt>
<trkpt lat="22.2676194" lon="113.9617246">
<ele>299.304</ele>
<time>2018-12-26T06:09:17.997Z</time>
</trkpt>
<trkpt lat="22.2676194" lon="113.9617246">
<ele>299.441</ele>
<time>2018-12-26T06:09:18.097Z</time>
</trkpt>
<trkpt lat="22.2677423" lon="113.9615423">
<ele>299.231</ele>
<time>2018-12-26T06:11:17.994Z</time>
</trkpt>
<trkpt lat="22.2677423" lon="113.9615423">
<ele>298.934</ele>
<time>2018-12-26T06:11:26.994Z</time>
</trkpt>
<trkpt lat="22.2677423" lon="113.9615423">
<ele>298.749</ele>
<time>2018-12-26T06:11:27.094Z</time>
</trkpt>
<trkpt lat="22.2677237" lon="113.9614379">
<ele>298.652</ele>
<time>2018-12-26T06:11:49.994Z</time>
</trkpt>
<trkpt lat="22.2677237" lon="113.9614379">
<ele>298.553</ele>
<time>2018-12-26T06:11:57.993Z</time>
</trkpt>
<trkpt lat="22.2677237" lon="113.9614379">
<ele>298.420</ele>
<time>2018-12-26T06:12:06.970Z</time>
</trkpt>
<trkpt lat="22.2679709" lon="113.9613561">
<ele>298.283</ele>
<time>2018-12-26T06:12:40.992Z</time>
</trkpt>
<trkpt lat="22.2679709" lon="113.9613561">
<ele>298.168</ele>
<time>2018-12-26T06:12:50.992Z</time>
</trkpt>
<trkpt lat="22.2679709" lon="113.9613561">
<ele>298.035</ele>
<time>2018-12-26T06:13:43.866Z</time>
</trkpt>
<trkpt lat="22.2678224" lon="113.9614376">
<ele>297.901</ele>
<time>2018-12-26T06:14:07.990Z</time>
</trkpt>
<trkpt lat="22.2678224" lon="113.9614376">
<ele>297.785</ele>
<time>2018-12-26T06:14:14.990Z</time>
</trkpt>
<trkpt lat="22.2678224" lon="113.9614376">
<ele>297.652</ele>
<time>2018-12-26T06:14:30.602Z</time>
</trkpt>
<trkpt lat="22.2678224" lon="113.9614376">
<ele>297.440</ele>
<time>2018-12-26T06:14:56.997Z</time>
</trkpt>
<trkpt lat="22.2678224" lon="113.9614376">
<ele>297.382</ele>
<time>2018-12-26T06:14:57.097Z</time>
</trkpt>
<trkpt lat="22.2676246" lon="113.9615928">
<ele>297.293</ele>
<time>2018-12-26T06:15:52.998Z</time>
</trkpt>
<trkpt lat="22.2676246" lon="113.9615928">
<ele>297.194</ele>
<time>2018-12-26T06:15:56.998Z</time>
</trkpt>
<trkpt lat="22.2676246" lon="113.9615928">
<ele>297.105</ele>
<time>2018-12-26T06:17:06.907Z</time>
</trkpt>
<trkpt lat="22.2674965" lon="113.9618371">
<ele>297.018</ele>
<time>2018-12-26T06:17:36.996Z</time>
</trkpt>
<trkpt lat="22.2674965" lon="113.9618371">
<ele>296.944</ele>
<time>2018-12-26T06:17:41.996Z</time>
</trkpt>
<trkpt lat="22.2674965" lon="113.9618371">
<ele>296.863</ele>
<time>2018-12-26T06:20:10.129Z</time>
</trkpt>
<trkpt lat="22.2673632" lon="113.9618602">
<ele>296.765</ele>
<time>2018-12-26T06:20:26.992Z</time>
</trkpt>
<trkpt lat="22.2673632" lon="113.9618602">
<ele>296.679</ele>
<time>2018-12-26T06:20:49.991Z</time>
</trkpt>
<trkpt lat="22.2673632" lon="113.9618602">
<ele>296.599</ele>
<time>2018-12-26T06:21:11.990Z</time>
</trkpt>
<trkpt lat="22.2673632" lon="113.9618602">
<ele>296.496</ele>
<time>2018-12-26T06:25:57.321Z</time>
</trkpt>
<trkpt lat="22.2672772" lon="113.9616138">
<ele>296.394</ele>
<time>2018-12-26T06:26:18.993Z</time>
</trkpt>
<trkpt lat="22.2672772" lon="113.9616138">
<ele>296.324</ele>
<time>2018-12-26T06:26:32.993Z</time>
</trkpt>
<trkpt lat="22.2672772" lon="113.9616138">
<ele>296.252</ele>
<time>2018-12-26T06:32:26.462Z</time>
</trkpt>
<trkpt lat="22.2672685" lon="113.9618464">
<ele>296.144</ele>
<time>2018-12-26T06:34:37.992Z</time>
</trkpt>
<trkpt lat="22.2672685" lon="113.9618464">
<ele>296.012</ele>
<time>2018-12-26T06:34:52.991Z</time>
</trkpt>
<trkpt lat="22.2672685" lon="113.9618464">
<ele>295.870</ele>
<time>2018-12-26T06:36:35.998Z</time>
</trkpt>
<trkpt lat="22.2673477" lon="113.9619230">
<ele>307.879</ele>
<time>2018-12-26T06:36:49.998Z</time>
</trkpt>
<trkpt lat="22.2673477" lon="113.9619230">
<ele>307.737</ele>
<time>2018-12-26T06:38:36.997Z</time>
</trkpt>
<trkpt lat="22.2669717" lon="113.9617913">
<ele>312.932</ele>
<time>2018-12-26T06:38:56.996Z</time>
</trkpt>
<trkpt lat="22.2672499" lon="113.9621922">
<ele>312.787</ele>
<time>2018-12-26T06:47:52.993Z</time>
</trkpt>
<trkpt lat="22.2672499" lon="113.9621922">
<ele>313.226</ele>
<time>2018-12-26T06:47:52.994Z</time>
</trkpt>
<trkpt lat="22.2672499" lon="113.9621922">
<ele>314.508</ele>
<time>2018-12-26T06:49:28.488Z</time>
</trkpt>
<trkpt lat="22.2673402" lon="113.9621984">
<ele>314.752</ele>
<time>2018-12-26T06:50:04.990Z</time>
</trkpt>
<trkpt lat="22.2673402" lon="113.9621984">
<ele>313.784</ele>
<time>2018-12-26T06:50:10.990Z</time>
</trkpt>
<trkpt lat="22.2673402" lon="113.9621984">
<ele>313.620</ele>
<time>2018-12-26T06:50:11.090Z</time>
</trkpt>
<trkpt lat="22.2675173" lon="113.9621969">
<ele>313.984</ele>
<time>2018-12-26T06:51:49.998Z</time>
</trkpt>
<trkpt lat="22.2675173" lon="113.9621969">
<ele>314.198</ele>
<time>2018-12-26T06:51:54.998Z</time>
</trkpt>
<trkpt lat="22.2675173" lon="113.9621969">
<ele>314.088</ele>
<time>2018-12-26T06:52:22.423Z</time>
</trkpt>
<trkpt lat="22.2676898" lon="113.9621582">
<ele>313.893</ele>
<time>2018-12-26T06:53:13.996Z</time>
</trkpt>
<trkpt lat="22.2676898" lon="113.9621582">
<ele>313.807</ele>
<time>2018-12-26T06:53:27.996Z</time>
</trkpt>
<trkpt lat="22.2676898" lon="113.9621582">
<ele>313.756</ele>
<time>2018-12-26T06:53:38.441Z</time>
</trkpt>
<trkpt lat="22.2678103" lon="113.9622161">
<ele>313.664</ele>
<time>2018-12-26T06:55:29.935Z</time>
</trkpt>
<trkpt lat="22.2678267" lon="113.9623137">
<ele>316.182</ele>
<time>2018-12-26T06:55:48.992Z</time>
</trkpt>
<trkpt lat="22.2678267" lon="113.9623137">
<ele>322.946</ele>
<time>2018-12-26T06:55:59.992Z</time>
</trkpt>
<trkpt lat="22.2678267" lon="113.9623137">
<ele>328.566</ele>
<time>2018-12-26T06:56:00.092Z</time>
</trkpt>
<trkpt lat="22.2679537" lon="113.9624177">
<ele>328.338</ele>
<time>2018-12-26T06:56:16.992Z</time>
</trkpt>
<trkpt lat="22.2679537" lon="113.9624177">
<ele>325.946</ele>
<time>2018-12-26T06:56:27.991Z</time>
</trkpt>
<trkpt lat="22.2679537" lon="113.9624177">
<ele>325.593</ele>
<time>2018-12-26T06:56:28.091Z</time>
</trkpt>
<trkpt lat="22.2680246" lon="113.9624875">
<ele>326.754</ele>
<time>2018-12-26T06:56:56.071Z</time>
</trkpt>
<trkpt lat="22.2680851" lon="113.9625678">
<ele>329.764</ele>
<time>2018-12-26T06:57:18.165Z</time>
</trkpt>
<trkpt lat="22.2680632" lon="113.9626629">
<ele>335.705</ele>
<time>2018-12-26T06:57:38.893Z</time>
</trkpt>
<trkpt lat="22.2681349" lon="113.9627460">
<ele>342.169</ele>
<time>2018-12-26T06:58:20.718Z</time>
</trkpt>
<trkpt lat="22.2681620" lon="113.9628455">
<ele>346.413</ele>
<time>2018-12-26T06:59:01.355Z</time>
</trkpt>
<trkpt lat="22.2681825" lon="113.9629449">
<ele>348.850</ele>
<time>2018-12-26T06:59:39.150Z</time>
</trkpt>
<trkpt lat="22.2681554" lon="113.9630390">
<ele>350.965</ele>
<time>2018-12-26T07:00:12.230Z</time>
</trkpt>
<trkpt lat="22.2681687" lon="113.9631376">
<ele>354.109</ele>
<time>2018-12-26T07:00:45.702Z</time>
</trkpt>
<trkpt lat="22.2681369" lon="113.9632303">
<ele>358.367</ele>
<time>2018-12-26T07:01:18.880Z</time>
</trkpt>
<trkpt lat="22.2681432" lon="113.9633306">
<ele>362.861</ele>
<time>2018-12-26T07:01:59.664Z</time>
</trkpt>
<trkpt lat="22.2680830" lon="113.9634071">
<ele>367.349</ele>
<time>2018-12-26T07:02:42.520Z</time>
</trkpt>
<trkpt lat="22.2680748" lon="113.9635072">
<ele>372.405</ele>
<time>2018-12-26T07:03:17.575Z</time>
</trkpt>
<trkpt lat="22.2680308" lon="113.9635955">
<ele>377.966</ele>
<time>2018-12-26T07:03:48.361Z</time>
</trkpt>
<trkpt lat="22.2680424" lon="113.9636925">
<ele>383.354</ele>
<time>2018-12-26T07:04:18.381Z</time>
</trkpt>
<trkpt lat="22.2679455" lon="113.9636912">
<ele>388.048</ele>
<time>2018-12-26T07:04:50.515Z</time>
</trkpt>
<trkpt lat="22.2678745" lon="113.9637592">
<ele>392.098</ele>
<time>2018-12-26T07:05:16.997Z</time>
</trkpt>
<trkpt lat="22.2678745" lon="113.9637592">
<ele>395.387</ele>
<time>2018-12-26T07:05:27.998Z</time>
</trkpt>
<trkpt lat="22.2678745" lon="113.9637592">
<ele>396.987</ele>
<time>2018-12-26T07:05:28.098Z</time>
</trkpt>
<trkpt lat="22.2678257" lon="113.9638590">
<ele>396.666</ele>
<time>2018-12-26T07:05:43.142Z</time>
</trkpt>
<trkpt lat="22.2678135" lon="113.9639615">
<ele>396.302</ele>
<time>2018-12-26T07:05:52.938Z</time>
</trkpt>
<trkpt lat="22.2678480" lon="113.9640551">
<ele>397.557</ele>
<time>2018-12-26T07:06:02.998Z</time>
</trkpt>
<trkpt lat="22.2678480" lon="113.9640551">
<ele>399.680</ele>
<time>2018-12-26T07:06:03.998Z</time>
</trkpt>
<trkpt lat="22.2678480" lon="113.9640551">
<ele>400.860</ele>
<time>2018-12-26T07:06:06.838Z</time>
</trkpt>
<trkpt lat="22.2678480" lon="113.9640551">
<ele>399.798</ele>
<time>2018-12-26T07:06:28.998Z</time>
</trkpt>
<trkpt lat="22.2678480" lon="113.9640551">
<ele>399.275</ele>
<time>2018-12-26T07:06:32.655Z</time>
</trkpt>
<trkpt lat="22.2678228" lon="113.9643413">
<ele>399.255</ele>
<time>2018-12-26T07:07:03.997Z</time>
</trkpt>
<trkpt lat="22.2678228" lon="113.9643413">
<ele>399.502</ele>
<time>2018-12-26T07:07:12.997Z</time>
</trkpt>
<trkpt lat="22.2678228" lon="113.9643413">
<ele>399.556</ele>
<time>2018-12-26T07:07:13.097Z</time>
</trkpt>
<trkpt lat="22.2679100" lon="113.9645130">
<ele>399.338</ele>
<time>2018-12-26T07:08:24.995Z</time>
</trkpt>
<trkpt lat="22.2679100" lon="113.9645130">
<ele>399.119</ele>
<time>2018-12-26T07:08:28.995Z</time>
</trkpt>
<trkpt lat="22.2679100" lon="113.9645130">
<ele>398.993</ele>
<time>2018-12-26T07:12:09.513Z</time>
</trkpt>
<trkpt lat="22.2678653" lon="113.9645974">
<ele>398.767</ele>
<time>2018-12-26T07:14:40.218Z</time>
</trkpt>
<trkpt lat="22.2678881" lon="113.9646951">
<ele>403.149</ele>
<time>2018-12-26T07:15:33.945Z</time>
</trkpt>
<trkpt lat="22.2679142" lon="113.9647908">
<ele>414.977</ele>
<time>2018-12-26T07:16:18.753Z</time>
</trkpt>
<trkpt lat="22.2679496" lon="113.9648817">
<ele>428.411</ele>
<time>2018-12-26T07:17:02.993Z</time>
</trkpt>
<trkpt lat="22.2679496" lon="113.9648817">
<ele>437.064</ele>
<time>2018-12-26T07:17:02.993Z</time>
</trkpt>
<trkpt lat="22.2679496" lon="113.9648817">
<ele>440.301</ele>
<time>2018-12-26T07:17:03.093Z</time>
</trkpt>
<trkpt lat="22.2679389" lon="113.9650101">
<ele>439.595</ele>
<time>2018-12-26T07:18:07.992Z</time>
</trkpt>
<trkpt lat="22.2679389" lon="113.9650101">
<ele>438.126</ele>
<time>2018-12-26T07:18:14.991Z</time>
</trkpt>
<trkpt lat="22.2679389" lon="113.9650101">
<ele>437.871</ele>
<time>2018-12-26T07:20:17.210Z</time>
</trkpt>
<trkpt lat="22.2679487" lon="113.9652373">
<ele>438.448</ele>
<time>2018-12-26T07:21:06.997Z</time>
</trkpt>
<trkpt lat="22.2679487" lon="113.9652373">
<ele>438.795</ele>
<time>2018-12-26T07:21:20.997Z</time>
</trkpt>
<trkpt lat="22.2679487" lon="113.9652373">
<ele>438.647</ele>
<time>2018-12-26T07:22:39.525Z</time>
</trkpt>
<trkpt lat="22.2679370" lon="113.9654646">
<ele>438.366</ele>
<time>2018-12-26T07:24:12.993Z</time>
</trkpt>
<trkpt lat="22.2679370" lon="113.9654646">
<ele>438.246</ele>
<time>2018-12-26T07:24:16.993Z</time>
</trkpt>
<trkpt lat="22.2679370" lon="113.9654646">
<ele>438.176</ele>
<time>2018-12-26T07:24:53.622Z</time>
</trkpt>
<trkpt lat="22.2679230" lon="113.9655608">
<ele>437.852</ele>
<time>2018-12-26T07:25:07.992Z</time>
</trkpt>
<trkpt lat="22.2679230" lon="113.9655608">
<ele>437.742</ele>
<time>2018-12-26T07:25:16.991Z</time>
</trkpt>
<trkpt lat="22.2679230" lon="113.9655608">
<ele>437.656</ele>
<time>2018-12-26T07:25:20.495Z</time>
</trkpt>
<trkpt lat="22.2679275" lon="113.9657823">
<ele>437.522</ele>
<time>2018-12-26T07:26:49.998Z</time>
</trkpt>
<trkpt lat="22.2679275" lon="113.9657823">
<ele>437.376</ele>
<time>2018-12-26T07:26:52.998Z</time>
</trkpt>
<trkpt lat="22.2679275" lon="113.9657823">
<ele>437.246</ele>
<time>2018-12-26T07:31:41.568Z</time>
</trkpt>
<trkpt lat="22.2678811" lon="113.9659782">
<ele>437.118</ele>
<time>2018-12-26T07:32:07.992Z</time>
</trkpt>
<trkpt lat="22.2678811" lon="113.9659782">
<ele>437.009</ele>
<time>2018-12-26T07:32:24.992Z</time>
</trkpt>
<trkpt lat="22.2678811" lon="113.9659782">
<ele>436.890</ele>
<time>2018-12-26T07:33:08.644Z</time>
</trkpt>
<trkpt lat="22.2678762" lon="113.9661616">
<ele>436.745</ele>
<time>2018-12-26T07:35:04.998Z</time>
</trkpt>
<trkpt lat="22.2678762" lon="113.9661616">
<ele>436.620</ele>
<time>2018-12-26T07:35:08.998Z</time>
</trkpt>
<trkpt lat="22.2678762" lon="113.9661616">
<ele>436.502</ele>
<time>2018-12-26T07:38:46.229Z</time>
</trkpt>
<trkpt lat="22.2680358" lon="113.9662747">
<ele>436.367</ele>
<time>2018-12-26T07:39:08.992Z</time>
</trkpt>
<trkpt lat="22.2680358" lon="113.9662747">
<ele>436.245</ele>
<time>2018-12-26T07:39:23.992Z</time>
</trkpt>
<trkpt lat="22.2680358" lon="113.9662747">
<ele>436.124</ele>
<time>2018-12-26T07:43:22.692Z</time>
</trkpt>
<trkpt lat="22.2678935" lon="113.9663376">
<ele>435.987</ele>
<time>2018-12-26T07:44:28.995Z</time>
</trkpt>
<trkpt lat="22.2678935" lon="113.9663376">
<ele>435.865</ele>
<time>2018-12-26T07:44:32.995Z</time>
</trkpt>
<trkpt lat="22.2678935" lon="113.9663376">
<ele>435.747</ele>
<time>2018-12-26T07:48:01.219Z</time>
</trkpt>
<trkpt lat="22.2679333" lon="113.9665321">
<ele>435.609</ele>
<time>2018-12-26T07:48:42.999Z</time>
</trkpt>
<trkpt lat="22.2679333" lon="113.9665321">
<ele>435.487</ele>
<time>2018-12-26T07:48:45.999Z</time>
</trkpt>
<trkpt lat="22.2679333" lon="113.9665321">
<ele>435.368</ele>
<time>2018-12-26T07:49:00.999Z</time>
</trkpt>
<trkpt lat="22.2679333" lon="113.9665321">
<ele>435.214</ele>
<time>2018-12-26T07:49:01.099Z</time>
</trkpt>
<trkpt lat="22.2679745" lon="113.9666607">
<ele>435.065</ele>
<time>2018-12-26T07:49:33.998Z</time>
</trkpt>
<trkpt lat="22.2679745" lon="113.9666607">
<ele>434.964</ele>
<time>2018-12-26T07:49:40.998Z</time>
</trkpt>
<trkpt lat="22.2679745" lon="113.9666607">
<ele>434.858</ele>
<time>2018-12-26T07:51:18.856Z</time>
</trkpt>
<trkpt lat="22.2679833" lon="113.9668138">
<ele>434.713</ele>
<time>2018-12-26T07:51:32.995Z</time>
</trkpt>
<trkpt lat="22.2679833" lon="113.9668138">
<ele>434.579</ele>
<time>2018-12-26T07:51:40.995Z</time>
</trkpt>
<trkpt lat="22.2679833" lon="113.9668138">
<ele>434.459</ele>
<time>2018-12-26T07:53:02.993Z</time>
</trkpt>
<trkpt lat="22.2679833" lon="113.9668138">
<ele>434.310</ele>
<time>2018-12-26T07:53:03.093Z</time>
</trkpt>
<trkpt lat="22.2679645" lon="113.9670129">
<ele>434.163</ele>
<time>2018-12-26T07:54:12.991Z</time>
</trkpt>
<trkpt lat="22.2679645" lon="113.9670129">
<ele>434.060</ele>
<time>2018-12-26T07:54:16.991Z</time>
</trkpt>
<trkpt lat="22.2679645" lon="113.9670129">
<ele>433.952</ele>
<time>2018-12-26T08:05:34.375Z</time>
</trkpt>
<trkpt lat="22.2679520" lon="113.9671420">
<ele>433.808</ele>
<time>2018-12-26T08:06:05.996Z</time>
</trkpt>
<trkpt lat="22.2679520" lon="113.9671420">
<ele>433.676</ele>
<time>2018-12-26T08:06:10.996Z</time>
</trkpt>
<trkpt lat="22.2679520" lon="113.9671420">
<ele>433.556</ele>
<time>2018-12-26T08:06:21.062Z</time>
</trkpt>
<trkpt lat="22.2680126" lon="113.9672474">
<ele>433.260</ele>
<time>2018-12-26T08:06:33.995Z</time>
</trkpt>
<trkpt lat="22.2680126" lon="113.9672474">
<ele>433.174</ele>
<time>2018-12-26T08:06:43.995Z</time>
</trkpt>
<trkpt lat="22.2680126" lon="113.9672474">
<ele>433.093</ele>
<time>2018-12-26T08:06:44.095Z</time>
</trkpt>
<trkpt lat="22.2680652" lon="113.9673582">
<ele>432.951</ele>
<time>2018-12-26T08:06:56.995Z</time>
</trkpt>
<trkpt lat="22.2680652" lon="113.9673582">
<ele>432.798</ele>
<time>2018-12-26T08:07:05.995Z</time>
</trkpt>
<trkpt lat="22.2680652" lon="113.9673582">
<ele>432.670</ele>
<time>2018-12-26T08:07:06.095Z</time>
</trkpt>
<trkpt lat="22.2681205" lon="113.9674630">
<ele>432.549</ele>
<time>2018-12-26T08:07:23.994Z</time>
</trkpt>
<trkpt lat="22.2681205" lon="113.9674630">
<ele>432.442</ele>
<time>2018-12-26T08:07:29.994Z</time>
</trkpt>
<trkpt lat="22.2681205" lon="113.9674630">
<ele>432.322</ele>
<time>2018-12-26T08:07:30.094Z</time>
</trkpt>
<trkpt lat="22.2681530" lon="113.9675619">
<ele>432.178</ele>
<time>2018-12-26T08:07:59.952Z</time>
</trkpt>
<trkpt lat="22.2681538" lon="113.9676590">
<ele>458.590</ele>
<time>2018-12-26T08:08:18.490Z</time>
</trkpt>
<trkpt lat="22.2681880" lon="113.9677517">
<ele>528.233</ele>
<time>2018-12-26T08:08:36.977Z</time>
</trkpt>
<trkpt lat="22.2682646" lon="113.9678109">
<ele>601.261</ele>
<time>2018-12-26T08:08:57.730Z</time>
</trkpt>
<trkpt lat="22.2683431" lon="113.9678623">
<ele>638.201</ele>
<time>2018-12-26T08:09:14.992Z</time>
</trkpt>
<trkpt lat="22.2683431" lon="113.9678623">
<ele>646.221</ele>
<time>2018-12-26T08:09:25.992Z</time>
</trkpt>
<trkpt lat="22.2683431" lon="113.9678623">
<ele>642.495</ele>
<time>2018-12-26T08:09:26.092Z</time>
</trkpt>
<trkpt lat="22.2684420" lon="113.9679363">
<ele>638.288</ele>
<time>2018-12-26T08:09:35.991Z</time>
</trkpt>
<trkpt lat="22.2684420" lon="113.9679363">
<ele>636.664</ele>
<time>2018-12-26T08:09:40.991Z</time>
</trkpt>
<trkpt lat="22.2684420" lon="113.9679363">
<ele>636.613</ele>
<time>2018-12-26T08:09:41.091Z</time>
</trkpt>
<trkpt lat="22.2684420" lon="113.9679363">
<ele>636.551</ele>
<time>2018-12-26T08:09:56.991Z</time>
</trkpt>
<trkpt lat="22.2684420" lon="113.9679363">
<ele>636.155</ele>
<time>2018-12-26T08:09:57.091Z</time>
</trkpt>
<trkpt lat="22.2685394" lon="113.9679820">
<ele>635.939</ele>
<time>2018-12-26T08:09:57.991Z</time>
</trkpt>
<trkpt lat="22.2685394" lon="113.9679820">
<ele>635.888</ele>
<time>2018-12-26T08:09:58.991Z</time>
</trkpt>
<trkpt lat="22.2685394" lon="113.9679820">
<ele>635.784</ele>
<time>2018-12-26T08:10:04.101Z</time>
</trkpt>
<trkpt lat="22.2686312" lon="113.9680245">
<ele>635.531</ele>
<time>2018-12-26T08:10:16.991Z</time>
</trkpt>
<trkpt lat="22.2686312" lon="113.9680245">
<ele>635.280</ele>
<time>2018-12-26T08:10:18.991Z</time>
</trkpt>
<trkpt lat="22.2686312" lon="113.9680245">
<ele>635.100</ele>
<time>2018-12-26T08:10:36.416Z</time>
</trkpt>
<trkpt lat="22.2687634" lon="113.9681256">
<ele>634.938</ele>
<time>2018-12-26T08:10:59.535Z</time>
</trkpt>
<trkpt lat="22.2687859" lon="113.9682291">
<ele>636.155</ele>
<time>2018-12-26T08:11:08.999Z</time>
</trkpt>
<trkpt lat="22.2687859" lon="113.9682291">
<ele>639.593</ele>
<time>2018-12-26T08:11:14.999Z</time>
</trkpt>
<trkpt lat="22.2687859" lon="113.9682291">
<ele>642.393</ele>
<time>2018-12-26T08:11:15.099Z</time>
</trkpt>
<trkpt lat="22.2688183" lon="113.9683393">
<ele>642.082</ele>
<time>2018-12-26T08:11:25.998Z</time>
</trkpt>
<trkpt lat="22.2688183" lon="113.9683393">
<ele>640.618</ele>
<time>2018-12-26T08:11:38.998Z</time>
</trkpt>
<trkpt lat="22.2688183" lon="113.9683393">
<ele>640.244</ele>
<time>2018-12-26T08:11:39.098Z</time>
</trkpt>
<trkpt lat="22.2688474" lon="113.9684621">
<ele>640.723</ele>
<time>2018-12-26T08:11:51.998Z</time>
</trkpt>
<trkpt lat="22.2688474" lon="113.9684621">
<ele>641.002</ele>
<time>2018-12-26T08:11:59.998Z</time>
</trkpt>
<trkpt lat="22.2688474" lon="113.9684621">
<ele>640.766</ele>
<time>2018-12-26T08:12:00.098Z</time>
</trkpt>
<trkpt lat="22.2689191" lon="113.9685488">
<ele>640.218</ele>
<time>2018-12-26T08:12:15.881Z</time>
</trkpt>
<trkpt lat="22.2689267" lon="113.9686557">
<ele>641.457</ele>
<time>2018-12-26T08:12:23.199Z</time>
</trkpt>
<trkpt lat="22.2689177" lon="113.9687531">
<ele>644.879</ele>
<time>2018-12-26T08:12:28.997Z</time>
</trkpt>
<trkpt lat="22.2689177" lon="113.9687531">
<ele>648.447</ele>
<time>2018-12-26T08:12:29.997Z</time>
</trkpt>
<trkpt lat="22.2689177" lon="113.9687531">
<ele>649.836</ele>
<time>2018-12-26T08:13:00.996Z</time>
</trkpt>
<trkpt lat="22.2689177" lon="113.9687531">
<ele>649.329</ele>
<time>2018-12-26T08:13:51.694Z</time>
</trkpt>
<trkpt lat="22.2689177" lon="113.9687531">
<ele>648.392</ele>
<time>2018-12-26T08:14:17.995Z</time>
</trkpt>
<trkpt lat="22.2689177" lon="113.9687531">
<ele>648.547</ele>
<time>2018-12-26T08:15:24.933Z</time>
</trkpt>
<trkpt lat="22.2687520" lon="113.9688176">
<ele>648.356</ele>
<time>2018-12-26T08:16:34.994Z</time>
</trkpt>
<trkpt lat="22.2687520" lon="113.9688176">
<ele>647.970</ele>
<time>2018-12-26T08:16:39.994Z</time>
</trkpt>
<trkpt lat="22.2687520" lon="113.9688176">
<ele>647.698</ele>
<time>2018-12-26T08:16:40.094Z</time>
</trkpt>
<trkpt lat="22.2686558" lon="113.9688319">
<ele>647.369</ele>
<time>2018-12-26T08:17:06.994Z</time>
</trkpt>
<trkpt lat="22.2686558" lon="113.9688319">
<ele>647.247</ele>
<time>2018-12-26T08:17:14.993Z</time>
</trkpt>
<trkpt lat="22.2686558" lon="113.9688319">
<ele>647.117</ele>
<time>2018-12-26T08:17:42.941Z</time>
</trkpt>
<trkpt lat="22.2685674" lon="113.9689248">
<ele>646.900</ele>
<time>2018-12-26T08:18:01.337Z</time>
</trkpt>
<trkpt lat="22.2684905" lon="113.9689829">
<ele>648.241</ele>
<time>2018-12-26T08:18:10.993Z</time>
</trkpt>
<trkpt lat="22.2684905" lon="113.9689829">
<ele>652.182</ele>
<time>2018-12-26T08:18:22.999Z</time>
</trkpt>
<trkpt lat="22.2684905" lon="113.9689829">
<ele>655.429</ele>
<time>2018-12-26T08:19:03.313Z</time>
</trkpt>
<trkpt lat="22.2684124" lon="113.9690688">
<ele>655.108</ele>
<time>2018-12-26T08:19:15.998Z</time>
</trkpt>
<trkpt lat="22.2684124" lon="113.9690688">
<ele>653.462</ele>
<time>2018-12-26T08:19:16.998Z</time>
</trkpt>
<trkpt lat="22.2684124" lon="113.9690688">
<ele>653.064</ele>
<time>2018-12-26T08:20:07.536Z</time>
</trkpt>
<trkpt lat="22.2683841" lon="113.9691807">
<ele>653.639</ele>
<time>2018-12-26T08:20:18.997Z</time>
</trkpt>
<trkpt lat="22.2683841" lon="113.9691807">
<ele>653.981</ele>
<time>2018-12-26T08:20:29.997Z</time>
</trkpt>
<trkpt lat="22.2683841" lon="113.9691807">
<ele>653.745</ele>
<time>2018-12-26T08:20:45.401Z</time>
</trkpt>
<trkpt lat="22.2683473" lon="113.9693006">
<ele>653.356</ele>
<time>2018-12-26T08:21:00.996Z</time>
</trkpt>
<trkpt lat="22.2683473" lon="113.9693006">
<ele>653.177</ele>
<time>2018-12-26T08:21:13.996Z</time>
</trkpt>
<trkpt lat="22.2683473" lon="113.9693006">
<ele>653.067</ele>
<time>2018-12-26T08:21:28.995Z</time>
</trkpt>
<trkpt lat="22.2683473" lon="113.9693006">
<ele>652.850</ele>
<time>2018-12-26T08:22:03.995Z</time>
</trkpt>
<trkpt lat="22.2683473" lon="113.9693006">
<ele>652.572</ele>
<time>2018-12-26T08:22:47.994Z</time>
</trkpt>
<trkpt lat="22.2683473" lon="113.9693006">
<ele>652.341</ele>
<time>2018-12-26T08:23:26.757Z</time>
</trkpt>
<trkpt lat="22.2683473" lon="113.9693006">
<ele>651.949</ele>
<time>2018-12-26T08:23:34.993Z</time>
</trkpt>
<trkpt lat="22.2683473" lon="113.9693006">
<ele>651.767</ele>
<time>2018-12-26T08:23:35.093Z</time>
</trkpt>
<trkpt lat="22.2683473" lon="113.9693006">
<ele>651.325</ele>
<time>2018-12-26T08:23:37.993Z</time>
</trkpt>
<trkpt lat="22.2683473" lon="113.9693006">
<ele>651.139</ele>
<time>2018-12-26T08:23:38.167Z</time>
</trkpt>
<trkpt lat="22.2682439" lon="113.9691898">
<ele>650.959</ele>
<time>2018-12-26T08:23:58.669Z</time>
</trkpt>
<trkpt lat="22.2681571" lon="113.9691602">
<ele>654.036</ele>
<time>2018-12-26T08:24:07.330Z</time>
</trkpt>
<trkpt lat="22.2680747" lon="113.9691205">
<ele>662.357</ele>
<time>2018-12-26T08:24:15.326Z</time>
</trkpt>
<trkpt lat="22.2680065" lon="113.9690496">
<ele>670.925</ele>
<time>2018-12-26T08:24:23.435Z</time>
</trkpt>
<trkpt lat="22.2679273" lon="113.9689995">
<ele>674.796</ele>
<time>2018-12-26T08:24:31.859Z</time>
</trkpt>
<trkpt lat="22.2678350" lon="113.9689620">
<ele>674.954</ele>
<time>2018-12-26T08:24:41.757Z</time>
</trkpt>
<trkpt lat="22.2677488" lon="113.9689344">
<ele>673.827</ele>
<time>2018-12-26T08:24:51.394Z</time>
</trkpt>
<trkpt lat="22.2676584" lon="113.9689424">
<ele>672.957</ele>
<time>2018-12-26T08:25:01.591Z</time>
</trkpt>
<trkpt lat="22.2675668" lon="113.9689207">
<ele>672.512</ele>
<time>2018-12-26T08:25:13.183Z</time>
</trkpt>
<trkpt lat="22.2674754" lon="113.9689187">
<ele>672.185</ele>
<time>2018-12-26T08:25:24.538Z</time>
</trkpt>
<trkpt lat="22.2673897" lon="113.9688862">
<ele>671.882</ele>
<time>2018-12-26T08:25:32.908Z</time>
</trkpt>
<trkpt lat="22.2673071" lon="113.9688449">
<ele>671.664</ele>
<time>2018-12-26T08:25:40.063Z</time>
</trkpt>
<trkpt lat="22.2672107" lon="113.9688707">
<ele>671.455</ele>
<time>2018-12-26T08:25:47.663Z</time>
</trkpt>
<trkpt lat="22.2671201" lon="113.9688877">
<ele>671.183</ele>
<time>2018-12-26T08:25:54.809Z</time>
</trkpt>
<trkpt lat="22.2670240" lon="113.9688612">
<ele>670.793</ele>
<time>2018-12-26T08:26:02.999Z</time>
</trkpt>
<trkpt lat="22.2670240" lon="113.9688612">
<ele>670.309</ele>
<time>2018-12-26T08:26:22.998Z</time>
</trkpt>
<trkpt lat="22.2670240" lon="113.9688612">
<ele>669.874</ele>
<time>2018-12-26T08:26:23.098Z</time>
</trkpt>
<trkpt lat="22.2669075" lon="113.9688330">
<ele>669.678</ele>
<time>2018-12-26T08:26:46.477Z</time>
</trkpt>
<trkpt lat="22.2668316" lon="113.9687779">
<ele>669.801</ele>
<time>2018-12-26T08:26:55.073Z</time>
</trkpt>
<trkpt lat="22.2667747" lon="113.9686955">
<ele>670.266</ele>
<time>2018-12-26T08:27:04.386Z</time>
</trkpt>
<trkpt lat="22.2666849" lon="113.9686842">
<ele>670.922</ele>
<time>2018-12-26T08:27:14.277Z</time>
</trkpt>
<trkpt lat="22.2665909" lon="113.9686671">
<ele>671.495</ele>
<time>2018-12-26T08:27:23.513Z</time>
</trkpt>
<trkpt lat="22.2664986" lon="113.9686844">
<ele>671.803</ele>
<time>2018-12-26T08:27:31.370Z</time>
</trkpt>
<trkpt lat="22.2664053" lon="113.9687000">
<ele>671.860</ele>
<time>2018-12-26T08:27:39.711Z</time>
</trkpt>
<trkpt lat="22.2663089" lon="113.9686756">
<ele>671.755</ele>
<time>2018-12-26T08:27:48.845Z</time>
</trkpt>
<trkpt lat="22.2662110" lon="113.9686794">
<ele>671.408</ele>
<time>2018-12-26T08:27:58.437Z</time>
</trkpt>
<trkpt lat="22.2661196" lon="113.9686870">
<ele>670.784</ele>
<time>2018-12-26T08:28:07.907Z</time>
</trkpt>
<trkpt lat="22.2660303" lon="113.9686640">
<ele>670.583</ele>
<time>2018-12-26T08:28:18.747Z</time>
</trkpt>
<trkpt lat="22.2659327" lon="113.9686526">
<ele>671.318</ele>
<time>2018-12-26T08:28:28.996Z</time>
</trkpt>
<trkpt lat="22.2659327" lon="113.9686526">
<ele>672.329</ele>
<time>2018-12-26T08:28:31.996Z</time>
</trkpt>
<trkpt lat="22.2659327" lon="113.9686526">
<ele>672.715</ele>
<time>2018-12-26T08:28:50.820Z</time>
</trkpt>
<trkpt lat="22.2658324" lon="113.9686395">
<ele>671.849</ele>
<time>2018-12-26T08:29:01.995Z</time>
</trkpt>
<trkpt lat="22.2658324" lon="113.9686395">
<ele>671.539</ele>
<time>2018-12-26T08:29:08.995Z</time>
</trkpt>
<trkpt lat="22.2658324" lon="113.9686395">
<ele>671.393</ele>
<time>2018-12-26T08:30:04.556Z</time>
</trkpt>
<trkpt lat="22.2657515" lon="113.9686893">
<ele>670.961</ele>
<time>2018-12-26T08:30:29.194Z</time>
</trkpt>
<trkpt lat="22.2656732" lon="113.9687432">
<ele>671.131</ele>
<time>2018-12-26T08:30:36.349Z</time>
</trkpt>
<trkpt lat="22.2655970" lon="113.9688243">
<ele>671.962</ele>
<time>2018-12-26T08:30:42.448Z</time>
</trkpt>
<trkpt lat="22.2655169" lon="113.9688784">
<ele>672.746</ele>
<time>2018-12-26T08:30:48.064Z</time>
</trkpt>
<trkpt lat="22.2654528" lon="113.9689621">
<ele>672.719</ele>
<time>2018-12-26T08:30:54.729Z</time>
</trkpt>
<trkpt lat="22.2653583" lon="113.9689782">
<ele>672.024</ele>
<time>2018-12-26T08:31:01.504Z</time>
</trkpt>
<trkpt lat="22.2652738" lon="113.9690145">
<ele>671.235</ele>
<time>2018-12-26T08:31:08.031Z</time>
</trkpt>
<trkpt lat="22.2651910" lon="113.9690656">
<ele>670.801</ele>
<time>2018-12-26T08:31:14.982Z</time>
</trkpt>
<trkpt lat="22.2651056" lon="113.9691232">
<ele>670.770</ele>
<time>2018-12-26T08:31:22.377Z</time>
</trkpt>
<trkpt lat="22.2650357" lon="113.9691895">
<ele>670.876</ele>
<time>2018-12-26T08:31:29.137Z</time>
</trkpt>
<trkpt lat="22.2649677" lon="113.9692565">
<ele>670.901</ele>
<time>2018-12-26T08:31:36.043Z</time>
</trkpt>
<trkpt lat="22.2648782" lon="113.9692467">
<ele>670.803</ele>
<time>2018-12-26T08:31:45.347Z</time>
</trkpt>
<trkpt lat="22.2647895" lon="113.9692030">
<ele>670.612</ele>
<time>2018-12-26T08:31:57.422Z</time>
</trkpt>
<trkpt lat="22.2646962" lon="113.9692341">
<ele>669.983</ele>
<time>2018-12-26T08:32:08.518Z</time>
</trkpt>
<trkpt lat="22.2646049" lon="113.9692448">
<ele>668.614</ele>
<time>2018-12-26T08:32:16.257Z</time>
</trkpt>
<trkpt lat="22.2645135" lon="113.9692453">
<ele>666.863</ele>
<time>2018-12-26T08:32:22.991Z</time>
</trkpt>
<trkpt lat="22.2645135" lon="113.9692453">
<ele>665.388</ele>
<time>2018-12-26T08:32:23.991Z</time>
</trkpt>
<trkpt lat="22.2645135" lon="113.9692453">
<ele>664.553</ele>
<time>2018-12-26T08:33:13.549Z</time>
</trkpt>
<trkpt lat="22.2644099" lon="113.9692784">
<ele>664.437</ele>
<time>2018-12-26T08:33:31.295Z</time>
</trkpt>
<trkpt lat="22.2643100" lon="113.9692525">
<ele>664.445</ele>
<time>2018-12-26T08:33:39.542Z</time>
</trkpt>
<trkpt lat="22.2642140" lon="113.9692413">
<ele>663.876</ele>
<time>2018-12-26T08:33:46.264Z</time>
</trkpt>
<trkpt lat="22.2641087" lon="113.9692496">
<ele>662.347</ele>
<time>2018-12-26T08:33:53.119Z</time>
</trkpt>
<trkpt lat="22.2640123" lon="113.9692560">
<ele>658.722</ele>
<time>2018-12-26T08:33:58.746Z</time>
</trkpt>
<trkpt lat="22.2639145" lon="113.9692573">
<ele>657.444</ele>
<time>2018-12-26T08:34:05.135Z</time>
</trkpt>
<trkpt lat="22.2638146" lon="113.9692372">
<ele>655.422</ele>
<time>2018-12-26T08:34:12.239Z</time>
</trkpt>
<trkpt lat="22.2637178" lon="113.9691963">
<ele>654.937</ele>
<time>2018-12-26T08:34:19.514Z</time>
</trkpt>
<trkpt lat="22.2636154" lon="113.9692137">
<ele>654.665</ele>
<time>2018-12-26T08:34:26.487Z</time>
</trkpt>
<trkpt lat="22.2635191" lon="113.9692187">
<ele>654.480</ele>
<time>2018-12-26T08:34:33.168Z</time>
</trkpt>
<trkpt lat="22.2634368" lon="113.9691564">
<ele>654.089</ele>
<time>2018-12-26T08:34:40.327Z</time>
</trkpt>
<trkpt lat="22.2633652" lon="113.9690879">
<ele>653.109</ele>
<time>2018-12-26T08:34:46.462Z</time>
</trkpt>
<trkpt lat="22.2632886" lon="113.9690189">
<ele>651.510</ele>
<time>2018-12-26T08:34:52.189Z</time>
</trkpt>
<trkpt lat="22.2632017" lon="113.9689615">
<ele>649.639</ele>
<time>2018-12-26T08:34:57.771Z</time>
</trkpt>
<trkpt lat="22.2631262" lon="113.9689068">
<ele>647.772</ele>
<time>2018-12-26T08:35:02.668Z</time>
</trkpt>
<trkpt lat="22.2630448" lon="113.9688559">
<ele>646.109</ele>
<time>2018-12-26T08:35:07.800Z</time>
</trkpt>
<trkpt lat="22.2629615" lon="113.9687904">
<ele>644.583</ele>
<time>2018-12-26T08:35:13.567Z</time>
</trkpt>
<trkpt lat="22.2628769" lon="113.9687358">
<ele>642.883</ele>
<time>2018-12-26T08:35:19.052Z</time>
</trkpt>
<trkpt lat="22.2628064" lon="113.9686730">
<ele>641.009</ele>
<time>2018-12-26T08:35:23.664Z</time>
</trkpt>
<trkpt lat="22.2627259" lon="113.9686095">
<ele>639.270</ele>
<time>2018-12-26T08:35:27.912Z</time>
</trkpt>
<trkpt lat="22.2626360" lon="113.9685330">
<ele>637.119</ele>
<time>2018-12-26T08:35:32.099Z</time>
</trkpt>
<trkpt lat="22.2625615" lon="113.9684690">
<ele>636.418</ele>
<time>2018-12-26T08:35:35.246Z</time>
</trkpt>
<trkpt lat="22.2624932" lon="113.9683772">
<ele>635.658</ele>
<time>2018-12-26T08:35:38.772Z</time>
</trkpt>
<trkpt lat="22.2624066" lon="113.9683017">
<ele>634.714</ele>
<time>2018-12-26T08:35:42.414Z</time>
</trkpt>
<trkpt lat="22.2623223" lon="113.9682293">
<ele>633.548</ele>
<time>2018-12-26T08:35:45.996Z</time>
</trkpt>
<trkpt lat="22.2623223" lon="113.9682293">
<ele>632.511</ele>
<time>2018-12-26T08:35:52.996Z</time>
</trkpt>
<trkpt lat="22.2623223" lon="113.9682293">
<ele>631.918</ele>
<time>2018-12-26T08:36:06.793Z</time>
</trkpt>
<trkpt lat="22.2622279" lon="113.9681229">
<ele>631.709</ele>
<time>2018-12-26T08:36:26.249Z</time>
</trkpt>
<trkpt lat="22.2621672" lon="113.9680454">
<ele>631.397</ele>
<time>2018-12-26T08:36:33.179Z</time>
</trkpt>
<trkpt lat="22.2620807" lon="113.9679870">
<ele>630.535</ele>
<time>2018-12-26T08:36:39.550Z</time>
</trkpt>
<trkpt lat="22.2619895" lon="113.9679596">
<ele>629.191</ele>
<time>2018-12-26T08:36:44.855Z</time>
</trkpt>
<trkpt lat="22.2618973" lon="113.9679365">
<ele>627.787</ele>
<time>2018-12-26T08:36:49.994Z</time>
</trkpt>
<trkpt lat="22.2618973" lon="113.9679365">
<ele>626.736</ele>
<time>2018-12-26T08:36:56.994Z</time>
</trkpt>
<trkpt lat="22.2618973" lon="113.9679365">
<ele>626.231</ele>
<time>2018-12-26T08:36:57.094Z</time>
</trkpt>
<trkpt lat="22.2618127" lon="113.9678460">
<ele>626.017</ele>
<time>2018-12-26T08:37:13.616Z</time>
</trkpt>
<trkpt lat="22.2617619" lon="113.9677533">
<ele>625.812</ele>
<time>2018-12-26T08:37:22.290Z</time>
</trkpt>
<trkpt lat="22.2617036" lon="113.9676751">
<ele>625.301</ele>
<time>2018-12-26T08:37:29.714Z</time>
</trkpt>
<trkpt lat="22.2616353" lon="113.9676070">
<ele>624.710</ele>
<time>2018-12-26T08:37:36.772Z</time>
</trkpt>
<trkpt lat="22.2615513" lon="113.9675490">
<ele>624.207</ele>
<time>2018-12-26T08:37:44.076Z</time>
</trkpt>
<trkpt lat="22.2614683" lon="113.9675081">
<ele>623.492</ele>
<time>2018-12-26T08:37:50.557Z</time>
</trkpt>
<trkpt lat="22.2613906" lon="113.9674584">
<ele>622.361</ele>
<time>2018-12-26T08:37:56.809Z</time>
</trkpt>
<trkpt lat="22.2613060" lon="113.9674079">
<ele>621.075</ele>
<time>2018-12-26T08:38:03.362Z</time>
</trkpt>
<trkpt lat="22.2612163" lon="113.9673677">
<ele>620.085</ele>
<time>2018-12-26T08:38:09.993Z</time>
</trkpt>
<trkpt lat="22.2612163" lon="113.9673677">
<ele>619.598</ele>
<time>2018-12-26T08:38:22.992Z</time>
</trkpt>
<trkpt lat="22.2612163" lon="113.9673677">
<ele>619.468</ele>
<time>2018-12-26T08:40:58.066Z</time>
</trkpt>
<trkpt lat="22.2612088" lon="113.9672591">
<ele>619.142</ele>
<time>2018-12-26T08:41:11.102Z</time>
</trkpt>
<trkpt lat="22.2612171" lon="113.9671541">
<ele>619.556</ele>
<time>2018-12-26T08:41:17.997Z</time>
</trkpt>
<trkpt lat="22.2612171" lon="113.9671541">
<ele>621.066</ele>
<time>2018-12-26T08:41:25.998Z</time>
</trkpt>
<trkpt lat="22.2612171" lon="113.9671541">
<ele>622.286</ele>
<time>2018-12-26T08:41:52.316Z</time>
</trkpt>
<trkpt lat="22.2611663" lon="113.9670232">
<ele>622.013</ele>
<time>2018-12-26T08:42:11.455Z</time>
</trkpt>
<trkpt lat="22.2611090" lon="113.9669411">
<ele>621.527</ele>
<time>2018-12-26T08:42:21.158Z</time>
</trkpt>
<trkpt lat="22.2610999" lon="113.9668402">
<ele>622.326</ele>
<time>2018-12-26T08:42:30.640Z</time>
</trkpt>
<trkpt lat="22.2611563" lon="113.9667612">
<ele>624.012</ele>
<time>2018-12-26T08:42:40.536Z</time>
</trkpt>
<trkpt lat="22.2611694" lon="113.9666637">
<ele>625.537</ele>
<time>2018-12-26T08:42:50.423Z</time>
</trkpt>
<trkpt lat="22.2612226" lon="113.9665700">
<ele>626.738</ele>
<time>2018-12-26T08:43:00.822Z</time>
</trkpt>
<trkpt lat="22.2612590" lon="113.9664716">
<ele>627.864</ele>
<time>2018-12-26T08:43:10.742Z</time>
</trkpt>
<trkpt lat="22.2612731" lon="113.9663731">
<ele>628.841</ele>
<time>2018-12-26T08:43:20.022Z</time>
</trkpt>
<trkpt lat="22.2612521" lon="113.9662754">
<ele>629.517</ele>
<time>2018-12-26T08:43:29.764Z</time>
</trkpt>
<trkpt lat="22.2612381" lon="113.9661714">
<ele>630.204</ele>
<time>2018-12-26T08:43:40.500Z</time>
</trkpt>
<trkpt lat="22.2612360" lon="113.9660732">
<ele>631.283</ele>
<time>2018-12-26T08:43:50.900Z</time>
</trkpt>
<trkpt lat="22.2612241" lon="113.9659697">
<ele>632.625</ele>
<time>2018-12-26T08:44:02.391Z</time>
</trkpt>
<trkpt lat="22.2612285" lon="113.9658689">
<ele>634.010</ele>
<time>2018-12-26T08:44:14.072Z</time>
</trkpt>
<trkpt lat="22.2612421" lon="113.9657660">
<ele>635.547</ele>
<time>2018-12-26T08:44:26.282Z</time>
</trkpt>
<trkpt lat="22.2613000" lon="113.9656834">
<ele>637.309</ele>
<time>2018-12-26T08:44:37.397Z</time>
</trkpt>
<trkpt lat="22.2613325" lon="113.9655851">
<ele>639.033</ele>
<time>2018-12-26T08:44:47.846Z</time>
</trkpt>
<trkpt lat="22.2613497" lon="113.9654894">
<ele>640.400</ele>
<time>2018-12-26T08:44:57.296Z</time>
</trkpt>
<trkpt lat="22.2613642" lon="113.9653858">
<ele>641.473</ele>
<time>2018-12-26T08:45:07.484Z</time>
</trkpt>
<trkpt lat="22.2613206" lon="113.9652930">
<ele>642.487</ele>
<time>2018-12-26T08:45:18.482Z</time>
</trkpt>
<trkpt lat="22.2612701" lon="113.9652045">
<ele>643.560</ele>
<time>2018-12-26T08:45:29.389Z</time>
</trkpt>
<trkpt lat="22.2612399" lon="113.9651112">
<ele>644.727</ele>
<time>2018-12-26T08:45:38.665Z</time>
</trkpt>
<trkpt lat="22.2612169" lon="113.9650141">
<ele>645.859</ele>
<time>2018-12-26T08:45:47.843Z</time>
</trkpt>
<trkpt lat="22.2611751" lon="113.9649154">
<ele>646.818</ele>
<time>2018-12-26T08:45:57.864Z</time>
</trkpt>
<trkpt lat="22.2611464" lon="113.9648207">
<ele>647.621</ele>
<time>2018-12-26T08:46:07.299Z</time>
</trkpt>
<trkpt lat="22.2611069" lon="113.9647321">
<ele>648.230</ele>
<time>2018-12-26T08:46:17.349Z</time>
</trkpt>
<trkpt lat="22.2610980" lon="113.9646350">
<ele>648.656</ele>
<time>2018-12-26T08:46:30.463Z</time>
</trkpt>
<trkpt lat="22.2610894" lon="113.9645336">
<ele>649.113</ele>
<time>2018-12-26T08:46:43.284Z</time>
</trkpt>
<trkpt lat="22.2611244" lon="113.9644402">
<ele>649.917</ele>
<time>2018-12-26T08:46:54.244Z</time>
</trkpt>
<trkpt lat="22.2610951" lon="113.9643464">
<ele>651.298</ele>
<time>2018-12-26T08:47:04.588Z</time>
</trkpt>
<trkpt lat="22.2610414" lon="113.9642653">
<ele>653.158</ele>
<time>2018-12-26T08:47:14.993Z</time>
</trkpt>
<trkpt lat="22.2610414" lon="113.9642653">
<ele>654.879</ele>
<time>2018-12-26T08:47:30.993Z</time>
</trkpt>
<trkpt lat="22.2610414" lon="113.9642653">
<ele>655.619</ele>
<time>2018-12-26T08:47:31.093Z</time>
</trkpt>
<trkpt lat="22.2610412" lon="113.9641049">
<ele>655.262</ele>
<time>2018-12-26T08:47:52.760Z</time>
</trkpt>
<trkpt lat="22.2610871" lon="113.9640096">
<ele>655.303</ele>
<time>2018-12-26T08:48:05.686Z</time>
</trkpt>
<trkpt lat="22.2610832" lon="113.9639073">
<ele>657.107</ele>
<time>2018-12-26T08:48:15.980Z</time>
</trkpt>
<trkpt lat="22.2610996" lon="113.9638038">
<ele>659.952</ele>
<time>2018-12-26T08:48:24.992Z</time>
</trkpt>
<trkpt lat="22.2610731" lon="113.9637028">
<ele>662.456</ele>
<time>2018-12-26T08:48:34.291Z</time>
</trkpt>
<trkpt lat="22.2610445" lon="113.9636073">
<ele>664.277</ele>
<time>2018-12-26T08:48:44.557Z</time>
</trkpt>
<trkpt lat="22.2610369" lon="113.9635014">
<ele>665.650</ele>
<time>2018-12-26T08:48:55.070Z</time>
</trkpt>
<trkpt lat="22.2610450" lon="113.9633964">
<ele>666.902</ele>
<time>2018-12-26T08:49:04.686Z</time>
</trkpt>
<trkpt lat="22.2610042" lon="113.9633056">
<ele>668.021</ele>
<time>2018-12-26T08:49:13.910Z</time>
</trkpt>
<trkpt lat="22.2609355" lon="113.9632288">
<ele>668.824</ele>
<time>2018-12-26T08:49:24.594Z</time>
</trkpt>
<trkpt lat="22.2608963" lon="113.9631383">
<ele>669.425</ele>
<time>2018-12-26T08:49:35.447Z</time>
</trkpt>
<trkpt lat="22.2609057" lon="113.9630408">
<ele>670.213</ele>
<time>2018-12-26T08:49:46.317Z</time>
</trkpt>
<trkpt lat="22.2608487" lon="113.9629590">
<ele>671.430</ele>
<time>2018-12-26T08:49:57.379Z</time>
</trkpt>
<trkpt lat="22.2607728" lon="113.9629018">
<ele>672.981</ele>
<time>2018-12-26T08:50:07.727Z</time>
</trkpt>
<trkpt lat="22.2607095" lon="113.9628228">
<ele>674.461</ele>
<time>2018-12-26T08:50:18.304Z</time>
</trkpt>
<trkpt lat="22.2606181" lon="113.9627823">
<ele>675.604</ele>
<time>2018-12-26T08:50:29.507Z</time>
</trkpt>
<trkpt lat="22.2605674" lon="113.9627001">
<ele>676.402</ele>
<time>2018-12-26T08:50:40.273Z</time>
</trkpt>
<trkpt lat="22.2605277" lon="113.9626118">
<ele>676.908</ele>
<time>2018-12-26T08:50:50.965Z</time>
</trkpt>
<trkpt lat="22.2604823" lon="113.9625181">
<ele>677.271</ele>
<time>2018-12-26T08:51:02.090Z</time>
</trkpt>
<trkpt lat="22.2604100" lon="113.9624502">
<ele>677.741</ele>
<time>2018-12-26T08:51:12.844Z</time>
</trkpt>
<trkpt lat="22.2603437" lon="113.9623748">
<ele>678.538</ele>
<time>2018-12-26T08:51:24.657Z</time>
</trkpt>
<trkpt lat="22.2602523" lon="113.9623545">
<ele>679.986</ele>
<time>2018-12-26T08:51:38.996Z</time>
</trkpt>
<trkpt lat="22.2602523" lon="113.9623545">
<ele>681.868</ele>
<time>2018-12-26T08:51:45.995Z</time>
</trkpt>
<trkpt lat="22.2602523" lon="113.9623545">
<ele>682.948</ele>
<time>2018-12-26T08:55:40.591Z</time>
</trkpt>
<trkpt lat="22.2601785" lon="113.9622789">
<ele>681.692</ele>
<time>2018-12-26T08:55:58.427Z</time>
</trkpt>
<trkpt lat="22.2602114" lon="113.9621868">
<ele>681.783</ele>
<time>2018-12-26T08:56:07.653Z</time>
</trkpt>
<trkpt lat="22.2602173" lon="113.9620821">
<ele>683.515</ele>
<time>2018-12-26T08:56:16.483Z</time>
</trkpt>
<trkpt lat="22.2602099" lon="113.9619758">
<ele>685.882</ele>
<time>2018-12-26T08:56:25.140Z</time>
</trkpt>
<trkpt lat="22.2601925" lon="113.9618803">
<ele>687.599</ele>
<time>2018-12-26T08:56:33.658Z</time>
</trkpt>
<trkpt lat="22.2602248" lon="113.9617845">
<ele>688.421</ele>
<time>2018-12-26T08:56:44.415Z</time>
</trkpt>
<trkpt lat="22.2601818" lon="113.9616931">
<ele>688.859</ele>
<time>2018-12-26T08:56:54.999Z</time>
</trkpt>
<trkpt lat="22.2601818" lon="113.9616931">
<ele>689.441</ele>
<time>2018-12-26T08:57:03.999Z</time>
</trkpt>
<trkpt lat="22.2601818" lon="113.9616931">
<ele>689.802</ele>
<time>2018-12-26T09:00:06.995Z</time>
</trkpt>
<trkpt lat="22.2601818" lon="113.9616931">
<ele>689.506</ele>
<time>2018-12-26T09:00:21.190Z</time>
</trkpt>
<trkpt lat="22.2601096" lon="113.9615428">
<ele>688.964</ele>
<time>2018-12-26T09:00:42.994Z</time>
</trkpt>
<trkpt lat="22.2601096" lon="113.9615428">
<ele>688.575</ele>
<time>2018-12-26T09:00:44.994Z</time>
</trkpt>
<trkpt lat="22.2601096" lon="113.9615428">
<ele>688.262</ele>
<time>2018-12-26T09:00:45.094Z</time>
</trkpt>
<trkpt lat="22.2601093" lon="113.9614409">
<ele>687.788</ele>
<time>2018-12-26T09:01:02.887Z</time>
</trkpt>
<trkpt lat="22.2600962" lon="113.9613362">
<ele>687.002</ele>
<time>2018-12-26T09:01:11.009Z</time>
</trkpt>
<trkpt lat="22.2601187" lon="113.9612408">
<ele>684.855</ele>
<time>2018-12-26T09:01:17.209Z</time>
</trkpt>
<trkpt lat="22.2601780" lon="113.9611645">
<ele>682.108</ele>
<time>2018-12-26T09:01:22.993Z</time>
</trkpt>
<trkpt lat="22.2601780" lon="113.9611645">
<ele>680.111</ele>
<time>2018-12-26T09:01:22.993Z</time>
</trkpt>
<trkpt lat="22.2601780" lon="113.9611645">
<ele>679.207</ele>
<time>2018-12-26T09:01:26.172Z</time>
</trkpt>
<trkpt lat="22.2602475" lon="113.9610911">
<ele>679.148</ele>
<time>2018-12-26T09:01:41.122Z</time>
</trkpt>
<trkpt lat="22.2602788" lon="113.9609976">
<ele>678.990</ele>
<time>2018-12-26T09:01:49.370Z</time>
</trkpt>
<trkpt lat="22.2602761" lon="113.9608945">
<ele>678.247</ele>
<time>2018-12-26T09:01:56.889Z</time>
</trkpt>
<trkpt lat="22.2602053" lon="113.9608220">
<ele>676.996</ele>
<time>2018-12-26T09:02:03.383Z</time>
</trkpt>
<trkpt lat="22.2601686" lon="113.9607281">
<ele>675.478</ele>
<time>2018-12-26T09:02:09.048Z</time>
</trkpt>
<trkpt lat="22.2601477" lon="113.9606264">
<ele>673.967</ele>
<time>2018-12-26T09:02:14.817Z</time>
</trkpt>
<trkpt lat="22.2601013" lon="113.9605408">
<ele>672.664</ele>
<time>2018-12-26T09:02:20.481Z</time>
</trkpt>
<trkpt lat="22.2600275" lon="113.9604828">
<ele>671.451</ele>
<time>2018-12-26T09:02:26.276Z</time>
</trkpt>
<trkpt lat="22.2599731" lon="113.9604038">
<ele>670.284</ele>
<time>2018-12-26T09:02:32.160Z</time>
</trkpt>
<trkpt lat="22.2598984" lon="113.9603326">
<ele>669.165</ele>
<time>2018-12-26T09:02:38.670Z</time>
</trkpt>
<trkpt lat="22.2598271" lon="113.9602556">
<ele>667.452</ele>
<time>2018-12-26T09:02:46.133Z</time>
</trkpt>
<trkpt lat="22.2598340" lon="113.9601523">
<ele>666.517</ele>
<time>2018-12-26T09:02:54.175Z</time>
</trkpt>
<trkpt lat="22.2598692" lon="113.9600601">
<ele>665.612</ele>
<time>2018-12-26T09:03:02.125Z</time>
</trkpt>
<trkpt lat="22.2598511" lon="113.9599612">
<ele>664.181</ele>
<time>2018-12-26T09:03:08.680Z</time>
</trkpt>
<trkpt lat="22.2598768" lon="113.9598612">
<ele>662.372</ele>
<time>2018-12-26T09:03:15.542Z</time>
</trkpt>
<trkpt lat="22.2598751" lon="113.9597523">
<ele>660.491</ele>
<time>2018-12-26T09:03:23.384Z</time>
</trkpt>
<trkpt lat="22.2598858" lon="113.9596491">
<ele>658.886</ele>
<time>2018-12-26T09:03:30.448Z</time>
</trkpt>
<trkpt lat="22.2598837" lon="113.9595516">
<ele>657.646</ele>
<time>2018-12-26T09:03:36.549Z</time>
</trkpt>
<trkpt lat="22.2599020" lon="113.9594532">
<ele>656.572</ele>
<time>2018-12-26T09:03:42.608Z</time>
</trkpt>
<trkpt lat="22.2599289" lon="113.9593557">
<ele>655.398</ele>
<time>2018-12-26T09:03:48.958Z</time>
</trkpt>
<trkpt lat="22.2599814" lon="113.9592758">
<ele>654.077</ele>
<time>2018-12-26T09:03:55.813Z</time>
</trkpt>
<trkpt lat="22.2600219" lon="113.9591830">
<ele>652.720</ele>
<time>2018-12-26T09:04:02.999Z</time>
</trkpt>
<trkpt lat="22.2600219" lon="113.9591830">
<ele>651.584</ele>
<time>2018-12-26T09:04:06.999Z</time>
</trkpt>
<trkpt lat="22.2600219" lon="113.9591830">
<ele>650.920</ele>
<time>2018-12-26T09:04:16.621Z</time>
</trkpt>
<trkpt lat="22.2600263" lon="113.9590578">
<ele>650.713</ele>
<time>2018-12-26T09:04:32.411Z</time>
</trkpt>
<trkpt lat="22.2600495" lon="113.9589618">
<ele>650.671</ele>
<time>2018-12-26T09:04:39.814Z</time>
</trkpt>
<trkpt lat="22.2600638" lon="113.9588575">
<ele>650.202</ele>
<time>2018-12-26T09:04:46.971Z</time>
</trkpt>
<trkpt lat="22.2600663" lon="113.9587519">
<ele>649.236</ele>
<time>2018-12-26T09:04:53.937Z</time>
</trkpt>
<trkpt lat="22.2600697" lon="113.9586467">
<ele>648.240</ele>
<time>2018-12-26T09:05:00.998Z</time>
</trkpt>
<trkpt lat="22.2600697" lon="113.9586467">
<ele>647.632</ele>
<time>2018-12-26T09:05:04.998Z</time>
</trkpt>
<trkpt lat="22.2600697" lon="113.9586467">
<ele>647.321</ele>
<time>2018-12-26T09:05:05.098Z</time>
</trkpt>
<trkpt lat="22.2600697" lon="113.9586467">
<ele>646.912</ele>
<time>2018-12-26T09:05:30.998Z</time>
</trkpt>
<trkpt lat="22.2600697" lon="113.9586467">
<ele>646.774</ele>
<time>2018-12-26T09:05:31.098Z</time>
</trkpt>
<trkpt lat="22.2601435" lon="113.9585262">
<ele>646.555</ele>
<time>2018-12-26T09:05:53.354Z</time>
</trkpt>
<trkpt lat="22.2601778" lon="113.9584320">
<ele>645.323</ele>
<time>2018-12-26T09:06:04.422Z</time>
</trkpt>
<trkpt lat="22.2602441" lon="113.9583580">
<ele>642.246</ele>
<time>2018-12-26T09:06:16.268Z</time>
</trkpt>
<trkpt lat="22.2602789" lon="113.9582646">
<ele>638.286</ele>
<time>2018-12-26T09:06:28.997Z</time>
</trkpt>
<trkpt lat="22.2602789" lon="113.9582646">
<ele>635.190</ele>
<time>2018-12-26T09:06:36.997Z</time>
</trkpt>
<trkpt lat="22.2602789" lon="113.9582646">
<ele>633.717</ele>
<time>2018-12-26T09:07:03.959Z</time>
</trkpt>
<trkpt lat="22.2603609" lon="113.9581860">
<ele>634.041</ele>
<time>2018-12-26T09:07:18.996Z</time>
</trkpt>
<trkpt lat="22.2603609" lon="113.9581860">
<ele>634.225</ele>
<time>2018-12-26T09:07:25.996Z</time>
</trkpt>
<trkpt lat="22.2603609" lon="113.9581860">
<ele>633.949</ele>
<time>2018-12-26T09:07:26.096Z</time>
</trkpt>
<trkpt lat="22.2603965" lon="113.9580763">
<ele>633.531</ele>
<time>2018-12-26T09:07:40.956Z</time>
</trkpt>
<trkpt lat="22.2604316" lon="113.9579861">
<ele>632.218</ele>
<time>2018-12-26T09:07:48.995Z</time>
</trkpt>
<trkpt lat="22.2604316" lon="113.9579861">
<ele>629.355</ele>
<time>2018-12-26T09:07:56.995Z</time>
</trkpt>
<trkpt lat="22.2604316" lon="113.9579861">
<ele>626.928</ele>
<time>2018-12-26T09:07:57.095Z</time>
</trkpt>
<trkpt lat="22.2604844" lon="113.9579052">
<ele>627.675</ele>
<time>2018-12-26T09:08:16.994Z</time>
</trkpt>
<trkpt lat="22.2604844" lon="113.9579052">
<ele>628.226</ele>
<time>2018-12-26T09:08:28.994Z</time>
</trkpt>
<trkpt lat="22.2604844" lon="113.9579052">
<ele>627.936</ele>
<time>2018-12-26T09:08:34.280Z</time>
</trkpt>
<trkpt lat="22.2605287" lon="113.9577710">
<ele>627.330</ele>
<time>2018-12-26T09:08:49.994Z</time>
</trkpt>
<trkpt lat="22.2605287" lon="113.9577710">
<ele>626.908</ele>
<time>2018-12-26T09:08:52.994Z</time>
</trkpt>
<trkpt lat="22.2605287" lon="113.9577710">
<ele>626.618</ele>
<time>2018-12-26T09:09:16.025Z</time>
</trkpt>
<trkpt lat="22.2606360" lon="113.9576981">
<ele>626.364</ele>
<time>2018-12-26T09:09:58.023Z</time>
</trkpt>
<trkpt lat="22.2607255" lon="113.9576819">
<ele>623.783</ele>
<time>2018-12-26T09:10:09.428Z</time>
</trkpt>
<trkpt lat="22.2607952" lon="113.9576206">
<ele>617.254</ele>
<time>2018-12-26T09:10:19.992Z</time>
</trkpt>
<trkpt lat="22.2607952" lon="113.9576206">
<ele>610.317</ele>
<time>2018-12-26T09:10:26.998Z</time>
</trkpt>
<trkpt lat="22.2607952" lon="113.9576206">
<ele>607.083</ele>
<time>2018-12-26T09:10:57.954Z</time>
</trkpt>
<trkpt lat="22.2608695" lon="113.9574492">
<ele>607.201</ele>
<time>2018-12-26T09:11:34.998Z</time>
</trkpt>
<trkpt lat="22.2608695" lon="113.9574492">
<ele>608.091</ele>
<time>2018-12-26T09:11:44.998Z</time>
</trkpt>
<trkpt lat="22.2608695" lon="113.9574492">
<ele>607.928</ele>
<time>2018-12-26T09:11:53.392Z</time>
</trkpt>
<trkpt lat="22.2608939" lon="113.9573389">
<ele>607.005</ele>
<time>2018-12-26T09:12:27.088Z</time>
</trkpt>
<trkpt lat="22.2609281" lon="113.9572465">
<ele>605.015</ele>
<time>2018-12-26T09:12:37.161Z</time>
</trkpt>
<trkpt lat="22.2609952" lon="113.9571728">
<ele>599.569</ele>
<time>2018-12-26T09:12:49.981Z</time>
</trkpt>
<trkpt lat="22.2610240" lon="113.9570760">
<ele>593.706</ele>
<time>2018-12-26T09:13:07.493Z</time>
</trkpt>
<trkpt lat="22.2610403" lon="113.9569684">
<ele>590.147</ele>
<time>2018-12-26T09:13:23.996Z</time>
</trkpt>
<trkpt lat="22.2610403" lon="113.9569684">
<ele>588.146</ele>
<time>2018-12-26T09:13:38.995Z</time>
</trkpt>
<trkpt lat="22.2610403" lon="113.9569684">
<ele>587.168</ele>
<time>2018-12-26T09:13:39.095Z</time>
</trkpt>
<trkpt lat="22.2610609" lon="113.9568122">
<ele>587.034</ele>
<time>2018-12-26T09:14:18.227Z</time>
</trkpt>
<trkpt lat="22.2611144" lon="113.9567314">
<ele>586.540</ele>
<time>2018-12-26T09:14:31.033Z</time>
</trkpt>
<trkpt lat="22.2611494" lon="113.9566407">
<ele>584.183</ele>
<time>2018-12-26T09:14:40.552Z</time>
</trkpt>
<trkpt lat="22.2611703" lon="113.9565392">
<ele>580.160</ele>
<time>2018-12-26T09:14:49.994Z</time>
</trkpt>
<trkpt lat="22.2611703" lon="113.9565392">
<ele>576.477</ele>
<time>2018-12-26T09:14:57.994Z</time>
</trkpt>
<trkpt lat="22.2611703" lon="113.9565392">
<ele>574.680</ele>
<time>2018-12-26T09:14:58.094Z</time>
</trkpt>
<trkpt lat="22.2612206" lon="113.9564191">
<ele>574.634</ele>
<time>2018-12-26T09:15:05.993Z</time>
</trkpt>
<trkpt lat="22.2612206" lon="113.9564191">
<ele>574.995</ele>
<time>2018-12-26T09:15:08.993Z</time>
</trkpt>
<trkpt lat="22.2612206" lon="113.9564191">
<ele>574.808</ele>
<time>2018-12-26T09:15:09.093Z</time>
</trkpt>
<trkpt lat="22.2612234" lon="113.9562087">
<ele>574.309</ele>
<time>2018-12-26T09:15:35.993Z</time>
</trkpt>
<trkpt lat="22.2612234" lon="113.9562087">
<ele>573.943</ele>
<time>2018-12-26T09:15:52.992Z</time>
</trkpt>
<trkpt lat="22.2612234" lon="113.9562087">
<ele>573.676</ele>
<time>2018-12-26T09:15:53.092Z</time>
</trkpt>
<trkpt lat="22.2611675" lon="113.9560366">
<ele>573.441</ele>
<time>2018-12-26T09:17:37.996Z</time>
</trkpt>
<trkpt lat="22.2611675" lon="113.9560366">
<ele>573.220</ele>
<time>2018-12-26T09:17:50.998Z</time>
</trkpt>
<trkpt lat="22.2611675" lon="113.9560366">
<ele>572.962</ele>
<time>2018-12-26T09:17:53.193Z</time>
</trkpt>
<trkpt lat="22.2612646" lon="113.9559465">
<ele>572.705</ele>
<time>2018-12-26T09:18:06.999Z</time>
</trkpt>
<trkpt lat="22.2612646" lon="113.9559465">
<ele>572.484</ele>
<time>2018-12-26T09:18:07.999Z</time>
</trkpt>
<trkpt lat="22.2612646" lon="113.9559465">
<ele>572.228</ele>
<time>2018-12-26T09:18:10.563Z</time>
</trkpt>
<trkpt lat="22.2613303" lon="113.9558621">
<ele>571.971</ele>
<time>2018-12-26T09:18:27.701Z</time>
</trkpt>
<trkpt lat="22.2614038" lon="113.9557897">
<ele>569.642</ele>
<time>2018-12-26T09:18:38.763Z</time>
</trkpt>
<trkpt lat="22.2614487" lon="113.9556958">
<ele>563.461</ele>
<time>2018-12-26T09:18:48.372Z</time>
</trkpt>
<trkpt lat="22.2614667" lon="113.9555871">
<ele>556.095</ele>
<time>2018-12-26T09:18:58.408Z</time>
</trkpt>
<trkpt lat="22.2615178" lon="113.9555033">
<ele>551.099</ele>
<time>2018-12-26T09:19:09.120Z</time>
</trkpt>
<trkpt lat="22.2615958" lon="113.9554459">
<ele>548.546</ele>
<time>2018-12-26T09:19:22.059Z</time>
</trkpt>
<trkpt lat="22.2616085" lon="113.9553478">
<ele>546.852</ele>
<time>2018-12-26T09:19:34.787Z</time>
</trkpt>
<trkpt lat="22.2616287" lon="113.9552456">
<ele>544.846</ele>
<time>2018-12-26T09:19:47.952Z</time>
</trkpt>
<trkpt lat="22.2616594" lon="113.9551529">
<ele>542.491</ele>
<time>2018-12-26T09:19:58.899Z</time>
</trkpt>
<trkpt lat="22.2616608" lon="113.9550551">
<ele>540.109</ele>
<time>2018-12-26T09:20:09.332Z</time>
</trkpt>
<trkpt lat="22.2617198" lon="113.9549750">
<ele>537.998</ele>
<time>2018-12-26T09:20:20.799Z</time>
</trkpt>
<trkpt lat="22.2617953" lon="113.9549224">
<ele>536.338</ele>
<time>2018-12-26T09:20:32.290Z</time>
</trkpt>
<trkpt lat="22.2618858" lon="113.9548809">
<ele>534.863</ele>
<time>2018-12-26T09:20:45.181Z</time>
</trkpt>
<trkpt lat="22.2619560" lon="113.9548147">
<ele>532.907</ele>
<time>2018-12-26T09:20:57.072Z</time>
</trkpt>
<trkpt lat="22.2620506" lon="113.9547786">
<ele>530.322</ele>
<time>2018-12-26T09:21:08.143Z</time>
</trkpt>
<trkpt lat="22.2621316" lon="113.9547192">
<ele>527.722</ele>
<time>2018-12-26T09:21:17.376Z</time>
</trkpt>
<trkpt lat="22.2622083" lon="113.9546644">
<ele>525.434</ele>
<time>2018-12-26T09:21:25.766Z</time>
</trkpt>
<trkpt lat="22.2622387" lon="113.9545697">
<ele>523.435</ele>
<time>2018-12-26T09:21:34.576Z</time>
</trkpt>
<trkpt lat="22.2622018" lon="113.9544804">
<ele>521.933</ele>
<time>2018-12-26T09:21:43.487Z</time>
</trkpt>
<trkpt lat="22.2621757" lon="113.9543824">
<ele>520.779</ele>
<time>2018-12-26T09:21:53.989Z</time>
</trkpt>
<trkpt lat="22.2622559" lon="113.9543356">
<ele>519.399</ele>
<time>2018-12-26T09:22:06.908Z</time>
</trkpt>
<trkpt lat="22.2623074" lon="113.9542529">
<ele>517.542</ele>
<time>2018-12-26T09:22:20.478Z</time>
</trkpt>
<trkpt lat="22.2623951" lon="113.9542164">
<ele>515.604</ele>
<time>2018-12-26T09:22:32.883Z</time>
</trkpt>
<trkpt lat="22.2624892" lon="113.9542211">
<ele>513.936</ele>
<time>2018-12-26T09:22:43.588Z</time>
</trkpt>
<trkpt lat="22.2625875" lon="113.9542083">
<ele>512.533</ele>
<time>2018-12-26T09:22:52.229Z</time>
</trkpt>
<trkpt lat="22.2626773" lon="113.9541774">
<ele>511.276</ele>
<time>2018-12-26T09:22:59.511Z</time>
</trkpt>
<trkpt lat="22.2627597" lon="113.9541325">
<ele>510.183</ele>
<time>2018-12-26T09:23:06.532Z</time>
</trkpt>
<trkpt lat="22.2628238" lon="113.9540621">
<ele>509.178</ele>
<time>2018-12-26T09:23:14.440Z</time>
</trkpt>
<trkpt lat="22.2629116" lon="113.9540349">
<ele>508.122</ele>
<time>2018-12-26T09:23:23.452Z</time>
</trkpt>
<trkpt lat="22.2630083" lon="113.9540527">
<ele>506.765</ele>
<time>2018-12-26T09:23:37.263Z</time>
</trkpt>
<trkpt lat="22.2631034" lon="113.9540447">
<ele>504.670</ele>
<time>2018-12-26T09:23:48.674Z</time>
</trkpt>
<trkpt lat="22.2631912" lon="113.9540139">
<ele>501.981</ele>
<time>2018-12-26T09:23:57.944Z</time>
</trkpt>
<trkpt lat="22.2632511" lon="113.9539264">
<ele>499.646</ele>
<time>2018-12-26T09:24:08.099Z</time>
</trkpt>
<trkpt lat="22.2632979" lon="113.9538421">
<ele>498.008</ele>
<time>2018-12-26T09:24:17.261Z</time>
</trkpt>
<trkpt lat="22.2633872" lon="113.9538148">
<ele>496.725</ele>
<time>2018-12-26T09:24:27.539Z</time>
</trkpt>
<trkpt lat="22.2634793" lon="113.9538403">
<ele>495.455</ele>
<time>2018-12-26T09:24:39.344Z</time>
</trkpt>
<trkpt lat="22.2635719" lon="113.9538268">
<ele>493.764</ele>
<time>2018-12-26T09:24:49.089Z</time>
</trkpt>
<trkpt lat="22.2636460" lon="113.9537663">
<ele>491.657</ele>
<time>2018-12-26T09:24:59.335Z</time>
</trkpt>
<trkpt lat="22.2637312" lon="113.9537220">
<ele>489.525</ele>
<time>2018-12-26T09:25:11.998Z</time>
</trkpt>
<trkpt lat="22.2637312" lon="113.9537220">
<ele>487.718</ele>
<time>2018-12-26T09:25:13.999Z</time>
</trkpt>
<trkpt lat="22.2637312" lon="113.9537220">
<ele>486.690</ele>
<time>2018-12-26T09:25:14.099Z</time>
</trkpt>
<trkpt lat="22.2638198" lon="113.9536862">
<ele>486.849</ele>
<time>2018-12-26T09:25:30.948Z</time>
</trkpt>
<trkpt lat="22.2639153" lon="113.9536715">
<ele>486.408</ele>
<time>2018-12-26T09:25:41.078Z</time>
</trkpt>
<trkpt lat="22.2639714" lon="113.9535897">
<ele>484.437</ele>
<time>2018-12-26T09:25:50.154Z</time>
</trkpt>
<trkpt lat="22.2640678" lon="113.9535803">
<ele>481.719</ele>
<time>2018-12-26T09:25:59.832Z</time>
</trkpt>
<trkpt lat="22.2641592" lon="113.9535519">
<ele>479.470</ele>
<time>2018-12-26T09:26:09.779Z</time>
</trkpt>
<trkpt lat="22.2642491" lon="113.9535358">
<ele>477.792</ele>
<time>2018-12-26T09:26:19.276Z</time>
</trkpt>
<trkpt lat="22.2643383" lon="113.9535156">
<ele>476.324</ele>
<time>2018-12-26T09:26:28.149Z</time>
</trkpt>
<trkpt lat="22.2644242" lon="113.9534715">
<ele>474.871</ele>
<time>2018-12-26T09:26:36.752Z</time>
</trkpt>
<trkpt lat="22.2644812" lon="113.9533873">
<ele>473.436</ele>
<time>2018-12-26T09:26:45.610Z</time>
</trkpt>
<trkpt lat="22.2645612" lon="113.9533234">
<ele>471.973</ele>
<time>2018-12-26T09:26:54.297Z</time>
</trkpt>
<trkpt lat="22.2646565" lon="113.9533087">
<ele>470.384</ele>
<time>2018-12-26T09:27:02.035Z</time>
</trkpt>
<trkpt lat="22.2647437" lon="113.9532679">
<ele>468.779</ele>
<time>2018-12-26T09:27:10.127Z</time>
</trkpt>
<trkpt lat="22.2648204" lon="113.9531994">
<ele>467.250</ele>
<time>2018-12-26T09:27:18.996Z</time>
</trkpt>
<trkpt lat="22.2648204" lon="113.9531994">
<ele>465.904</ele>
<time>2018-12-26T09:27:28.996Z</time>
</trkpt>
<trkpt lat="22.2648204" lon="113.9531994">
<ele>465.109</ele>
<time>2018-12-26T09:29:31.994Z</time>
</trkpt>
<trkpt lat="22.2649490" lon="113.9530916">
<ele>464.976</ele>
<time>2018-12-26T09:29:53.514Z</time>
</trkpt>
<trkpt lat="22.2650288" lon="113.9530246">
<ele>463.664</ele>
<time>2018-12-26T09:30:00.834Z</time>
</trkpt>
<trkpt lat="22.2651114" lon="113.9529623">
<ele>455.565</ele>
<time>2018-12-26T09:30:05.506Z</time>
</trkpt>
<trkpt lat="22.2651924" lon="113.9529202">
<ele>451.889</ele>
<time>2018-12-26T09:30:09.390Z</time>
</trkpt>
<trkpt lat="22.2652805" lon="113.9528577">
<ele>448.791</ele>
<time>2018-12-26T09:30:14.553Z</time>
</trkpt>
<trkpt lat="22.2653503" lon="113.9527897">
<ele>445.541</ele>
<time>2018-12-26T09:30:20.479Z</time>
</trkpt>
<trkpt lat="22.2654215" lon="113.9527236">
<ele>444.896</ele>
<time>2018-12-26T09:30:27.426Z</time>
</trkpt>
<trkpt lat="22.2655218" lon="113.9526904">
<ele>444.456</ele>
<time>2018-12-26T09:30:35.918Z</time>
</trkpt>
<trkpt lat="22.2656121" lon="113.9527043">
<ele>444.141</ele>
<time>2018-12-26T09:30:42.296Z</time>
</trkpt>
<trkpt lat="22.2657028" lon="113.9527399">
<ele>443.903</ele>
<time>2018-12-26T09:30:48.876Z</time>
</trkpt>
<trkpt lat="22.2657779" lon="113.9528058">
<ele>443.741</ele>
<time>2018-12-26T09:30:55.906Z</time>
</trkpt>
<trkpt lat="22.2658432" lon="113.9528798">
<ele>443.482</ele>
<time>2018-12-26T09:31:03.993Z</time>
</trkpt>
<trkpt lat="22.2658432" lon="113.9528798">
<ele>443.078</ele>
<time>2018-12-26T09:31:14.993Z</time>
</trkpt>
<trkpt lat="22.2658432" lon="113.9528798">
<ele>442.721</ele>
<time>2018-12-26T09:31:51.401Z</time>
</trkpt>
<trkpt lat="22.2657857" lon="113.9527829">
<ele>442.510</ele>
<time>2018-12-26T09:32:09.222Z</time>
</trkpt>
<trkpt lat="22.2658732" lon="113.9527576">
<ele>442.432</ele>
<time>2018-12-26T09:32:19.484Z</time>
</trkpt>
<trkpt lat="22.2659686" lon="113.9527420">
<ele>441.943</ele>
<time>2018-12-26T09:32:32.669Z</time>
</trkpt>
<trkpt lat="22.2660368" lon="113.9526681">
<ele>440.483</ele>
<time>2018-12-26T09:32:47.919Z</time>
</trkpt>
<trkpt lat="22.2661260" lon="113.9526422">
<ele>437.257</ele>
<time>2018-12-26T09:33:07.988Z</time>
</trkpt>
<trkpt lat="22.2662178" lon="113.9526335">
<ele>432.127</ele>
<time>2018-12-26T09:33:26.321Z</time>
</trkpt>
<trkpt lat="22.2663088" lon="113.9526450">
<ele>426.281</ele>
<time>2018-12-26T09:33:42.744Z</time>
</trkpt>
<trkpt lat="22.2663995" lon="113.9526557">
<ele>421.041</ele>
<time>2018-12-26T09:33:58.311Z</time>
</trkpt>
<trkpt lat="22.2664866" lon="113.9526873">
<ele>416.629</ele>
<time>2018-12-26T09:34:15.496Z</time>
</trkpt>
<trkpt lat="22.2665779" lon="113.9527137">
<ele>412.673</ele>
<time>2018-12-26T09:34:33.312Z</time>
</trkpt>
<trkpt lat="22.2666702" lon="113.9527536">
<ele>408.918</ele>
<time>2018-12-26T09:34:49.472Z</time>
</trkpt>
<trkpt lat="22.2667689" lon="113.9527661">
<ele>405.747</ele>
<time>2018-12-26T09:34:59.991Z</time>
</trkpt>
<trkpt lat="22.2668646" lon="113.9527670">
<ele>403.577</ele>
<time>2018-12-26T09:35:09.483Z</time>
</trkpt>
<trkpt lat="22.2669583" lon="113.9527867">
<ele>401.741</ele>
<time>2018-12-26T09:35:22.139Z</time>
</trkpt>
<trkpt lat="22.2670467" lon="113.9527525">
<ele>399.016</ele>
<time>2018-12-26T09:35:35.122Z</time>
</trkpt>
<trkpt lat="22.2671382" lon="113.9527576">
<ele>395.067</ele>
<time>2018-12-26T09:35:49.475Z</time>
</trkpt>
<trkpt lat="22.2672371" lon="113.9527868">
<ele>390.362</ele>
<time>2018-12-26T09:36:06.546Z</time>
</trkpt>
<trkpt lat="22.2673255" lon="113.9527544">
<ele>385.581</ele>
<time>2018-12-26T09:36:17.400Z</time>
</trkpt>
<trkpt lat="22.2674200" lon="113.9527767">
<ele>381.479</ele>
<time>2018-12-26T09:36:25.597Z</time>
</trkpt>
<trkpt lat="22.2674995" lon="113.9528340">
<ele>378.774</ele>
<time>2018-12-26T09:36:33.880Z</time>
</trkpt>
<trkpt lat="22.2675754" lon="113.9529002">
<ele>377.642</ele>
<time>2018-12-26T09:36:42.993Z</time>
</trkpt>
<trkpt lat="22.2675754" lon="113.9529002">
<ele>377.434</ele>
<time>2018-12-26T09:36:46.993Z</time>
</trkpt>
<trkpt lat="22.2675754" lon="113.9529002">
<ele>377.345</ele>
<time>2018-12-26T09:36:53.439Z</time>
</trkpt>
<trkpt lat="22.2676797" lon="113.9529681">
<ele>377.025</ele>
<time>2018-12-26T09:37:08.148Z</time>
</trkpt>
<trkpt lat="22.2677507" lon="113.9530505">
<ele>376.490</ele>
<time>2018-12-26T09:37:14.760Z</time>
</trkpt>
<trkpt lat="22.2678317" lon="113.9531089">
<ele>374.995</ele>
<time>2018-12-26T09:37:19.993Z</time>
</trkpt>
<trkpt lat="22.2678317" lon="113.9531089">
<ele>373.095</ele>
<time>2018-12-26T09:37:23.992Z</time>
</trkpt>
<trkpt lat="22.2678317" lon="113.9531089">
<ele>371.974</ele>
<time>2018-12-26T09:37:27.287Z</time>
</trkpt>
<trkpt lat="22.2679181" lon="113.9531556">
<ele>371.900</ele>
<time>2018-12-26T09:37:43.850Z</time>
</trkpt>
<trkpt lat="22.2679890" lon="113.9532188">
<ele>371.666</ele>
<time>2018-12-26T09:37:52.204Z</time>
</trkpt>
<trkpt lat="22.2680869" lon="113.9532277">
<ele>369.958</ele>
<time>2018-12-26T09:37:58.623Z</time>
</trkpt>
<trkpt lat="22.2681878" lon="113.9532248">
<ele>367.162</ele>
<time>2018-12-26T09:38:04.514Z</time>
</trkpt>
<trkpt lat="22.2682809" lon="113.9532075">
<ele>364.611</ele>
<time>2018-12-26T09:38:09.991Z</time>
</trkpt>
<trkpt lat="22.2682809" lon="113.9532075">
<ele>363.020</ele>
<time>2018-12-26T09:38:15.991Z</time>
</trkpt>
<trkpt lat="22.2682809" lon="113.9532075">
<ele>362.395</ele>
<time>2018-12-26T09:38:16.091Z</time>
</trkpt>
<trkpt lat="22.2683728" lon="113.9531938">
<ele>362.345</ele>
<time>2018-12-26T09:38:53.971Z</time>
</trkpt>
<trkpt lat="22.2684604" lon="113.9531598">
<ele>361.715</ele>
<time>2018-12-26T09:39:17.329Z</time>
</trkpt>
<trkpt lat="22.2685513" lon="113.9531421">
<ele>358.675</ele>
<time>2018-12-26T09:39:36.049Z</time>
</trkpt>
<trkpt lat="22.2686355" lon="113.9531060">
<ele>352.971</ele>
<time>2018-12-26T09:39:53.999Z</time>
</trkpt>
<trkpt lat="22.2686355" lon="113.9531060">
<ele>347.161</ele>
<time>2018-12-26T09:39:58.999Z</time>
</trkpt>
<trkpt lat="22.2686355" lon="113.9531060">
<ele>344.165</ele>
<time>2018-12-26T09:40:14.998Z</time>
</trkpt>
<trkpt lat="22.2686355" lon="113.9531060">
<ele>344.300</ele>
<time>2018-12-26T09:40:15.098Z</time>
</trkpt>
<trkpt lat="22.2687814" lon="113.9530862">
<ele>345.236</ele>
<time>2018-12-26T09:41:16.426Z</time>
</trkpt>
<trkpt lat="22.2688663" lon="113.9530543">
<ele>342.689</ele>
<time>2018-12-26T09:41:41.834Z</time>
</trkpt>
<trkpt lat="22.2689562" lon="113.9530278">
<ele>334.251</ele>
<time>2018-12-26T09:42:02.996Z</time>
</trkpt>
<trkpt lat="22.2689562" lon="113.9530278">
<ele>323.753</ele>
<time>2018-12-26T09:42:06.996Z</time>
</trkpt>
<trkpt lat="22.2689562" lon="113.9530278">
<ele>317.889</ele>
<time>2018-12-26T09:42:07.096Z</time>
</trkpt>
<trkpt lat="22.2690534" lon="113.9529973">
<ele>318.208</ele>
<time>2018-12-26T09:42:55.147Z</time>
</trkpt>
<trkpt lat="22.2691408" lon="113.9529726">
<ele>318.563</ele>
<time>2018-12-26T09:43:06.916Z</time>
</trkpt>
<trkpt lat="22.2692261" lon="113.9529375">
<ele>313.593</ele>
<time>2018-12-26T09:43:16.211Z</time>
</trkpt>
<trkpt lat="22.2693075" lon="113.9528856">
<ele>305.553</ele>
<time>2018-12-26T09:43:23.234Z</time>
</trkpt>
<trkpt lat="22.2693987" lon="113.9528733">
<ele>298.593</ele>
<time>2018-12-26T09:43:29.982Z</time>
</trkpt>
<trkpt lat="22.2694847" lon="113.9528305">
<ele>293.867</ele>
<time>2018-12-26T09:43:38.304Z</time>
</trkpt>
<trkpt lat="22.2695728" lon="113.9528105">
<ele>290.713</ele>
<time>2018-12-26T09:43:47.281Z</time>
</trkpt>
<trkpt lat="22.2696273" lon="113.9527231">
<ele>285.697</ele>
<time>2018-12-26T09:43:58.266Z</time>
</trkpt>
<trkpt lat="22.2696918" lon="113.9526500">
<ele>282.375</ele>
<time>2018-12-26T09:44:08.993Z</time>
</trkpt>
<trkpt lat="22.2696918" lon="113.9526500">
<ele>280.759</ele>
<time>2018-12-26T09:44:10.993Z</time>
</trkpt>
<trkpt lat="22.2696918" lon="113.9526500">
<ele>279.973</ele>
<time>2018-12-26T09:44:39.553Z</time>
</trkpt>
<trkpt lat="22.2697166" lon="113.9525483">
<ele>280.405</ele>
<time>2018-12-26T09:45:50.568Z</time>
</trkpt>
<trkpt lat="22.2697314" lon="113.9524474">
<ele>278.453</ele>
<time>2018-12-26T09:46:38.592Z</time>
</trkpt>
<trkpt lat="22.2698264" lon="113.9524385">
<ele>272.551</ele>
<time>2018-12-26T09:46:59.961Z</time>
</trkpt>
<trkpt lat="22.2699141" lon="113.9524062">
<ele>264.473</ele>
<time>2018-12-26T09:47:19.999Z</time>
</trkpt>
<trkpt lat="22.2699141" lon="113.9524062">
<ele>257.608</ele>
<time>2018-12-26T09:47:35.998Z</time>
</trkpt>
<trkpt lat="22.2699141" lon="113.9524062">
<ele>254.209</ele>
<time>2018-12-26T09:47:36.098Z</time>
</trkpt>
<trkpt lat="22.2699912" lon="113.9522914">
<ele>254.443</ele>
<time>2018-12-26T09:47:54.998Z</time>
</trkpt>
<trkpt lat="22.2699912" lon="113.9522914">
<ele>255.602</ele>
<time>2018-12-26T09:48:05.998Z</time>
</trkpt>
<trkpt lat="22.2699912" lon="113.9522914">
<ele>255.596</ele>
<time>2018-12-26T09:48:06.098Z</time>
</trkpt>
<trkpt lat="22.2700255" lon="113.9521912">
<ele>254.822</ele>
<time>2018-12-26T09:48:31.115Z</time>
</trkpt>
<trkpt lat="22.2700717" lon="113.9520997">
<ele>252.020</ele>
<time>2018-12-26T09:48:44.997Z</time>
</trkpt>
<trkpt lat="22.2700717" lon="113.9520997">
<ele>244.375</ele>
<time>2018-12-26T09:48:48.997Z</time>
</trkpt>
<trkpt lat="22.2700717" lon="113.9520997">
<ele>237.872</ele>
<time>2018-12-26T09:48:55.817Z</time>
</trkpt>
<trkpt lat="22.2701570" lon="113.9520423">
<ele>241.188</ele>
<time>2018-12-26T09:49:12.996Z</time>
</trkpt>
<trkpt lat="22.2701570" lon="113.9520423">
<ele>243.241</ele>
<time>2018-12-26T09:49:21.996Z</time>
</trkpt>
<trkpt lat="22.2701570" lon="113.9520423">
<ele>243.024</ele>
<time>2018-12-26T09:49:39.051Z</time>
</trkpt>
<trkpt lat="22.2701482" lon="113.9519457">
<ele>242.026</ele>
<time>2018-12-26T09:50:21.557Z</time>
</trkpt>
<trkpt lat="22.2700980" lon="113.9518633">
<ele>238.872</ele>
<time>2018-12-26T09:50:43.994Z</time>
</trkpt>
<trkpt lat="22.2700980" lon="113.9518633">
<ele>222.036</ele>
<time>2018-12-26T09:50:53.994Z</time>
</trkpt>
<trkpt lat="22.2700980" lon="113.9518633">
<ele>222.052</ele>
<time>2018-12-26T09:50:54.094Z</time>
</trkpt>
<trkpt lat="22.2701622" lon="113.9517838">
<ele>225.180</ele>
<time>2018-12-26T09:51:29.441Z</time>
</trkpt>
<trkpt lat="22.2702324" lon="113.9517171">
<ele>220.876</ele>
<time>2018-12-26T09:51:45.992Z</time>
</trkpt>
<trkpt lat="22.2702324" lon="113.9517171">
<ele>212.857</ele>
<time>2018-12-26T09:51:47.992Z</time>
</trkpt>
<trkpt lat="22.2702324" lon="113.9517171">
<ele>206.785</ele>
<time>2018-12-26T09:52:02.992Z</time>
</trkpt>
<trkpt lat="22.2702324" lon="113.9517171">
<ele>206.879</ele>
<time>2018-12-26T09:52:05.732Z</time>
</trkpt>
<trkpt lat="22.2702963" lon="113.9516344">
<ele>209.228</ele>
<time>2018-12-26T09:52:17.992Z</time>
</trkpt>
<trkpt lat="22.2702963" lon="113.9516344">
<ele>207.829</ele>
<time>2018-12-26T09:52:17.992Z</time>
</trkpt>
<trkpt lat="22.2702963" lon="113.9516344">
<ele>206.892</ele>
<time>2018-12-26T09:52:18.092Z</time>
</trkpt>
<trkpt lat="22.2702963" lon="113.9516344">
<ele>207.234</ele>
<time>2018-12-26T09:52:46.991Z</time>
</trkpt>
<trkpt lat="22.2702963" lon="113.9516344">
<ele>207.451</ele>
<time>2018-12-26T09:52:59.180Z</time>
</trkpt>
<trkpt lat="22.2703965" lon="113.9515368">
<ele>207.299</ele>
<time>2018-12-26T09:53:09.990Z</time>
</trkpt>
<trkpt lat="22.2703965" lon="113.9515368">
<ele>206.997</ele>
<time>2018-12-26T09:53:18.990Z</time>
</trkpt>
<trkpt lat="22.2703965" lon="113.9515368">
<ele>206.825</ele>
<time>2018-12-26T09:54:35.600Z</time>
</trkpt>
<trkpt lat="22.2705374" lon="113.9515343">
<ele>206.773</ele>
<time>2018-12-26T09:54:53.428Z</time>
</trkpt>
<trkpt lat="22.2706345" lon="113.9515283">
<ele>202.400</ele>
<time>2018-12-26T09:55:00.970Z</time>
</trkpt>
<trkpt lat="22.2707002" lon="113.9514534">
<ele>190.090</ele>
<time>2018-12-26T09:55:07.998Z</time>
</trkpt>
<trkpt lat="22.2707002" lon="113.9514534">
<ele>175.918</ele>
<time>2018-12-26T09:55:09.998Z</time>
</trkpt>
<trkpt lat="22.2707002" lon="113.9514534">
<ele>168.825</ele>
<time>2018-12-26T09:55:10.098Z</time>
</trkpt>
<trkpt lat="22.2707573" lon="113.9513783">
<ele>169.443</ele>
<time>2018-12-26T09:56:12.996Z</time>
</trkpt>
<trkpt lat="22.2707573" lon="113.9513783">
<ele>172.068</ele>
<time>2018-12-26T09:56:15.996Z</time>
</trkpt>
<trkpt lat="22.2707573" lon="113.9513783">
<ele>172.207</ele>
<time>2018-12-26T09:56:23.990Z</time>
</trkpt>
<trkpt lat="22.2708471" lon="113.9512958">
<ele>170.781</ele>
<time>2018-12-26T09:56:32.996Z</time>
</trkpt>
<trkpt lat="22.2708471" lon="113.9512958">
<ele>171.112</ele>
<time>2018-12-26T09:56:43.996Z</time>
</trkpt>
<trkpt lat="22.2708471" lon="113.9512958">
<ele>171.103</ele>
<time>2018-12-26T09:56:45.339Z</time>
</trkpt>
<trkpt lat="22.2709698" lon="113.9512374">
<ele>170.824</ele>
<time>2018-12-26T09:57:07.453Z</time>
</trkpt>
<trkpt lat="22.2710419" lon="113.9511608">
<ele>167.301</ele>
<time>2018-12-26T09:57:18.995Z</time>
</trkpt>
<trkpt lat="22.2710419" lon="113.9511608">
<ele>151.355</ele>
<time>2018-12-26T09:57:25.995Z</time>
</trkpt>
<trkpt lat="22.2710419" lon="113.9511608">
<ele>151.421</ele>
<time>2018-12-26T09:57:26.095Z</time>
</trkpt>
<trkpt lat="22.2711438" lon="113.9511384">
<ele>154.163</ele>
<time>2018-12-26T09:57:36.994Z</time>
</trkpt>
<trkpt lat="22.2711438" lon="113.9511384">
<ele>154.354</ele>
<time>2018-12-26T09:57:52.994Z</time>
</trkpt>
<trkpt lat="22.2711438" lon="113.9511384">
<ele>153.106</ele>
<time>2018-12-26T09:57:53.094Z</time>
</trkpt>
<trkpt lat="22.2712223" lon="113.9510752">
<ele>152.831</ele>
<time>2018-12-26T09:58:22.076Z</time>
</trkpt>
<trkpt lat="22.2713157" lon="113.9510438">
<ele>150.122</ele>
<time>2018-12-26T09:58:33.974Z</time>
</trkpt>
<trkpt lat="22.2714107" lon="113.9510452">
<ele>141.589</ele>
<time>2018-12-26T09:58:44.838Z</time>
</trkpt>
<trkpt lat="22.2715014" lon="113.9510305">
<ele>131.213</ele>
<time>2018-12-26T09:58:56.376Z</time>
</trkpt>
<trkpt lat="22.2715918" lon="113.9510396">
<ele>123.779</ele>
<time>2018-12-26T09:59:09.550Z</time>
</trkpt>
<trkpt lat="22.2716786" lon="113.9510079">
<ele>118.757</ele>
<time>2018-12-26T09:59:25.531Z</time>
</trkpt>
<trkpt lat="22.2717682" lon="113.9510278">
<ele>114.339</ele>
<time>2018-12-26T09:59:41.991Z</time>
</trkpt>
<trkpt lat="22.2717682" lon="113.9510278">
<ele>110.265</ele>
<time>2018-12-26T09:59:55.991Z</time>
</trkpt>
<trkpt lat="22.2717682" lon="113.9510278">
<ele>108.013</ele>
<time>2018-12-26T10:00:06.991Z</time>
</trkpt>
<trkpt lat="22.2717682" lon="113.9510278">
<ele>108.145</ele>
<time>2018-12-26T10:00:07.091Z</time>
</trkpt>
<trkpt lat="22.2719291" lon="113.9510182">
<ele>108.934</ele>
<time>2018-12-26T10:00:29.777Z</time>
</trkpt>
<trkpt lat="22.2719988" lon="113.9509539">
<ele>107.042</ele>
<time>2018-12-26T10:00:40.990Z</time>
</trkpt>
<trkpt lat="22.2719988" lon="113.9509539">
<ele>101.617</ele>
<time>2018-12-26T10:00:50.990Z</time>
</trkpt>
<trkpt lat="22.2719988" lon="113.9509539">
<ele>97.192</ele>
<time>2018-12-26T10:00:58.444Z</time>
</trkpt>
<trkpt lat="22.2720222" lon="113.9508459">
<ele>99.524</ele>
<time>2018-12-26T10:01:16.344Z</time>
</trkpt>
<trkpt lat="22.2719771" lon="113.9507606">
<ele>99.402</ele>
<time>2018-12-26T10:01:26.483Z</time>
</trkpt>
<trkpt lat="22.2719282" lon="113.9506702">
<ele>95.272</ele>
<time>2018-12-26T10:01:35.923Z</time>
</trkpt>
<trkpt lat="22.2718785" lon="113.9505846">
<ele>90.311</ele>
<time>2018-12-26T10:01:44.732Z</time>
</trkpt>
<trkpt lat="22.2718256" lon="113.9505055">
<ele>87.587</ele>
<time>2018-12-26T10:01:53.131Z</time>
</trkpt>
<trkpt lat="22.2717596" lon="113.9504365">
<ele>86.720</ele>
<time>2018-12-26T10:02:01.428Z</time>
</trkpt>
<trkpt lat="22.2717232" lon="113.9503414">
<ele>86.671</ele>
<time>2018-12-26T10:02:10.095Z</time>
</trkpt>
<trkpt lat="22.2716659" lon="113.9502634">
<ele>86.770</ele>
<time>2018-12-26T10:02:18.386Z</time>
</trkpt>
<trkpt lat="22.2716025" lon="113.9501880">
<ele>86.694</ele>
<time>2018-12-26T10:02:26.511Z</time>
</trkpt>
<trkpt lat="22.2715542" lon="113.9500993">
<ele>86.405</ele>
<time>2018-12-26T10:02:34.640Z</time>
</trkpt>
<trkpt lat="22.2715106" lon="113.9500048">
<ele>86.052</ele>
<time>2018-12-26T10:02:43.019Z</time>
</trkpt>
<trkpt lat="22.2714908" lon="113.9499016">
<ele>85.654</ele>
<time>2018-12-26T10:02:51.170Z</time>
</trkpt>
<trkpt lat="22.2714547" lon="113.9497996">
<ele>85.172</ele>
<time>2018-12-26T10:02:59.148Z</time>
</trkpt>
<trkpt lat="22.2714137" lon="113.9497125">
<ele>84.752</ele>
<time>2018-12-26T10:03:06.172Z</time>
</trkpt>
<trkpt lat="22.2713761" lon="113.9496228">
<ele>84.546</ele>
<time>2018-12-26T10:03:13.570Z</time>
</trkpt>
<trkpt lat="22.2713352" lon="113.9495359">
<ele>84.516</ele>
<time>2018-12-26T10:03:21.202Z</time>
</trkpt>
<trkpt lat="22.2712866" lon="113.9494448">
<ele>84.481</ele>
<time>2018-12-26T10:03:29.453Z</time>
</trkpt>
<trkpt lat="22.2712607" lon="113.9493410">
<ele>84.285</ele>
<time>2018-12-26T10:03:37.909Z</time>
</trkpt>
<trkpt lat="22.2712361" lon="113.9492413">
<ele>83.877</ele>
<time>2018-12-26T10:03:46.095Z</time>
</trkpt>
<trkpt lat="22.2712042" lon="113.9491405">
<ele>83.235</ele>
<time>2018-12-26T10:03:54.575Z</time>
</trkpt>
<trkpt lat="22.2711714" lon="113.9490431">
<ele>82.281</ele>
<time>2018-12-26T10:04:02.586Z</time>
</trkpt>
<trkpt lat="22.2711370" lon="113.9489466">
<ele>80.938</ele>
<time>2018-12-26T10:04:10.035Z</time>
</trkpt>
<trkpt lat="22.2711038" lon="113.9488462">
<ele>79.303</ele>
<time>2018-12-26T10:04:17.502Z</time>
</trkpt>
<trkpt lat="22.2710783" lon="113.9487478">
<ele>77.686</ele>
<time>2018-12-26T10:04:24.618Z</time>
</trkpt>
<trkpt lat="22.2711062" lon="113.9486535">
<ele>76.433</ele>
<time>2018-12-26T10:04:31.657Z</time>
</trkpt>
<trkpt lat="22.2711394" lon="113.9485515">
<ele>75.755</ele>
<time>2018-12-26T10:04:39.827Z</time>
</trkpt>
<trkpt lat="22.2711853" lon="113.9484562">
<ele>75.707</ele>
<time>2018-12-26T10:04:48.791Z</time>
</trkpt>
<trkpt lat="22.2712352" lon="113.9483601">
<ele>76.105</ele>
<time>2018-12-26T10:04:59.838Z</time>
</trkpt>
<trkpt lat="22.2713043" lon="113.9482824">
<ele>76.445</ele>
<time>2018-12-26T10:05:10.364Z</time>
</trkpt>
<trkpt lat="22.2713671" lon="113.9482044">
<ele>76.223</ele>
<time>2018-12-26T10:05:18.399Z</time>
</trkpt>
<trkpt lat="22.2714348" lon="113.9481293">
<ele>75.413</ele>
<time>2018-12-26T10:05:26.512Z</time>
</trkpt>
<trkpt lat="22.2714983" lon="113.9480547">
<ele>74.449</ele>
<time>2018-12-26T10:05:34.993Z</time>
</trkpt>
<trkpt lat="22.2714983" lon="113.9480547">
<ele>73.794</ele>
<time>2018-12-26T10:05:41.993Z</time>
</trkpt>
<trkpt lat="22.2714983" lon="113.9480547">
<ele>73.556</ele>
<time>2018-12-26T10:05:42.093Z</time>
</trkpt>
<trkpt lat="22.2715585" lon="113.9479475">
<ele>73.568</ele>
<time>2018-12-26T10:05:59.308Z</time>
</trkpt>
<trkpt lat="22.2716385" lon="113.9478878">
<ele>73.151</ele>
<time>2018-12-26T10:06:08.598Z</time>
</trkpt>
<trkpt lat="22.2717209" lon="113.9478430">
<ele>71.812</ele>
<time>2018-12-26T10:06:16.526Z</time>
</trkpt>
<trkpt lat="22.2718015" lon="113.9477870">
<ele>69.943</ele>
<time>2018-12-26T10:06:24.358Z</time>
</trkpt>
<trkpt lat="22.2718947" lon="113.9477418">
<ele>68.025</ele>
<time>2018-12-26T10:06:32.624Z</time>
</trkpt>
<trkpt lat="22.2719781" lon="113.9476952">
<ele>66.196</ele>
<time>2018-12-26T10:06:40.207Z</time>
</trkpt>
<trkpt lat="22.2720665" lon="113.9476657">
<ele>64.647</ele>
<time>2018-12-26T10:06:48.002Z</time>
</trkpt>
<trkpt lat="22.2721585" lon="113.9476414">
<ele>63.304</ele>
<time>2018-12-26T10:06:56.783Z</time>
</trkpt>
<trkpt lat="22.2722465" lon="113.9476154">
<ele>62.057</ele>
<time>2018-12-26T10:07:05.318Z</time>
</trkpt>
<trkpt lat="22.2723325" lon="113.9475760">
<ele>61.112</ele>
<time>2018-12-26T10:07:14.125Z</time>
</trkpt>
<trkpt lat="22.2724310" lon="113.9475701">
<ele>60.671</ele>
<time>2018-12-26T10:07:23.716Z</time>
</trkpt>
<trkpt lat="22.2725208" lon="113.9475490">
<ele>60.600</ele>
<time>2018-12-26T10:07:32.017Z</time>
</trkpt>
<trkpt lat="22.2726220" lon="113.9475328">
<ele>60.624</ele>
<time>2018-12-26T10:07:40.302Z</time>
</trkpt>
<trkpt lat="22.2727199" lon="113.9475066">
<ele>60.488</ele>
<time>2018-12-26T10:07:48.269Z</time>
</trkpt>
<trkpt lat="22.2728146" lon="113.9474722">
<ele>60.070</ele>
<time>2018-12-26T10:07:56.311Z</time>
</trkpt>
<trkpt lat="22.2728957" lon="113.9474132">
<ele>59.402</ele>
<time>2018-12-26T10:08:04.374Z</time>
</trkpt>
<trkpt lat="22.2729523" lon="113.9473324">
<ele>58.539</ele>
<time>2018-12-26T10:08:12.155Z</time>
</trkpt>
<trkpt lat="22.2730105" lon="113.9472445">
<ele>57.536</ele>
<time>2018-12-26T10:08:20.218Z</time>
</trkpt>
<trkpt lat="22.2730647" lon="113.9471501">
<ele>56.364</ele>
<time>2018-12-26T10:08:28.345Z</time>
</trkpt>
<trkpt lat="22.2731310" lon="113.9470688">
<ele>55.068</ele>
<time>2018-12-26T10:08:36.229Z</time>
</trkpt>
<trkpt lat="22.2732148" lon="113.9470270">
<ele>54.020</ele>
<time>2018-12-26T10:08:43.341Z</time>
</trkpt>
<trkpt lat="22.2733019" lon="113.9469974">
<ele>53.558</ele>
<time>2018-12-26T10:08:50.330Z</time>
</trkpt>
<trkpt lat="22.2733906" lon="113.9469795">
<ele>53.626</ele>
<time>2018-12-26T10:08:57.376Z</time>
</trkpt>
<trkpt lat="22.2734862" lon="113.9469446">
<ele>53.936</ele>
<time>2018-12-26T10:09:05.520Z</time>
</trkpt>
<trkpt lat="22.2735695" lon="113.9468968">
<ele>54.163</ele>
<time>2018-12-26T10:09:13.561Z</time>
</trkpt>
<trkpt lat="22.2736335" lon="113.9468274">
<ele>54.117</ele>
<time>2018-12-26T10:09:21.488Z</time>
</trkpt>
<trkpt lat="22.2736934" lon="113.9467513">
<ele>53.770</ele>
<time>2018-12-26T10:09:29.386Z</time>
</trkpt>
<trkpt lat="22.2737611" lon="113.9466756">
<ele>53.169</ele>
<time>2018-12-26T10:09:37.626Z</time>
</trkpt>
<trkpt lat="22.2738307" lon="113.9466115">
<ele>52.393</ele>
<time>2018-12-26T10:09:45.845Z</time>
</trkpt>
<trkpt lat="22.2738777" lon="113.9465228">
<ele>51.529</ele>
<time>2018-12-26T10:09:54.152Z</time>
</trkpt>
<trkpt lat="22.2738912" lon="113.9464191">
<ele>50.751</ele>
<time>2018-12-26T10:10:01.880Z</time>
</trkpt>
<trkpt lat="22.2739289" lon="113.9463234">
<ele>50.157</ele>
<time>2018-12-26T10:10:09.476Z</time>
</trkpt>
<trkpt lat="22.2739711" lon="113.9462225">
<ele>49.584</ele>
<time>2018-12-26T10:10:17.440Z</time>
</trkpt>
<trkpt lat="22.2740226" lon="113.9461365">
<ele>48.917</ele>
<time>2018-12-26T10:10:24.583Z</time>
</trkpt>
<trkpt lat="22.2740660" lon="113.9460498">
<ele>48.336</ele>
<time>2018-12-26T10:10:31.712Z</time>
</trkpt>
<trkpt lat="22.2741074" lon="113.9459596">
<ele>48.023</ele>
<time>2018-12-26T10:10:39.231Z</time>
</trkpt>
<trkpt lat="22.2741336" lon="113.9458654">
<ele>48.014</ele>
<time>2018-12-26T10:10:46.432Z</time>
</trkpt>
<trkpt lat="22.2741552" lon="113.9457707">
<ele>48.262</ele>
<time>2018-12-26T10:10:53.414Z</time>
</trkpt>
<trkpt lat="22.2741917" lon="113.9456813">
<ele>48.661</ele>
<time>2018-12-26T10:11:00.094Z</time>
</trkpt>
<trkpt lat="22.2742541" lon="113.9455924">
<ele>49.203</ele>
<time>2018-12-26T10:11:07.378Z</time>
</trkpt>
<trkpt lat="22.2742980" lon="113.9454948">
<ele>49.898</ele>
<time>2018-12-26T10:11:14.270Z</time>
</trkpt>
<trkpt lat="22.2743415" lon="113.9453937">
<ele>50.535</ele>
<time>2018-12-26T10:11:21.311Z</time>
</trkpt>
<trkpt lat="22.2743896" lon="113.9452978">
<ele>50.912</ele>
<time>2018-12-26T10:11:28.516Z</time>
</trkpt>
<trkpt lat="22.2744259" lon="113.9452078">
<ele>51.069</ele>
<time>2018-12-26T10:11:35.369Z</time>
</trkpt>
<trkpt lat="22.2744829" lon="113.9451295">
<ele>51.111</ele>
<time>2018-12-26T10:11:42.407Z</time>
</trkpt>
<trkpt lat="22.2745491" lon="113.9450599">
<ele>51.013</ele>
<time>2018-12-26T10:11:49.245Z</time>
</trkpt>
<trkpt lat="22.2746276" lon="113.9449938">
<ele>50.561</ele>
<time>2018-12-26T10:11:56.181Z</time>
</trkpt>
<trkpt lat="22.2747003" lon="113.9449359">
<ele>49.500</ele>
<time>2018-12-26T10:12:02.351Z</time>
</trkpt>
<trkpt lat="22.2747856" lon="113.9448763">
<ele>47.941</ele>
<time>2018-12-26T10:12:09.091Z</time>
</trkpt>
<trkpt lat="22.2748483" lon="113.9447971">
<ele>46.419</ele>
<time>2018-12-26T10:12:15.272Z</time>
</trkpt>
<trkpt lat="22.2749096" lon="113.9447224">
<ele>45.381</ele>
<time>2018-12-26T10:12:21.224Z</time>
</trkpt>
<trkpt lat="22.2749721" lon="113.9446502">
<ele>44.883</ele>
<time>2018-12-26T10:12:27.276Z</time>
</trkpt>
<trkpt lat="22.2750327" lon="113.9445628">
<ele>44.804</ele>
<time>2018-12-26T10:12:34.216Z</time>
</trkpt>
<trkpt lat="22.2750940" lon="113.9444772">
<ele>45.012</ele>
<time>2018-12-26T10:12:41.171Z</time>
</trkpt>
<trkpt lat="22.2751760" lon="113.9444115">
<ele>45.474</ele>
<time>2018-12-26T10:12:48.571Z</time>
</trkpt>
<trkpt lat="22.2752500" lon="113.9443367">
<ele>46.168</ele>
<time>2018-12-26T10:12:56.507Z</time>
</trkpt>
<trkpt lat="22.2753173" lon="113.9442622">
<ele>46.869</ele>
<time>2018-12-26T10:13:04.175Z</time>
</trkpt>
<trkpt lat="22.2753782" lon="113.9441840">
<ele>47.239</ele>
<time>2018-12-26T10:13:11.346Z</time>
</trkpt>
<trkpt lat="22.2754451" lon="113.9441109">
<ele>47.112</ele>
<time>2018-12-26T10:13:18.381Z</time>
</trkpt>
<trkpt lat="22.2755098" lon="113.9440400">
<ele>46.553</ele>
<time>2018-12-26T10:13:25.172Z</time>
</trkpt>
<trkpt lat="22.2755537" lon="113.9439448">
<ele>45.723</ele>
<time>2018-12-26T10:13:32.545Z</time>
</trkpt>
<trkpt lat="22.2755761" lon="113.9438358">
<ele>44.729</ele>
<time>2018-12-26T10:13:40.173Z</time>
</trkpt>
<trkpt lat="22.2756143" lon="113.9437326">
<ele>43.549</ele>
<time>2018-12-26T10:13:47.292Z</time>
</trkpt>
<trkpt lat="22.2756826" lon="113.9436467">
<ele>42.249</ele>
<time>2018-12-26T10:13:54.382Z</time>
</trkpt>
<trkpt lat="22.2757665" lon="113.9435846">
<ele>41.072</ele>
<time>2018-12-26T10:14:01.685Z</time>
</trkpt>
<trkpt lat="22.2758445" lon="113.9435192">
<ele>40.172</ele>
<time>2018-12-26T10:14:09.189Z</time>
</trkpt>
<trkpt lat="22.2759194" lon="113.9434505">
<ele>39.447</ele>
<time>2018-12-26T10:14:16.779Z</time>
</trkpt>
<trkpt lat="22.2759705" lon="113.9433606">
<ele>38.801</ele>
<time>2018-12-26T10:14:25.017Z</time>
</trkpt>
<trkpt lat="22.2760346" lon="113.9432828">
<ele>38.223</ele>
<time>2018-12-26T10:14:33.301Z</time>
</trkpt>
<trkpt lat="22.2761021" lon="113.9432089">
<ele>37.626</ele>
<time>2018-12-26T10:14:40.501Z</time>
</trkpt>
<trkpt lat="22.2761653" lon="113.9431385">
<ele>36.969</ele>
<time>2018-12-26T10:14:47.007Z</time>
</trkpt>
<trkpt lat="22.2762307" lon="113.9430715">
<ele>36.310</ele>
<time>2018-12-26T10:14:53.783Z</time>
</trkpt>
<trkpt lat="22.2762928" lon="113.9430014">
<ele>35.666</ele>
<time>2018-12-26T10:15:00.760Z</time>
</trkpt>
<trkpt lat="22.2763432" lon="113.9429155">
<ele>35.030</ele>
<time>2018-12-26T10:15:07.948Z</time>
</trkpt>
<trkpt lat="22.2763874" lon="113.9428301">
<ele>34.331</ele>
<time>2018-12-26T10:15:14.916Z</time>
</trkpt>
<trkpt lat="22.2764382" lon="113.9427381">
<ele>33.463</ele>
<time>2018-12-26T10:15:22.738Z</time>
</trkpt>
<trkpt lat="22.2764873" lon="113.9426567">
<ele>32.471</ele>
<time>2018-12-26T10:15:29.598Z</time>
</trkpt>
<trkpt lat="22.2765466" lon="113.9425739">
<ele>31.511</ele>
<time>2018-12-26T10:15:36.922Z</time>
</trkpt>
<trkpt lat="22.2765955" lon="113.9424915">
<ele>30.711</ele>
<time>2018-12-26T10:15:44.227Z</time>
</trkpt>
<trkpt lat="22.2766856" lon="113.9424044">
<ele>30.084</ele>
<time>2018-12-26T10:15:54.667Z</time>
</trkpt>
<trkpt lat="22.2767305" lon="113.9423167">
<ele>29.453</ele>
<time>2018-12-26T10:16:01.998Z</time>
</trkpt>
<trkpt lat="22.2767840" lon="113.9422255">
<ele>28.746</ele>
<time>2018-12-26T10:16:09.204Z</time>
</trkpt>
<trkpt lat="22.2768201" lon="113.9421321">
<ele>28.087</ele>
<time>2018-12-26T10:16:16.523Z</time>
</trkpt>
<trkpt lat="22.2768959" lon="113.9420590">
<ele>27.568</ele>
<time>2018-12-26T10:16:24.867Z</time>
</trkpt>
<trkpt lat="22.2769576" lon="113.9419850">
<ele>27.246</ele>
<time>2018-12-26T10:16:33.000Z</time>
</trkpt>
<trkpt lat="22.2770302" lon="113.9419190">
<ele>27.159</ele>
<time>2018-12-26T10:16:41.075Z</time>
</trkpt>
<trkpt lat="22.2770892" lon="113.9418422">
<ele>27.112</ele>
<time>2018-12-26T10:16:47.693Z</time>
</trkpt>
<trkpt lat="22.2771473" lon="113.9417668">
<ele>26.943</ele>
<time>2018-12-26T10:16:53.904Z</time>
</trkpt>
<trkpt lat="22.2772257" lon="113.9417127">
<ele>26.707</ele>
<time>2018-12-26T10:17:00.504Z</time>
</trkpt>
<trkpt lat="22.2773189" lon="113.9416743">
<ele>26.526</ele>
<time>2018-12-26T10:17:07.962Z</time>
</trkpt>
<trkpt lat="22.2773912" lon="113.9416081">
<ele>26.377</ele>
<time>2018-12-26T10:17:15.683Z</time>
</trkpt>
<trkpt lat="22.2774873" lon="113.9415967">
<ele>26.192</ele>
<time>2018-12-26T10:17:23.605Z</time>
</trkpt>
<trkpt lat="22.2775846" lon="113.9416309">
<ele>25.916</ele>
<time>2018-12-26T10:17:31.075Z</time>
</trkpt>
<trkpt lat="22.2776732" lon="113.9416033">
<ele>25.532</ele>
<time>2018-12-26T10:17:37.438Z</time>
</trkpt>
<trkpt lat="22.2777729" lon="113.9415909">
<ele>25.114</ele>
<time>2018-12-26T10:17:44.442Z</time>
</trkpt>
<trkpt lat="22.2778687" lon="113.9416000">
<ele>24.758</ele>
<time>2018-12-26T10:17:51.413Z</time>
</trkpt>
<trkpt lat="22.2779590" lon="113.9415521">
<ele>24.498</ele>
<time>2018-12-26T10:17:58.608Z</time>
</trkpt>
<trkpt lat="22.2780453" lon="113.9414961">
<ele>24.414</ele>
<time>2018-12-26T10:18:05.939Z</time>
</trkpt>
<trkpt lat="22.2781196" lon="113.9414408">
<ele>24.537</ele>
<time>2018-12-26T10:18:12.728Z</time>
</trkpt>
<trkpt lat="22.2781948" lon="113.9413869">
<ele>24.716</ele>
<time>2018-12-26T10:18:19.540Z</time>
</trkpt>
<trkpt lat="22.2782862" lon="113.9413603">
<ele>24.787</ele>
<time>2018-12-26T10:18:26.571Z</time>
</trkpt>
<trkpt lat="22.2783292" lon="113.9412646">
<ele>24.692</ele>
<time>2018-12-26T10:18:33.386Z</time>
</trkpt>
<trkpt lat="22.2783780" lon="113.9411718">
<ele>24.451</ele>
<time>2018-12-26T10:18:39.550Z</time>
</trkpt>
<trkpt lat="22.2784359" lon="113.9410768">
<ele>24.109</ele>
<time>2018-12-26T10:18:45.964Z</time>
</trkpt>
<trkpt lat="22.2784857" lon="113.9409848">
<ele>23.735</ele>
<time>2018-12-26T10:18:52.343Z</time>
</trkpt>
<trkpt lat="22.2785140" lon="113.9408847">
<ele>23.413</ele>
<time>2018-12-26T10:18:59.038Z</time>
</trkpt>
<trkpt lat="22.2785888" lon="113.9408197">
<ele>23.137</ele>
<time>2018-12-26T10:19:05.659Z</time>
</trkpt>
<trkpt lat="22.2786538" lon="113.9407430">
<ele>22.787</ele>
<time>2018-12-26T10:19:12.156Z</time>
</trkpt>
<trkpt lat="22.2787211" lon="113.9406639">
<ele>22.326</ele>
<time>2018-12-26T10:19:18.984Z</time>
</trkpt>
<trkpt lat="22.2787999" lon="113.9406107">
<ele>21.814</ele>
<time>2018-12-26T10:19:25.853Z</time>
</trkpt>
<trkpt lat="22.2788893" lon="113.9405848">
<ele>21.249</ele>
<time>2018-12-26T10:19:33.045Z</time>
</trkpt>
<trkpt lat="22.2789701" lon="113.9405262">
<ele>20.587</ele>
<time>2018-12-26T10:19:40.189Z</time>
</trkpt>
<trkpt lat="22.2790473" lon="113.9404739">
<ele>19.876</ele>
<time>2018-12-26T10:19:46.527Z</time>
</trkpt>
<trkpt lat="22.2791071" lon="113.9404014">
<ele>19.171</ele>
<time>2018-12-26T10:19:52.952Z</time>
</trkpt>
<trkpt lat="22.2791897" lon="113.9403548">
<ele>18.519</ele>
<time>2018-12-26T10:20:00.082Z</time>
</trkpt>
<trkpt lat="22.2792634" lon="113.9402954">
<ele>17.998</ele>
<time>2018-12-26T10:20:07.504Z</time>
</trkpt>
<trkpt lat="22.2793580" lon="113.9403317">
<ele>17.675</ele>
<time>2018-12-26T10:20:15.332Z</time>
</trkpt>
<trkpt lat="22.2794086" lon="113.9404174">
<ele>17.543</ele>
<time>2018-12-26T10:20:22.111Z</time>
</trkpt>
<trkpt lat="22.2794580" lon="113.9405072">
<ele>17.526</ele>
<time>2018-12-26T10:20:28.804Z</time>
</trkpt>
<trkpt lat="22.2795389" lon="113.9405746">
<ele>17.517</ele>
<time>2018-12-26T10:20:35.763Z</time>
</trkpt>
<trkpt lat="22.2796040" lon="113.9406487">
<ele>17.454</ele>
<time>2018-12-26T10:20:42.551Z</time>
</trkpt>
<trkpt lat="22.2796775" lon="113.9407096">
<ele>17.358</ele>
<time>2018-12-26T10:20:49.923Z</time>
</trkpt>
<trkpt lat="22.2797586" lon="113.9407690">
<ele>17.242</ele>
<time>2018-12-26T10:20:58.637Z</time>
</trkpt>
<trkpt lat="22.2798474" lon="113.9407860">
<ele>17.058</ele>
<time>2018-12-26T10:21:06.722Z</time>
</trkpt>
<trkpt lat="22.2799101" lon="113.9407079">
<ele>16.792</ele>
<time>2018-12-26T10:21:15.314Z</time>
</trkpt>
<trkpt lat="22.2799845" lon="113.9406493">
<ele>16.510</ele>
<time>2018-12-26T10:21:24.691Z</time>
</trkpt>
<trkpt lat="22.2800225" lon="113.9405570">
<ele>16.299</ele>
<time>2018-12-26T10:21:36.833Z</time>
</trkpt>
<trkpt lat="22.2800838" lon="113.9404747">
<ele>16.224</ele>
<time>2018-12-26T10:21:46.427Z</time>
</trkpt>
<trkpt lat="22.2801645" lon="113.9404302">
<ele>16.404</ele>
<time>2018-12-26T10:21:52.794Z</time>
</trkpt>
<trkpt lat="22.2802552" lon="113.9403761">
<ele>16.978</ele>
<time>2018-12-26T10:22:00.043Z</time>
</trkpt>
<trkpt lat="22.2803462" lon="113.9403403">
<ele>17.800</ele>
<time>2018-12-26T10:22:07.310Z</time>
</trkpt>
<trkpt lat="22.2804158" lon="113.9402641">
<ele>18.516</ele>
<time>2018-12-26T10:22:16.756Z</time>
</trkpt>
<trkpt lat="22.2805175" lon="113.9402379">
<ele>19.049</ele>
<time>2018-12-26T10:22:27.728Z</time>
</trkpt>
<trkpt lat="22.2806112" lon="113.9402011">
<ele>19.538</ele>
<time>2018-12-26T10:22:38.337Z</time>
</trkpt>
<trkpt lat="22.2806887" lon="113.9401474">
<ele>20.016</ele>
<time>2018-12-26T10:22:45.535Z</time>
</trkpt>
<trkpt lat="22.2807537" lon="113.9400645">
<ele>20.406</ele>
<time>2018-12-26T10:22:52.457Z</time>
</trkpt>
<trkpt lat="22.2807916" lon="113.9399677">
<ele>20.610</ele>
<time>2018-12-26T10:22:59.046Z</time>
</trkpt>
<trkpt lat="22.2808559" lon="113.9398940">
<ele>20.591</ele>
<time>2018-12-26T10:23:05.201Z</time>
</trkpt>
<trkpt lat="22.2809225" lon="113.9398235">
<ele>20.408</ele>
<time>2018-12-26T10:23:10.777Z</time>
</trkpt>
<trkpt lat="22.2809918" lon="113.9397522">
<ele>20.146</ele>
<time>2018-12-26T10:23:17.052Z</time>
</trkpt>
<trkpt lat="22.2810841" lon="113.9397070">
<ele>19.908</ele>
<time>2018-12-26T10:23:25.541Z</time>
</trkpt>
<trkpt lat="22.2811822" lon="113.9396867">
<ele>19.763</ele>
<time>2018-12-26T10:23:38.176Z</time>
</trkpt>
<trkpt lat="22.2812524" lon="113.9396127">
<ele>19.683</ele>
<time>2018-12-26T10:23:50.574Z</time>
</trkpt>
<trkpt lat="22.2813242" lon="113.9396733">
<ele>19.554</ele>
<time>2018-12-26T10:24:04.615Z</time>
</trkpt>
<trkpt lat="22.2813820" lon="113.9397510">
<ele>19.220</ele>
<time>2018-12-26T10:24:19.791Z</time>
</trkpt>
<trkpt lat="22.2814586" lon="113.9398090">
<ele>18.645</ele>
<time>2018-12-26T10:24:30.318Z</time>
</trkpt>
<trkpt lat="22.2815148" lon="113.9398878">
<ele>18.006</ele>
<time>2018-12-26T10:24:40.260Z</time>
</trkpt>
<trkpt lat="22.2815532" lon="113.9399862">
<ele>17.458</ele>
<time>2018-12-26T10:24:48.842Z</time>
</trkpt>
<trkpt lat="22.2816256" lon="113.9400512">
<ele>16.997</ele>
<time>2018-12-26T10:24:54.337Z</time>
</trkpt>
<trkpt lat="22.2816826" lon="113.9401271">
<ele>16.626</ele>
<time>2018-12-26T10:24:58.620Z</time>
</trkpt>
<trkpt lat="22.2817514" lon="113.9402115">
<ele>16.364</ele>
<time>2018-12-26T10:25:03.292Z</time>
</trkpt>
<trkpt lat="22.2818406" lon="113.9402618">
<ele>16.191</ele>
<time>2018-12-26T10:25:07.930Z</time>
</trkpt>
<trkpt lat="22.2819213" lon="113.9403384">
<ele>16.009</ele>
<time>2018-12-26T10:25:13.996Z</time>
</trkpt>
<trkpt lat="22.2819213" lon="113.9403384">
<ele>15.767</ele>
<time>2018-12-26T10:25:16.996Z</time>
</trkpt>
<trkpt lat="22.2819213" lon="113.9403384">
<ele>15.591</ele>
<time>2018-12-26T10:25:20.474Z</time>
</trkpt>
<trkpt lat="22.2820064" lon="113.9403877">
<ele>15.675</ele>
<time>2018-12-26T10:25:44.622Z</time>
</trkpt>
<trkpt lat="22.2820830" lon="113.9404544">
<ele>15.730</ele>
<time>2018-12-26T10:25:51.971Z</time>
</trkpt>
<trkpt lat="22.2821525" lon="113.9405291">
<ele>15.731</ele>
<time>2018-12-26T10:25:58.198Z</time>
</trkpt>
<trkpt lat="22.2822180" lon="113.9406016">
<ele>15.739</ele>
<time>2018-12-26T10:26:04.012Z</time>
</trkpt>
<trkpt lat="22.2823035" lon="113.9406619">
<ele>15.805</ele>
<time>2018-12-26T10:26:10.590Z</time>
</trkpt>
<trkpt lat="22.2823879" lon="113.9407261">
<ele>15.896</ele>
<time>2018-12-26T10:26:17.701Z</time>
</trkpt>
<trkpt lat="22.2824582" lon="113.9408045">
<ele>15.959</ele>
<time>2018-12-26T10:26:25.049Z</time>
</trkpt>
<trkpt lat="22.2825322" lon="113.9408684">
<ele>16.035</ele>
<time>2018-12-26T10:26:31.965Z</time>
</trkpt>
<trkpt lat="22.2826158" lon="113.9409196">
<ele>16.171</ele>
<time>2018-12-26T10:26:38.709Z</time>
</trkpt>
<trkpt lat="22.2826985" lon="113.9409699">
<ele>16.335</ele>
<time>2018-12-26T10:26:45.305Z</time>
</trkpt>
<trkpt lat="22.2827764" lon="113.9410354">
<ele>16.482</ele>
<time>2018-12-26T10:26:52.249Z</time>
</trkpt>
<trkpt lat="22.2828673" lon="113.9410911">
<ele>16.596</ele>
<time>2018-12-26T10:26:59.697Z</time>
</trkpt>
<trkpt lat="22.2829432" lon="113.9411458">
<ele>16.677</ele>
<time>2018-12-26T10:27:06.308Z</time>
</trkpt>
<trkpt lat="22.2830254" lon="113.9412118">
<ele>16.737</ele>
<time>2018-12-26T10:27:14.029Z</time>
</trkpt>
<trkpt lat="22.2830928" lon="113.9412861">
<ele>16.804</ele>
<time>2018-12-26T10:27:22.089Z</time>
</trkpt>
<trkpt lat="22.2831743" lon="113.9413375">
<ele>16.910</ele>
<time>2018-12-26T10:27:30.471Z</time>
</trkpt>
<trkpt lat="22.2832542" lon="113.9414033">
<ele>17.050</ele>
<time>2018-12-26T10:27:38.058Z</time>
</trkpt>
<trkpt lat="22.2833260" lon="113.9414657">
<ele>17.208</ele>
<time>2018-12-26T10:27:44.100Z</time>
</trkpt>
<trkpt lat="22.2833896" lon="113.9415454">
<ele>17.381</ele>
<time>2018-12-26T10:27:50.498Z</time>
</trkpt>
<trkpt lat="22.2834752" lon="113.9415911">
<ele>17.548</ele>
<time>2018-12-26T10:27:57.211Z</time>
</trkpt>
<trkpt lat="22.2835516" lon="113.9416474">
<ele>17.677</ele>
<time>2018-12-26T10:28:04.163Z</time>
</trkpt>
<trkpt lat="22.2836316" lon="113.9416986">
<ele>17.765</ele>
<time>2018-12-26T10:28:11.148Z</time>
</trkpt>
<trkpt lat="22.2837102" lon="113.9417558">
<ele>17.862</ele>
<time>2018-12-26T10:28:18.029Z</time>
</trkpt>
<trkpt lat="22.2837886" lon="113.9418210">
<ele>18.010</ele>
<time>2018-12-26T10:28:25.165Z</time>
</trkpt>
<trkpt lat="22.2838574" lon="113.9418991">
<ele>18.180</ele>
<time>2018-12-26T10:28:32.571Z</time>
</trkpt>
<trkpt lat="22.2839248" lon="113.9419708">
<ele>18.327</ele>
<time>2018-12-26T10:28:39.729Z</time>
</trkpt>
<trkpt lat="22.2840017" lon="113.9420412">
<ele>18.420</ele>
<time>2018-12-26T10:28:47.426Z</time>
</trkpt>
<trkpt lat="22.2840840" lon="113.9420979">
<ele>18.515</ele>
<time>2018-12-26T10:28:54.889Z</time>
</trkpt>
<trkpt lat="22.2841545" lon="113.9421799">
<ele>18.703</ele>
<time>2018-12-26T10:29:02.641Z</time>
</trkpt>
<trkpt lat="22.2842202" lon="113.9422608">
<ele>18.955</ele>
<time>2018-12-26T10:29:10.756Z</time>
</trkpt>
<trkpt lat="22.2842899" lon="113.9423229">
<ele>19.163</ele>
<time>2018-12-26T10:29:18.765Z</time>
</trkpt>
<trkpt lat="22.2843615" lon="113.9423983">
<ele>19.276</ele>
<time>2018-12-26T10:29:28.019Z</time>
</trkpt>
<trkpt lat="22.2844049" lon="113.9424955">
<ele>19.205</ele>
<time>2018-12-26T10:29:36.588Z</time>
</trkpt>
<trkpt lat="22.2845022" lon="113.9425434">
<ele>18.820</ele>
<time>2018-12-26T10:29:43.382Z</time>
</trkpt>
<trkpt lat="22.2846026" lon="113.9425468">
<ele>18.108</ele>
<time>2018-12-26T10:29:49.426Z</time>
</trkpt>
<trkpt lat="22.2847022" lon="113.9425540">
<ele>17.308</ele>
<time>2018-12-26T10:29:55.898Z</time>
</trkpt>
<trkpt lat="22.2847964" lon="113.9425203">
<ele>16.650</ele>
<time>2018-12-26T10:30:02.713Z</time>
</trkpt>
<trkpt lat="22.2848510" lon="113.9424255">
<ele>16.108</ele>
<time>2018-12-26T10:30:09.853Z</time>
</trkpt>
<trkpt lat="22.2848510" lon="113.9424255">
<ele>16.108</ele>
<time>2018-12-26T10:30:09.853Z</time>
</trkpt>
<trkpt lat="22.2854692" lon="113.9424875">
<ele>12.804</ele>
<time>2018-12-26T10:30:52.794Z</time>
</trkpt>
<trkpt lat="22.2855278" lon="113.9423965">
<ele>12.798</ele>
<time>2018-12-26T10:31:00.530Z</time>
</trkpt>
<trkpt lat="22.2856226" lon="113.9423664">
<ele>12.753</ele>
<time>2018-12-26T10:31:07.246Z</time>
</trkpt>
<trkpt lat="22.2856998" lon="113.9423110">
<ele>12.622</ele>
<time>2018-12-26T10:31:13.049Z</time>
</trkpt>
<trkpt lat="22.2857587" lon="113.9422219">
<ele>12.414</ele>
<time>2018-12-26T10:31:19.890Z</time>
</trkpt>
<trkpt lat="22.2858328" lon="113.9421551">
<ele>12.152</ele>
<time>2018-12-26T10:31:27.298Z</time>
</trkpt>
<trkpt lat="22.2859220" lon="113.9421204">
<ele>11.857</ele>
<time>2018-12-26T10:31:34.503Z</time>
</trkpt>
<trkpt lat="22.2859878" lon="113.9420530">
<ele>11.569</ele>
<time>2018-12-26T10:31:41.894Z</time>
</trkpt>
<trkpt lat="22.2860316" lon="113.9419559">
<ele>11.245</ele>
<time>2018-12-26T10:31:49.234Z</time>
</trkpt>
<trkpt lat="22.2861036" lon="113.9418925">
<ele>10.839</ele>
<time>2018-12-26T10:31:55.405Z</time>
</trkpt>
<trkpt lat="22.2861690" lon="113.9418220">
<ele>10.410</ele>
<time>2018-12-26T10:32:01.684Z</time>
</trkpt>
<trkpt lat="22.2862346" lon="113.9417502">
<ele>10.020</ele>
<time>2018-12-26T10:32:08.553Z</time>
</trkpt>
<trkpt lat="22.2862978" lon="113.9416728">
<ele>9.654</ele>
<time>2018-12-26T10:32:15.599Z</time>
</trkpt>
<trkpt lat="22.2863708" lon="113.9416076">
<ele>9.276</ele>
<time>2018-12-26T10:32:22.034Z</time>
</trkpt>
<trkpt lat="22.2864430" lon="113.9415368">
<ele>8.863</ele>
<time>2018-12-26T10:32:28.856Z</time>
</trkpt>
<trkpt lat="22.2865044" lon="113.9414583">
<ele>8.445</ele>
<time>2018-12-26T10:32:36.337Z</time>
</trkpt>
<trkpt lat="22.2865708" lon="113.9413810">
<ele>8.037</ele>
<time>2018-12-26T10:32:44.911Z</time>
</trkpt>
<trkpt lat="22.2866443" lon="113.9413183">
<ele>7.623</ele>
<time>2018-12-26T10:32:51.513Z</time>
</trkpt>
<trkpt lat="22.2867111" lon="113.9412352">
<ele>7.243</ele>
<time>2018-12-26T10:32:57.968Z</time>
</trkpt>
<trkpt lat="22.2867990" lon="113.9411683">
<ele>6.917</ele>
<time>2018-12-26T10:33:05.488Z</time>
</trkpt>
<trkpt lat="22.2868361" lon="113.9410652">
<ele>6.618</ele>
<time>2018-12-26T10:33:13.648Z</time>
</trkpt>
<trkpt lat="22.2869132" lon="113.9410091">
<ele>6.384</ele>
<time>2018-12-26T10:33:20.705Z</time>
</trkpt>
<trkpt lat="22.2870120" lon="113.9409995">
<ele>6.267</ele>
<time>2018-12-26T10:33:27.360Z</time>
</trkpt>
<trkpt lat="22.2871075" lon="113.9409890">
<ele>6.242</ele>
<time>2018-12-26T10:33:34.177Z</time>
</trkpt>
<trkpt lat="22.2871075" lon="113.9409890">
<ele>6.242</ele>
<time>2018-12-26T10:33:34.177Z</time>
</trkpt>
<trkpt lat="22.2874362" lon="113.9407509">
<ele>6.128</ele>
<time>2018-12-26T10:34:03.147Z</time>
</trkpt>
<trkpt lat="22.2874829" lon="113.9408429">
<ele>6.125</ele>
<time>2018-12-26T10:34:11.548Z</time>
</trkpt>
<trkpt lat="22.2875746" lon="113.9408238">
<ele>6.139</ele>
<time>2018-12-26T10:34:19.561Z</time>
</trkpt>
<trkpt lat="22.2880373" lon="113.9409220">
<ele>6.220</ele>
<time>2018-12-26T10:34:58.365Z</time>
</trkpt>
<trkpt lat="22.2881313" lon="113.9409288">
<ele>6.264</ele>
<time>2018-12-26T10:35:06.327Z</time>
</trkpt>
<trkpt lat="22.2882310" lon="113.9409129">
<ele>6.323</ele>
<time>2018-12-26T10:35:15.147Z</time>
</trkpt>
<trkpt lat="22.2883248" lon="113.9409056">
<ele>6.344</ele>
<time>2018-12-26T10:35:23.508Z</time>
</trkpt>
<trkpt lat="22.2884212" lon="113.9409307">
<ele>6.266</ele>
<time>2018-12-26T10:35:31.991Z</time>
</trkpt>
<trkpt lat="22.2884212" lon="113.9409307">
<ele>6.132</ele>
<time>2018-12-26T10:35:36.991Z</time>
</trkpt>
<trkpt lat="22.2884212" lon="113.9409307">
<ele>6.046</ele>
<time>2018-12-26T10:35:45.991Z</time>
</trkpt>
<trkpt lat="22.2884212" lon="113.9409307">
<ele>6.049</ele>
<time>2018-12-26T10:36:00.372Z</time>
</trkpt>
<trkpt lat="22.2885768" lon="113.9410151">
<ele>6.090</ele>
<time>2018-12-26T10:36:09.990Z</time>
</trkpt>
<trkpt lat="22.2885768" lon="113.9410151">
<ele>6.114</ele>
<time>2018-12-26T10:36:15.990Z</time>
</trkpt>
<trkpt lat="22.2885768" lon="113.9410151">
<ele>6.114</ele>
<time>2018-12-26T10:37:02.423Z</time>
</trkpt>
<trkpt lat="22.2886612" lon="113.9409550">
<ele>6.105</ele>
<time>2018-12-26T10:37:14.998Z</time>
</trkpt>
</trkseg>
</trk>
<extensions>
<fpdata xmlns="http://www.motionx.com/GPX-Extensions/1/1" sfv="10" origin="MotionXGPSFull 24.4 Build 5112 R64">
<bin enc="base64">
RgIAAAACAAAAUmexubkI10EBAAAABFjpeNYI10EzM6ke1JLOQCUGAACs2xMAj93kVt5x
OkBeArq+k2sYQAAAAAARAAAAV29uZyBMb25nIFN0cmVhbQAWAAAARGVjIDI2LCAyMDE4
IDEwOjI2IGFtAAAAAAAyWOl41gjXQQU1hH7WCNdBKRkyAc1lTojbyFRALAAAAAEAAAAr
HbZuM3xcQNMWxFnrSTZAj93kVt5xOkAAAAAAAAAkQAAAAAAAABhAAAAAAAAwd0AAAAAA
AAAAAAAAAABxPQrXo8R2QA7QvKxxIydAAQAAABBr9lFgEIq/AQAAAAEAAACS+d7LPevi
P3xYrI1vltq/AQAAAAEAAAADAAAApEgAVozTU0AAAAAAAAAAAAAAAAAAAAAAAAAAAAAA
AAAAAAAAAAAAAAAAAAAAAAAASkwAABzqv3bWCNdBAAAAAAAAAAAAAAAAAAAAAP8lRLwC
AAAAAAAAAAAAAAABAAAAJwAAADI0LjIgQnVpbGQgNTA2M1I2NCwgTVhBRSA4LjEgYi4g
NjI2UjY0AAAAAADdXwAAAQAAAAHcAAAA5uYiXOJZI1wEAkXJvbkI10ECRcm9uQjXQQAA
AOZ2XzBAAAAAAANd3yTiuQjXQV3fJOK5CNdBAAAACLw5ZEAAAAAABMDriOm5CNdBwOuI
6bkI10EAAEA1wutnQAAAAAADUpYkGLoI10FSliQYugjXQQAAYMHLnHdAAAAAAARaggkn
ugjXQVqCCSe6CNdBAAAgwwZWe0AAAAAAAmpnsbm5CNdBnKJHZ7sI10EAACCzY9maQAAA
AAACl1RJarsI10HIPYjXuwjXQQAAGCOp1qBAAAAAAAIG2kvpuwjXQYAoyAe8CNdBAADo
lovKoUAAAAAAAvc7izO8CNdBhPcNNLwI10EAAFBzoc6hQAAAAAACNX0JPLwI10E414Y8
vAjXQQAAaEOM0qFAAAAAAAJ8uMg/vAjXQamiSEu8CNdBAADQlIsuokAAAAAAAiZXDFq8
CNdBMpXiWrwI10EAADCFPTWiQAAAAAAC5zfKabwI10EKEwdqvAjXQQAASF4kN6JAAAAA
AAJALVKAvAjXQaGfB4G8CNdBAABQ8c88okAAAAAAAvrOzJi8CNdBJsSGmrwI10EAALCa
n0qiQAAAAAAC5NnJrLwI10HieceyvAjXQQAAoJqMeqJAAAAAAAIWg0i1vAjXQQZLh7m8
CNdBAAAg2oKcokAAAAAAAhDLSca8CNdBelQkx7wI10EAAHAlV6OiQAAAAAACaY5K17wI
10FIOQjbvAjXQQAAaHxEwaJAAAAAAAIo9YrivAjXQZ4nhue8CNdBAAAYEB7pokAAAAAA
AkQuigO9CNdBwVYHCb0I10EAAABUBxWjQAAAAAAC5uwJE70I10FQwGQXvQjXQQAAUO/d
N6NAAAAAAAJotcogvQjXQX9Nxye9CNdBAAAIsMJvo0AAAAAAApfHSC+9CNdBBd+GMb0I
10EAAHhrs4GjQAAAAAACOCxLNL0I10Fa1QdBvQjXQQAAiLSY56NAAAAAAAJWSMpFvQjX
QRStR1K9CNdBAAB42oNLpEAAAAAAAtBdiFS9CNdBA+3HVb0I10EAABBUgFWkQAAAAAAC
3PCKbL0I10HgnEZ3vQjXQQAAMLRdq6RAAAAAAAIG2YqJvQjXQaJ4oou9CNdBAAAQsRq8
pEAAAAAAAlB0Sqi9CNdBCoJHq70I10EAAOAeA9SkQAAAAAACEHYHsL0I10EP8WOzvQjX
QQAA2Pbm7qRAAAAAAALII4rcvQjXQdZ0Sd29CNdBAABIf+H0pEAAAAAAAgwgTN29CNdB
9IyH3b0I10EAAIjmvPakQAAAAAACWMOJ370I10F8SEjivQjXQQAAqA+xDKVAAAAAAAL1
ZQn0vQjXQbLxXvW9CNdBAACQbV0XpUAAAAAAAnzXigO+CNdBdjaGCb4I10EAAGBlOEel
QAAAAAACoIpKEb4I10FEaOIUvgjXQQAAgFL3Y6VAAAAAAAKCPs5IvgjXQX7n3k6+CNdB
AABgmnyUpUAAAAAAAu2cS2i+CNdBXvhiar4I10EAAOh1N6WlQAAAAAACyJuJbr4I10HQ
ex5vvgjXQQAAKHbeqaVAAAAAAAKxTklvvgjXQXYyh2++CNdBAABQlM2rpUAAAAAAAuz2
CX6+CNdB848ehL4I10EAAIhcctylQAAAAAACTu3Ii74I10FwXoeNvgjXQQAAmOVl6qVA
AAAAAAKWCcmRvgjXQU8+h5K+CNdBAABgi1fwpUAAAAAAAjTaiJW+CNdByD5HmL4I10EA
AACwSgamQAAAAAACEOaL8L4I10FALmLzvgjXQQAAgPH8HKZAAAAAAAJaE4j2vgjXQW4R
R/m+CNdBAAAg4vQypkAAAAAAAuhJygO/CNdBKjnKJr8I10EAADBc9EqnQAAAAAACFkzI
J78I10Fm84csvwjXQQAAsJbxcKdAAAAAAAJsPotBvwjXQdboRkO/CNdBAAAA6s5+p0AA
AAAAAu61Smu/CNdBHXQfbL8I10EAAHjbdIWnQAAAAAACwhbJcr8I10GMT4ZzvwjXQQAA
yKFei6dAAAAAAAJk6cl7vwjXQbH5h4O/CNdBAAAwJE/Jp0AAAAAAAp6Yy4q/CNdBUhHI
i78I10EAANDpMtGnQAAAAAAC6szJjr8I10EWh4aVvwjXQQAAMLsYB6hAAAAAAAJOec+6
vwjXQWHhBsu/CNdBAADI+9OIqEAAAAAAAqTDiN+/CNdBtD2G4L8I10EAAEjMv5CoQAAA
AAACPmAI6r8I10EcJeLqvwjXQQAAOPONl6hAAAAAAAJuaYnvvwjXQQAYR/a/CNdBAADI
Z3vNqEAAAAAAAuYhyPi/CNdB9mPH/r8I10EAAEh4df2oQAAAAAAC5EyJFMAI10G94x4W
wAjXQQAAEC8iCqlAAAAAAAIMHggewAjXQes4xyDACNdBAAAIBhsgqUAAAAAAAqT7yCTA
CNdBL04GJcAI10EAAGCaBSKpQAAAAAACahQJJcAI10FwuMclwAjXQQAAkLr6J6lAAAAA
AAJoyQcnwAjXQQAdxjDACNdBAABQV+11qUAAAAAAAsnmxyvBCNdBuTaGLMEI10EAANDW
33upQAAAAAACwvuJLMEI10HguMYswQjXQQAAwL/FfalAAAAAAALw+9ZNwQjXQRIyR1LB
CNdBAADQcEehqUAAAAAAAsJMCmHBCNdBNN1HYsEI10EAAGD0M6upQAAAAAACRYFJbsEI
10GKqwdwwQjXQQAAiEYlualAAAAAAAKsHApzwQjXQfbtxpHBCNdBAADY0AuvqkAAAAAA
Aqq5CJPBCNdBsqHGkcII10EAAIyIfVKxQAAAAAAC9puHlMII10FwRAeZwgjXQQAAdCp8
ZLFAAAAAAALQI4vRwgjXQfqZRtPCCNdBAAAcA2prsUAAAAAAA8E3HfDCCNdBwTcd8MII
10EAADjRsr2xQAAAAAAEdtsH9cII10F22wf1wgjXQQAAlFxd0bFAAAAAAAOKVxsBwwjX
QYpXGwHDCNdBAADATKsBskAAAAAABK5fRwbDCNdBrl9HBsMI10EAAIZtWxayQAAAAAAD
nZ6aCcMI10GdnpoJwwjXQQAA6mioI7JAAAAAAATuQcYMwwjXQe5BxgzDCNdBAABy9lYw
skAAAAAAAwhYGg3DCNdBCFgaDcMI10EAAJZOpzGyQAAAAAAESIpGD8MI10FIikYPwwjX
QQAAlhdYOrJAAAAAAAOUMdpxwwjXQZQx2nHDCNdBAADotKbEs0AAAAAABOCEhnXDCNdB
4ISGdcMI10EAAPYBWNOzQAAAAAADwoibm8UI10HCiJubxQjXQQAA4hGsa7xAAAAAAARe
R8efxQjXQV5Hx5/FCNdBAAA0DFt8vEAAAAAAA/SoV6zFCNdB9KhXrMUI10EAAGaSnK68
QAAAAAAEKh+Jr8UI10EqH4mvxQjXQQAAPmtiu7xAAAAAAAP28NiwxQjXQfbw2LDFCNdB
AABOsqHAvEAAAAAABD9yx7nFCNdBP3LHucUI10EAALa3W+S8QAAAAAAD2xbZ2MUI10Hb
FtnYxQjXQQAABEqiYL1AAAAAAATAV4bbxQjXQcBXhtvFCNdBAAC8TVdrvUAAAAAAAkIF
i9vCCNdBCOZRPMYI10EAADSGhe6+QAAAAAAClx4LVcYI10GyYQdYxgjXQQAAoJJ2+r5A
AAAAAAL84sqdxgjXQQdghqHGCNdBAADMhmQJv0AAAAAAAvi/SrrGCNdBZvOGw8YI10EA
AIRUVS6/QAAAAAACK4eK4cYI10G5p9bjxgjXQQAAvNaFN79AAAAAAAIL04fpxgjXQZ26
xuvGCNdBAAAEdYFAv0AAAAAAAoJzTPbGCNdB7L3H+MYI10EAAKyebkq/QAAAAAACBkoK
DMcI10EaEggOxwjXQQAA/L5lUr9AAAAAAAKqEAkUxwjXQeDXhxjHCNdBAADU22Bkv0AA
AAAAAulHSibHCNdBRMNHJ8cI10EAAEDJVmi/QAAAAAACCipKQMcI10GMpIZBxwjXQQAA
SLNIbb9AAAAAAAICnspqxwjXQQgbiHDHCNdBAABgpz6Ev0AAAAAAAjxKy8LHCNdBevxH
xscI10EAAFhwMZK/QAAAAAACehaMP8gI10EwakdDyAjXQQAAML8eob9AAAAAAAOLNRtd
yAjXQYs1G13ICNdBAAAwvx6hv0AAAAAABIBeh2DICNdBgF6HYMgI10EAADC/HqG/QAAA
AAADda1Ue8gI10F1rVR7yAjXQQAAML8eob9AAAAAAATKhkeAyAjXQcqGR4DICNdBAAAw
vx6hv0AAAAAAAsLbSIDICNdBwcVLBskI10EzM8lmKP7AQAAAAAACBp9KJMkI10HPMAkp
yQjXQTMzW4qlB8FAAAAAAALLLotByQjXQXbdB0PJCNdBMzOx554KwUAAAAAAAh5TilbJ
CNdBkKNGWskI10EzM5WIFxLBQAAAAAACgAkLeMkI10EczUeAyQjXQTMzzQ+RIsFAAAAA
AALO/kiEyQjXQaQYFIfJCNdBMzN5QycowUAAAAAAAn4ayYnJCNdBrmhHDsoI10EzM9nf
IzHCQAAAAAAC5UaJEMoI10F8LUgXygjXQTMzB62hPsJAAAAAAAI2sYkaygjXQW4yhh3K
CNdBMzN3r5pEwkAAAAAAAipSDibKCNdBtFlHKMoI10EzM4u+DEnCQAAAAAACem1KOsoI
10FgzUY7ygjXQTMzV34FS8JAAAAAAAIArouFygjXQd7+BrzKCNdBMzMTIPy3wkAAAAAA
ArIOC8zKCNdBjBEHzsoI10EzM8cl9LvCQAAAAAACpKzK+MoI10FoA0b8ygjXQTMzT9Pq
wsJAAAAAAAJt/0onywjXQbw7RyjLCNdBMzPtS+PEwkAAAAAAAvRtyTPLCNdBls2GN8sI
10EzMzELXszCQAAAAAACKnKJTssI10G46U5PywjXQTMzTfrozcJAAAAAAAIYtQueywjX
QYfCR6LLCNdBMzMrFWHWwkAAAAAAAlgBS8rLCNdBdjVGy8sI10EzM2d9V9jCQAAAAAAC
sfpJB8wI10ED6wcLzAjXQTMzC17T38JAAAAAAAJMpEpXzAjXQavMR1jMCNdBMzPJrs3h
wkAAAAAAAhMqy5bMCNdBY5qGl8wI10EzM2mPROPCQAAAAAACTkiKo8wI10HWUYalzAjX
QTMzeaI858JAAAAAAAKhoErBzAjXQUJYhsPMCNdBMzO7EbTrwkAAAAAAAoo4SunMCNdB
tkZI6swI10EzMxMusO3CQAAAAAACKlmTm80I10HSbgqdzQjXQTMzY1me8MJAAAAAAAJe
vsqhzQjXQRfVSaXNCNdBMzPVhpz3wkAAAAAAAoAoS6jNCNdBCivKqs0I10EzM+mLmvzC
QAAAAAACeEQPr80I10GwGsqwzQjXQTMzWTgQAMNAAAAAAAJw08u0zQjXQW2Qys3NCNdB
MzNTsg0yw0AAAAAAAkARDNDNCNdBlBOJ0c0I10EzM/u2BzXDQAAAAAACdojT1M0I10Ht
8InVzQjXQTMz6Yd0NsNAAAAAAAJOLI3VzQjXQejByNXNCNdBMzMds+s2w0AAAAAAAobh
TNrNCNdBkh4K280I10EzMzUtZjjDQAAAAAAC5iKN480I10EGKwvpzQjXQTMzdT1iQ8NA
AAAAAAK0dY3rzQjXQWWqCu/NCNdBMzPXplxKw0AAAAAAAtXNC/LNCNdBavZK9M0I10Ez
MwH42k7DQAAAAAAC31IK9s0I10G70sr7zQjXQTMzufdbWsNAAAAAAAKU9E4TzgjXQYO/
yRbOCNdBMzOXjVFhw0AAAAAAAs4b0DjOCNdBWDhKOs4I10EzM6vGRWTDQAAAAAAC6grM
Ps4I10GefA1DzgjXQTMzE6rIbMNAAAAAAALPTE5NzgjXQfuvClTOCNdBMzNrcEF6w0AA
AAAAAlIpD2HOCNdBfIOIYc4I10EzM78kNHvDQAAAAAACGofNcM4I10E2JcxzzgjXQTMz
92AxgcNAAAAAAAIc0Et7zgjXQZSCyn7OCNdBMzPnxS6Iw0AAAAAAAhMMj6HOCNdBIjIJ
os4I10EzMwUSI4nDQAAAAAAC24gMos4I10F+yYqizgjXQTMzS5MfisNAAAAAAAIaNgum
zgjXQXaGCczOCNdBMzMDNBzWw0AAAAAAAhH/Gc7OCNdBED5K7M4I10EzMwGyfBLEQAAA
AAACiC3M8s4I10GLion1zgjXQTMzB2z3F8RAAAAAAAKQK40GzwjXQZAWSibPCNdBMzMH
QnFXxEAAAAAAAmKjizTPCNdB5gOIWs8I10EzMw8DaqPEQAAAAAAC4L2JYc8I10F884lq
zwjXQTMzR25qtcRAAAAAAAK1NUpszwjXQXLABoDPCNdBMzPBg+PcxEAAAAAAAjqPjajP
CNdB1NPHrc8I10EzM/UMWOfEQAAAAAACIgBNt88I10G2hAkJ0AjXQTMzHRbRisVAAAAA
AALkTYsL0AjXQUxTxkjQCNdBMzPtIEcFxkAAAAAAAqYM14XQCNdBzXdKmNAI10EzMzv3
LSrGQAAAAAACxarIztAI10HaBYfP0AjXQTMzZa2qK8ZAAAAAAALDR4nR0AjXQYs0CdnQ
CNdBMzP1hqo6xkAAAAAAAoUlydrQCNdBqKwIAtEI10EzMzuVKYnGQAAAAAACH9kKBtEI
10FAhIgQ0QjXQTMzfesknsZAAAAAAALGiowV0QjXQXapCBfRCNdBMzPdKB2hxkAAAAAA
Atb7CBrRCNdBVOOHJ9EI10EzM9n3GrzGQAAAAAAC/pwLMdEI10HMXscz0QjXQTMzdXuS
wcZAAAAAAAIgXgk20QjXQWSyhjvRCNdBMzP9I43MxkAAAAAAAnjSyD7RCNdBshCIQ9EI
10EzM3GgC9bGQAAAAAACWvOKSNEI10Ge0IZJ0QjXQTMz+VoD2MZAAAAAAAKERQxY0QjX
QcZUCGHRCNdBMzN9efvpxkAAAAAAAkS9y3HRCNdBjL+GdNEI10EzMw1+ce/GQAAAAAAC
MZfIe9EI10GcwweR0QjXQTMz49bvGcdAAAAAAAJPscqV0QjXQaZ5yKTRCNdBMzORZ+s3
x0AAAAAAArb0i6bRCNdBaAaHp9EI10EzM/WK4TnHQAAAAAACkN0JrtEI10GmB4qy0QjX
QTMzId/hQsdAAAAAAAIaVIrM0QjXQaLSCNDRCNdBMzMx3N5Jx0AAAAAAAvmhydPRCNdB
wFpK1NEI10EzM79N4ErHQAAAAAACXHKK19EI10Fm1sY+0gjXQTMz0xVZGchAAAAAAAK4
c0hA0gjXQZLuiGDSCNdBMzOHC9pZyEAAAAAAAjrlzoLSCNdBLSMImdII10EzM22HTIbI
QAAAAAAC0JsKpNII10EKgAbs0gjXQTMz4U9EFslAAAAAAAJITYrv0gjXQX7CR/XSCNdB
MzNNOr8hyUAAAAAAAvILC/nSCNdBPnxIAtMI10EzM+UaOjTJQAAAAAACnHFJBtMI10Gg
Mggc0wjXQTMz7Zy3X8lAAAAAAAIaaQkp0wjXQaqECDzTCNdBMzMN1LWFyUAAAAAAAro0
i0TTCNdBby0JW9MI10EzM3fFsbLJQAAAAAACEqMKfNMI10FOXEiO0wjXQTMz7zct18lA
AAAAAAKbyMmS0wjXQYi+yJXTCNdBMzPJIyvdyUAAAAAAAmQmi5nTCNdBbK+JoNMI10Ez
M9k1KOvJQAAAAAACaAeIpdMI10HQ78mo0wjXQTMzqQas8clAAAAAAAIkJUm50wjXQbzL
x7/TCNdBMzPZU6n+yUAAAAAAApzdScXTCNdBtOFHzdMI10EzMwlcpQ7KQAAAAAAC/0DJ
09MI10Hww8jU0wjXQTMz62GkEMpAAAAAAAIoSEna0wjXQZCCB9zTCNdBMzO71iAUykAA
AAAAAgqfieHTCNdBjBAI5NMI10EzM7+5HRnKQAAAAAACtaWL+tMI10F5Wsf/0wjXQTMz
RyOVI8pAAAAAAAJK7UoP1AjXQVqFRxDUCNdBMzNnU44lykAAAAAAAgNeihPUCNdBvW9I
F9QI10EzM9t2Ci3KQAAAAAACPSuJG9QI10E6l8Yh1AjXQTMz1U6FOcpAAAAAAALcakkk
1AjXQaT7hyjUCNdBMzNlcAJCykAAAAAAAhQEDC3UCNdBGD9IR9QI10EzM23menbKQAAA
AAACbR5ITNQI10E49gdV1AjXQTMzA5b6h8pAAAAAAALJVwpZ1AjXQdRlyJ3UCNdBMzMZ
snYRy0AAAAAAAkbvSKDUCNdBLjeHw9UI10EzM+lB81fNQAAAAAADpYYKC9YI10GlhgoL
1gjXQTMz0a134s1AAAAAAARC6kcX1gjXQULqRxfWCNdBMzMtdfL6zUAAAAAAAwmnCEHW
CNdBCacIQdYI10EzM5nuc07OQAAAAAAEcjNIR9YI10FyM0hH1gjXQTMzjQfzWs5AAAAA
AALKUMjF1QjXQeQqiF7WCNdBMzMd9nKJzkAAAAAAAjifh2bWCNdBJjNHaNYI10EzM/kd
8ozOQAAAAAABkIOPddYI10Hog4B41gjXQTMzqR7Uks5AAAAAAAAAAAA=
</bin>
</fpdata>
</extensions>
</gpx>
